Darstellungsparameter: Aktuell verwendete Einstellungen:
Skalierung der Graphiken ... ?
xyx+y,   Skalierungsfaktor:      Skalierung: Modus: x, Faktor: 1
Darstellungszeitraum ... ?
Vom - - bis: - -   Zeitraum: 30.12.2014 - 29.06.2015
Min/Max/Avg-Anzeige ... ?
Zeige MMA aktuell
Zeige MMA Monat
Zeige MMA alles
Zeige --A aktuell
Zeige --A Monat
Zeige --A alles
Keine MMA-Anzeige
MMA:
Average (ber die Originaldaten)
MMA-Basis: 30.12.2014 - 29.06.2015
Quicknavigation für Darstellung... ?
Tage:      1T, 2T, 3T, 5T -1T -2T -3T -5T +1T +2T +3T +5T
Wochen: 1W, 2W, 3W -1W -2W -3W +1W +2W +3W
Monate: 1M, 3M, 6M -1M -3M -6M +1M +3M +6M
Jahre:    1J, 3J, 5J, 10J -1J -3J -5J -10J +1J +3J +5J +10J
Nutze für die Darstellung ... ?
Originaldaten oder Mittelwerte auf ...
Stundenbasis Tagesbasis Wochenbasis
Monatsbasis Jahresbasis      Datenbasis: Original-Daten
Darstellen als:
Statistik (Auto) Statistik J:M      Darstellung:
Zur Graphik,    zurück zur Übersicht aller Sensoren.
 
Tabellarische Datenbersicht: ?
 
Sensor: Nr:Datum:Temp:Abs-Feuchte:Windchill:Wind:
Aussen-T/F 1 30-12-2014 00:00:00 0.3 C 4.45 g/m*3 0.3 C 0 km/h
2 30-12-2014 00:05:00 0.3 C 4.45 g/m*3 0.3 C 0 km/h
3 30-12-2014 00:10:00 0.3 C 4.45 g/m*3 0.3 C 0 km/h
4 30-12-2014 00:15:00 0.3 C 4.45 g/m*3 0.3 C 0 km/h
5 30-12-2014 00:55:00 0.4 C 4.48 g/m*3 0.4 C 1.6 km/h
6 30-12-2014 01:00:00 0.3 C 4.45 g/m*3 0.3 C 3.2 km/h
7 30-12-2014 01:05:00 0.3 C 4.5 g/m*3 0.3 C 1.6 km/h
8 30-12-2014 01:10:00 0.3 C 4.5 g/m*3 0.3 C 0 km/h
9 30-12-2014 09:25:00 1.2 C 5.05 g/m*3 1.2 C 3.2 km/h
10 30-12-2014 09:30:00 1.2 C 5.05 g/m*3 1.2 C 1.6 km/h
11 30-12-2014 09:35:00 1.3 C 5.09 g/m*3 1.3 C 1.6 km/h
12 30-12-2014 09:40:00 1.3 C 5.09 g/m*3 1.3 C 1.6 km/h
13 30-12-2014 09:45:00 1.4 C 5.12 g/m*3 1.4 C 0 km/h
14 30-12-2014 09:50:00 1.4 C 5.12 g/m*3 1.4 C 1.6 km/h
15 30-12-2014 09:55:00 1.5 C 5.16 g/m*3 1.5 C 1.6 km/h
16 30-12-2014 10:00:00 1.6 C 5.19 g/m*3 1.6 C 0 km/h
17 30-12-2014 10:05:00 1.7 C 5.23 g/m*3 1.7 C 1.6 km/h
18 30-12-2014 10:10:00 1.7 C 5.23 g/m*3 1.7 C 1.6 km/h
19 30-12-2014 10:15:00 1.8 C 5.26 g/m*3 1.8 C 1.6 km/h
20 30-12-2014 10:20:00 1.8 C 5.26 g/m*3 1.8 C 3.2 km/h
21 30-12-2014 10:25:00 1.8 C 5.26 g/m*3 1.8 C 1.6 km/h
22 30-12-2014 10:30:00 1.9 C 5.3 g/m*3 1.9 C 1.6 km/h
23 30-12-2014 10:35:00 2 C 5.33 g/m*3 2 C 3.2 km/h
24 30-12-2014 10:40:00 2.2 C 5.41 g/m*3 2.2 C 3.2 km/h
25 30-12-2014 10:45:00 2.2 C 5.41 g/m*3 2.2 C 3.2 km/h
Sensor: Nr:Datum:Temp:Abs-Feuchte:Windchill:Wind:
Aussen-T/F 26 30-12-2014 10:50:00 2.3 C 5.44 g/m*3 2.3 C 3.2 km/h
27 30-12-2014 10:55:00 2.3 C 5.44 g/m*3 2.3 C 3.2 km/h
28 30-12-2014 11:00:00 2.4 C 5.48 g/m*3 2.4 C 3.2 km/h
29 30-12-2014 11:05:00 2.5 C 5.52 g/m*3 2.5 C 0 km/h
30 30-12-2014 11:10:00 2.6 C 5.56 g/m*3 2.6 C 4.8 km/h
31 30-12-2014 11:15:00 2.8 C 5.57 g/m*3 2.8 C 3.2 km/h
32 30-12-2014 11:20:00 2.9 C 5.61 g/m*3 2.9 C 1.6 km/h
33 30-12-2014 11:25:00 3 C 5.59 g/m*3 1.28 C 6.4 km/h
34 30-12-2014 11:30:00 2.9 C 5.55 g/m*3 2.9 C 0 km/h
35 30-12-2014 11:35:00 2.9 C 5.55 g/m*3 2.9 C 4.8 km/h
36 30-12-2014 11:40:00 3 C 5.59 g/m*3 3 C 3.2 km/h
37 30-12-2014 11:45:00 3.1 C 5.63 g/m*3 3.1 C 0 km/h
38 30-12-2014 11:50:00 3.2 C 5.6 g/m*3 3.2 C 1.6 km/h
39 30-12-2014 11:55:00 3.2 C 5.6 g/m*3 3.2 C 3.2 km/h
40 30-12-2014 12:00:00 3.3 C 5.64 g/m*3 3.3 C 3.2 km/h
41 30-12-2014 12:05:00 3.4 C 5.62 g/m*3 3.4 C 1.6 km/h
42 30-12-2014 12:10:00 3.4 C 5.62 g/m*3 3.4 C 3.2 km/h
43 30-12-2014 12:15:00 3.6 C 5.69 g/m*3 3.6 C 1.6 km/h
44 30-12-2014 12:20:00 3.6 C 5.63 g/m*3 3.6 C 3.2 km/h
45 30-12-2014 12:25:00 3.7 C 5.67 g/m*3 3.7 C 3.2 km/h
46 30-12-2014 12:30:00 3.7 C 5.67 g/m*3 3.7 C 1.6 km/h
47 30-12-2014 12:35:00 3.7 C 5.67 g/m*3 3.7 C 3.2 km/h
48 30-12-2014 12:40:00 3.7 C 5.61 g/m*3 3.7 C 0 km/h
49 30-12-2014 12:45:00 3.6 C 5.57 g/m*3 3.6 C 0 km/h
50 30-12-2014 12:50:00 3.6 C 5.63 g/m*3 3.6 C 3.2 km/h
Sensor: Nr:Datum:Temp:Abs-Feuchte:Windchill:Wind:
Aussen-T/F 51 30-12-2014 12:55:00 3.6 C 5.63 g/m*3 3.6 C 0 km/h
52 30-12-2014 13:00:00 3.5 C 5.6 g/m*3 3.5 C 0 km/h
53 30-12-2014 13:05:00 3.3 C 5.52 g/m*3 3.3 C 0 km/h
54 30-12-2014 13:10:00 3.3 C 5.52 g/m*3 3.3 C 1.6 km/h
55 30-12-2014 13:15:00 3.2 C 5.54 g/m*3 3.2 C 0 km/h
56 30-12-2014 13:20:00 3.2 C 5.54 g/m*3 3.2 C 0 km/h
57 30-12-2014 13:25:00 3.2 C 5.54 g/m*3 3.2 C 1.6 km/h
58 30-12-2014 13:30:00 3.2 C 5.54 g/m*3 3.2 C 1.6 km/h
59 30-12-2014 13:35:00 3.3 C 5.58 g/m*3 3.3 C 0 km/h
60 30-12-2014 13:40:00 3.3 C 5.58 g/m*3 3.3 C 0 km/h
61 30-12-2014 13:45:00 3.3 C 5.58 g/m*3 3.3 C 0 km/h
62 30-12-2014 13:50:00 3.2 C 5.54 g/m*3 3.2 C 0 km/h
63 30-12-2014 13:55:00 3.2 C 5.54 g/m*3 3.2 C 0 km/h
64 30-12-2014 14:00:00 3.4 C 5.62 g/m*3 3.4 C 4.8 km/h
65 30-12-2014 14:05:00 3.7 C 5.67 g/m*3 2.09 C 6.4 km/h
66 30-12-2014 14:10:00 3.8 C 5.65 g/m*3 2.21 C 6.4 km/h
67 30-12-2014 14:15:00 4.1 C 5.7 g/m*3 2.55 C 6.4 km/h
68 30-12-2014 14:20:00 4.2 C 5.67 g/m*3 0.84 C 14.5 km/h
69 30-12-2014 14:25:00 4.3 C 5.71 g/m*3 0.97 C 14.5 km/h
70 30-12-2014 14:30:00 4.3 C 5.71 g/m*3 4.3 C 4.8 km/h
71 30-12-2014 14:35:00 4.3 C 5.64 g/m*3 2.29 C 8.1 km/h
72 30-12-2014 14:40:00 4.3 C 5.64 g/m*3 4.3 C 4.8 km/h
73 30-12-2014 14:45:00 4.3 C 5.64 g/m*3 2.78 C 6.4 km/h
74 30-12-2014 14:50:00 4.2 C 5.61 g/m*3 4.2 C 3.2 km/h
75 30-12-2014 14:55:00 4.2 C 5.67 g/m*3 4.2 C 3.2 km/h
Sensor: Nr:Datum:Temp:Abs-Feuchte:Windchill:Wind:
Aussen-T/F 76 30-12-2014 15:00:00 4.1 C 5.63 g/m*3 2.05 C 8.1 km/h
77 30-12-2014 15:05:00 4 C 5.59 g/m*3 2.44 C 6.4 km/h
78 30-12-2014 15:10:00 4.1 C 5.63 g/m*3 1.65 C 9.7 km/h
79 30-12-2014 15:15:00 4.2 C 5.67 g/m*3 2.17 C 8.1 km/h
80 30-12-2014 15:20:00 4.2 C 5.67 g/m*3 1.43 C 11.3 km/h
81 30-12-2014 15:25:00 4.3 C 5.71 g/m*3 2.78 C 6.4 km/h
82 30-12-2014 15:30:00 4.3 C 5.77 g/m*3 4.3 C 3.2 km/h
83 30-12-2014 15:35:00 4.3 C 5.77 g/m*3 4.3 C 4.8 km/h
84 30-12-2014 15:40:00 4.3 C 5.77 g/m*3 4.3 C 4.8 km/h
85 30-12-2014 15:45:00 4.2 C 5.73 g/m*3 4.2 C 3.2 km/h
86 30-12-2014 15:50:00 4.1 C 5.76 g/m*3 4.1 C 4.8 km/h
87 30-12-2014 15:55:00 4.1 C 5.76 g/m*3 2.05 C 8.1 km/h
88 30-12-2014 16:00:00 4.1 C 5.76 g/m*3 4.1 C 3.2 km/h
89 30-12-2014 16:05:00 3.9 C 5.68 g/m*3 3.9 C 4.8 km/h
90 30-12-2014 16:10:00 3.8 C 5.65 g/m*3 3.8 C 1.6 km/h
91 30-12-2014 16:15:00 3.7 C 5.67 g/m*3 3.7 C 1.6 km/h
92 30-12-2014 16:20:00 3.6 C 5.63 g/m*3 3.6 C 1.6 km/h
93 30-12-2014 16:25:00 3.5 C 5.6 g/m*3 3.5 C 1.6 km/h
94 30-12-2014 16:30:00 3.3 C 5.58 g/m*3 3.3 C 1.6 km/h
95 30-12-2014 16:35:00 3.3 C 5.58 g/m*3 3.3 C 3.2 km/h
96 30-12-2014 16:40:00 3.3 C 5.58 g/m*3 3.3 C 1.6 km/h
97 30-12-2014 16:45:00 3.2 C 5.54 g/m*3 3.2 C 4.8 km/h
98 30-12-2014 16:50:00 3.3 C 5.58 g/m*3 1.11 C 8.1 km/h
99 30-12-2014 16:55:00 3.3 C 5.64 g/m*3 1.63 C 6.4 km/h
100 30-12-2014 17:00:00 3.3 C 5.58 g/m*3 3.3 C 1.6 km/h
Sensor: Nr:Datum:Temp:Abs-Feuchte:Windchill:Wind:
Aussen-T/F 101 30-12-2014 17:05:00 3.3 C 5.58 g/m*3 3.3 C 4.8 km/h
102 30-12-2014 17:10:00 3.3 C 5.58 g/m*3 3.3 C 4.8 km/h
103 30-12-2014 17:15:00 3.3 C 5.58 g/m*3 3.3 C 3.2 km/h
104 30-12-2014 17:20:00 3.2 C 5.54 g/m*3 3.2 C 1.6 km/h
105 30-12-2014 17:25:00 3.1 C 5.51 g/m*3 3.1 C 3.2 km/h
106 30-12-2014 17:30:00 3 C 5.53 g/m*3 3 C 1.6 km/h
107 30-12-2014 17:35:00 3.1 C 5.57 g/m*3 3.1 C 1.6 km/h
108 30-12-2014 17:40:00 3.2 C 5.6 g/m*3 3.2 C 3.2 km/h
109 30-12-2014 17:45:00 3.2 C 5.54 g/m*3 3.2 C 3.2 km/h
110 30-12-2014 17:50:00 3.2 C 5.54 g/m*3 3.2 C 3.2 km/h
111 30-12-2014 17:55:00 3.2 C 5.54 g/m*3 3.2 C 0 km/h
112 30-12-2014 18:00:00 3 C 5.47 g/m*3 3 C 3.2 km/h
113 30-12-2014 18:05:00 2.9 C 5.49 g/m*3 2.9 C 0 km/h
114 30-12-2014 18:10:00 2.8 C 5.46 g/m*3 2.8 C 3.2 km/h
115 30-12-2014 18:15:00 2.7 C 5.42 g/m*3 2.7 C 1.6 km/h
116 30-12-2014 18:20:00 2.6 C 5.38 g/m*3 2.6 C 3.2 km/h
117 30-12-2014 18:25:00 2.5 C 5.35 g/m*3 2.5 C 3.2 km/h
118 30-12-2014 18:30:00 2.4 C 5.31 g/m*3 2.4 C 3.2 km/h
119 30-12-2014 18:35:00 2.4 C 5.37 g/m*3 2.4 C 3.2 km/h
120 30-12-2014 18:40:00 2.3 C 5.33 g/m*3 2.3 C 1.6 km/h
121 30-12-2014 18:45:00 2.3 C 5.33 g/m*3 2.3 C 3.2 km/h
122 30-12-2014 18:50:00 2.2 C 5.29 g/m*3 2.2 C 3.2 km/h
123 30-12-2014 18:55:00 2.3 C 5.33 g/m*3 2.3 C 3.2 km/h
124 30-12-2014 19:00:00 2.2 C 5.29 g/m*3 2.2 C 1.6 km/h
125 30-12-2014 19:05:00 2.2 C 5.35 g/m*3 2.2 C 1.6 km/h
Sensor: Nr:Datum:Temp:Abs-Feuchte:Windchill:Wind:
Aussen-T/F 126 30-12-2014 19:10:00 2.2 C 5.35 g/m*3 2.2 C 1.6 km/h
127 30-12-2014 19:15:00 2.2 C 5.29 g/m*3 2.2 C 3.2 km/h
128 30-12-2014 19:20:00 2.1 C 5.31 g/m*3 2.1 C 1.6 km/h
129 30-12-2014 19:25:00 2.2 C 5.35 g/m*3 2.2 C 1.6 km/h
130 30-12-2014 19:30:00 2.2 C 5.35 g/m*3 2.2 C 1.6 km/h
131 30-12-2014 19:35:00 2.2 C 5.35 g/m*3 2.2 C 1.6 km/h
132 30-12-2014 19:40:00 2.2 C 5.35 g/m*3 2.2 C 1.6 km/h
133 30-12-2014 19:45:00 2.2 C 5.29 g/m*3 2.2 C 3.2 km/h
134 30-12-2014 19:50:00 2.2 C 5.29 g/m*3 2.2 C 4.8 km/h
135 30-12-2014 19:55:00 2.3 C 5.33 g/m*3 2.3 C 4.8 km/h
136 30-12-2014 20:00:00 2.4 C 5.31 g/m*3 2.4 C 3.2 km/h
137 30-12-2014 20:05:00 2.5 C 5.35 g/m*3 2.5 C 1.6 km/h
138 30-12-2014 20:10:00 2.4 C 5.25 g/m*3 2.4 C 0 km/h
139 30-12-2014 20:15:00 2.4 C 5.25 g/m*3 2.4 C 0 km/h
140 30-12-2014 20:20:00 2.3 C 5.27 g/m*3 2.3 C 4.8 km/h
141 30-12-2014 20:25:00 2.3 C 5.27 g/m*3 2.3 C 4.8 km/h
142 30-12-2014 20:30:00 2.7 C 5.3 g/m*3 2.7 C 1.6 km/h
143 30-12-2014 20:35:00 2.7 C 5.3 g/m*3 2.7 C 3.2 km/h
144 30-12-2014 20:40:00 2.5 C 5.23 g/m*3 2.5 C 3.2 km/h
145 30-12-2014 20:45:00 2.4 C 5.25 g/m*3 2.4 C 4.8 km/h
146 30-12-2014 20:50:00 2.4 C 5.25 g/m*3 0.59 C 6.4 km/h
147 30-12-2014 20:55:00 2.4 C 5.25 g/m*3 2.4 C 3.2 km/h
148 30-12-2014 21:00:00 2.3 C 5.22 g/m*3 2.3 C 1.6 km/h
149 30-12-2014 21:05:00 2.3 C 5.27 g/m*3 2.3 C 1.6 km/h
150 30-12-2014 21:10:00 2.3 C 5.27 g/m*3 2.3 C 1.6 km/h
Sensor: Nr:Datum:Temp:Abs-Feuchte:Windchill:Wind:
Aussen-T/F 151 30-12-2014 21:15:00 2.2 C 5.24 g/m*3 2.2 C 1.6 km/h
152 30-12-2014 21:20:00 2.1 C 5.2 g/m*3 2.1 C 1.6 km/h
153 30-12-2014 21:25:00 2.1 C 5.2 g/m*3 2.1 C 0 km/h
154 30-12-2014 21:30:00 2.1 C 5.2 g/m*3 2.1 C 1.6 km/h
155 30-12-2014 21:35:00 2 C 5.22 g/m*3 2 C 3.2 km/h
156 30-12-2014 21:40:00 2 C 5.22 g/m*3 2 C 3.2 km/h
157 30-12-2014 21:45:00 2.1 C 5.26 g/m*3 2.1 C 4.8 km/h
158 30-12-2014 21:50:00 2.1 C 5.2 g/m*3 2.1 C 1.6 km/h
159 30-12-2014 21:55:00 2.1 C 5.2 g/m*3 2.1 C 1.6 km/h
160 30-12-2014 22:00:00 2 C 5.17 g/m*3 2 C 1.6 km/h
161 30-12-2014 22:05:00 2 C 5.22 g/m*3 2 C 3.2 km/h
162 30-12-2014 22:10:00 1.9 C 5.19 g/m*3 1.9 C 1.6 km/h
163 30-12-2014 22:15:00 1.9 C 5.19 g/m*3 1.9 C 1.6 km/h
164 30-12-2014 22:20:00 1.9 C 5.19 g/m*3 1.9 C 1.6 km/h
165 30-12-2014 22:25:00 1.9 C 5.19 g/m*3 1.9 C 0 km/h
166 30-12-2014 22:30:00 1.9 C 5.19 g/m*3 1.9 C 0 km/h
167 30-12-2014 22:35:00 1.9 C 5.19 g/m*3 1.9 C 0 km/h
168 30-12-2014 22:40:00 1.9 C 5.19 g/m*3 1.9 C 1.6 km/h
169 30-12-2014 22:45:00 2 C 5.22 g/m*3 2 C 1.6 km/h
170 30-12-2014 22:50:00 2 C 5.22 g/m*3 2 C 1.6 km/h
171 30-12-2014 22:55:00 2 C 5.22 g/m*3 2 C 3.2 km/h
172 30-12-2014 23:00:00 2 C 5.22 g/m*3 2 C 1.6 km/h
173 30-12-2014 23:05:00 1.9 C 5.19 g/m*3 1.9 C 1.6 km/h
174 30-12-2014 23:10:00 1.9 C 5.19 g/m*3 1.9 C 1.6 km/h
175 30-12-2014 23:15:00 1.9 C 5.19 g/m*3 1.9 C 0 km/h
Sensor: Nr:Datum:Temp:Abs-Feuchte:Windchill:Wind:
Aussen-T/F 176 30-12-2014 23:20:00 1.9 C 5.19 g/m*3 1.9 C 0 km/h
177 30-12-2014 23:25:00 1.9 C 5.19 g/m*3 1.9 C 3.2 km/h
178 30-12-2014 23:30:00 1.9 C 5.19 g/m*3 1.9 C 3.2 km/h
179 30-12-2014 23:35:00 1.9 C 5.19 g/m*3 1.9 C 0 km/h
180 30-12-2014 23:40:00 1.9 C 5.19 g/m*3 1.9 C 1.6 km/h
181 30-12-2014 23:45:00 1.9 C 5.19 g/m*3 1.9 C 0 km/h
182 30-12-2014 23:50:00 1.9 C 5.19 g/m*3 1.9 C 1.6 km/h
183 30-12-2014 23:55:00 1.9 C 5.19 g/m*3 1.9 C 1.6 km/h
184 31-12-2014 00:00:00 1.9 C 5.24 g/m*3 1.9 C 1.6 km/h
185 31-12-2014 00:05:00 1.9 C 5.19 g/m*3 1.9 C 1.6 km/h
186 31-12-2014 00:10:00 1.9 C 5.19 g/m*3 1.9 C 0 km/h
187 31-12-2014 00:15:00 1.9 C 5.19 g/m*3 1.9 C 0 km/h
188 31-12-2014 00:20:00 1.9 C 5.19 g/m*3 1.9 C 0 km/h
189 31-12-2014 00:25:00 1.9 C 5.19 g/m*3 1.9 C 1.6 km/h
190 31-12-2014 00:30:00 1.9 C 5.24 g/m*3 1.9 C 0 km/h
191 31-12-2014 00:35:00 1.8 C 5.15 g/m*3 1.8 C 0 km/h
192 31-12-2014 00:40:00 1.9 C 5.24 g/m*3 1.9 C 0 km/h
193 31-12-2014 00:45:00 1.8 C 5.21 g/m*3 1.8 C 0 km/h
194 31-12-2014 00:50:00 1.9 C 5.24 g/m*3 1.9 C 1.6 km/h
195 31-12-2014 00:55:00 1.8 C 5.21 g/m*3 1.8 C 1.6 km/h
196 31-12-2014 01:00:00 1.8 C 5.21 g/m*3 1.8 C 0 km/h
197 31-12-2014 01:05:00 1.8 C 5.21 g/m*3 1.8 C 1.6 km/h
198 31-12-2014 01:10:00 1.8 C 5.21 g/m*3 1.8 C 0 km/h
199 31-12-2014 01:15:00 1.9 C 5.24 g/m*3 1.9 C 4.8 km/h
200 31-12-2014 01:20:00 1.9 C 5.24 g/m*3 1.9 C 1.6 km/h
Sensor: Nr:Datum:Temp:Abs-Feuchte:Windchill:Wind:
Aussen-T/F 201 31-12-2014 01:25:00 1.9 C 5.24 g/m*3 1.9 C 0 km/h
202 31-12-2014 01:30:00 2 C 5.22 g/m*3 2 C 1.6 km/h
203 31-12-2014 01:35:00 2.1 C 5.26 g/m*3 2.1 C 1.6 km/h
204 31-12-2014 01:40:00 2.1 C 5.26 g/m*3 2.1 C 1.6 km/h
205 31-12-2014 01:45:00 2.1 C 5.26 g/m*3 2.1 C 1.6 km/h
206 31-12-2014 01:50:00 2.1 C 5.26 g/m*3 2.1 C 0 km/h
207 31-12-2014 01:55:00 2.1 C 5.26 g/m*3 2.1 C 0 km/h
208 31-12-2014 02:00:00 2.1 C 5.26 g/m*3 2.1 C 1.6 km/h
209 31-12-2014 02:05:00 2.1 C 5.26 g/m*3 2.1 C 0 km/h
210 31-12-2014 02:10:00 2.1 C 5.26 g/m*3 2.1 C 1.6 km/h
211 31-12-2014 02:15:00 2.1 C 5.26 g/m*3 2.1 C 1.6 km/h
212 31-12-2014 02:20:00 2.1 C 5.26 g/m*3 2.1 C 0 km/h
213 31-12-2014 02:25:00 2.1 C 5.26 g/m*3 2.1 C 0 km/h
214 31-12-2014 02:30:00 2.1 C 5.26 g/m*3 2.1 C 1.6 km/h
215 31-12-2014 02:35:00 2.1 C 5.26 g/m*3 2.1 C 0 km/h
216 31-12-2014 02:40:00 2.1 C 5.26 g/m*3 2.1 C 0 km/h
217 31-12-2014 02:45:00 2.1 C 5.26 g/m*3 2.1 C 0 km/h
218 31-12-2014 02:50:00 2.1 C 5.26 g/m*3 2.1 C 1.6 km/h
219 31-12-2014 02:55:00 2.1 C 5.26 g/m*3 2.1 C 1.6 km/h
220 31-12-2014 03:00:00 2.1 C 5.26 g/m*3 2.1 C 1.6 km/h
221 31-12-2014 03:05:00 2.1 C 5.26 g/m*3 2.1 C 1.6 km/h
222 31-12-2014 03:10:00 2.1 C 5.26 g/m*3 2.1 C 1.6 km/h
223 31-12-2014 03:15:00 2.1 C 5.31 g/m*3 2.1 C 1.6 km/h
224 31-12-2014 03:20:00 2.1 C 5.26 g/m*3 2.1 C 3.2 km/h
225 31-12-2014 03:25:00 2.1 C 5.26 g/m*3 2.1 C 0 km/h
Sensor: Nr:Datum:Temp:Abs-Feuchte:Windchill:Wind:
Aussen-T/F 226 31-12-2014 03:30:00 2.1 C 5.26 g/m*3 2.1 C 1.6 km/h
227 31-12-2014 03:35:00 2.1 C 5.31 g/m*3 2.1 C 0 km/h
228 31-12-2014 03:40:00 2.1 C 5.31 g/m*3 2.1 C 0 km/h
229 31-12-2014 03:45:00 2.1 C 5.31 g/m*3 2.1 C 1.6 km/h
230 31-12-2014 03:50:00 2.1 C 5.31 g/m*3 2.1 C 0 km/h
231 31-12-2014 03:55:00 2.1 C 5.31 g/m*3 2.1 C 0 km/h
232 31-12-2014 04:00:00 2.1 C 5.31 g/m*3 2.1 C 0 km/h
233 31-12-2014 04:05:00 2.1 C 5.31 g/m*3 2.1 C 0 km/h
234 31-12-2014 04:10:00 2.1 C 5.31 g/m*3 2.1 C 0 km/h
235 31-12-2014 04:15:00 2.1 C 5.31 g/m*3 2.1 C 0 km/h
236 31-12-2014 04:20:00 2.1 C 5.31 g/m*3 2.1 C 0 km/h
237 31-12-2014 04:25:00 2.1 C 5.31 g/m*3 2.1 C 0 km/h
238 31-12-2014 04:30:00 2.1 C 5.31 g/m*3 2.1 C 0 km/h
239 31-12-2014 04:35:00 2.2 C 5.35 g/m*3 2.2 C 1.6 km/h
240 31-12-2014 04:40:00 2.2 C 5.35 g/m*3 2.2 C 0 km/h
241 31-12-2014 04:45:00 2.2 C 5.35 g/m*3 2.2 C 0 km/h
242 31-12-2014 04:50:00 2.2 C 5.35 g/m*3 2.2 C 0 km/h
243 31-12-2014 04:55:00 2.1 C 5.26 g/m*3 2.1 C 1.6 km/h
244 31-12-2014 05:00:00 2.2 C 5.35 g/m*3 2.2 C 1.6 km/h
245 31-12-2014 05:05:00 2.2 C 5.35 g/m*3 2.2 C 1.6 km/h
246 31-12-2014 05:10:00 2.2 C 5.35 g/m*3 2.2 C 1.6 km/h
247 31-12-2014 05:15:00 2.2 C 5.29 g/m*3 2.2 C 3.2 km/h
248 31-12-2014 05:20:00 2.3 C 5.33 g/m*3 2.3 C 3.2 km/h
249 31-12-2014 05:25:00 2.3 C 5.33 g/m*3 2.3 C 4.8 km/h
250 31-12-2014 05:30:00 2.3 C 5.33 g/m*3 2.3 C 1.6 km/h
Sensor: Nr:Datum:Temp:Abs-Feuchte:Windchill:Wind:
Aussen-T/F 251 31-12-2014 05:35:00 2.3 C 5.33 g/m*3 2.3 C 1.6 km/h
252 31-12-2014 05:40:00 2.3 C 5.33 g/m*3 2.3 C 1.6 km/h
253 31-12-2014 05:45:00 2.3 C 5.33 g/m*3 2.3 C 1.6 km/h
254 31-12-2014 05:50:00 2.3 C 5.33 g/m*3 2.3 C 0 km/h
255 31-12-2014 05:55:00 2.3 C 5.33 g/m*3 2.3 C 0 km/h
256 31-12-2014 06:00:00 2.3 C 5.33 g/m*3 2.3 C 3.2 km/h
257 31-12-2014 06:05:00 2.3 C 5.33 g/m*3 2.3 C 0 km/h
258 31-12-2014 06:10:00 2.3 C 5.33 g/m*3 2.3 C 0 km/h
259 31-12-2014 06:15:00 2.3 C 5.33 g/m*3 2.3 C 0 km/h
260 31-12-2014 06:20:00 2.3 C 5.33 g/m*3 2.3 C 3.2 km/h
261 31-12-2014 06:25:00 2.3 C 5.33 g/m*3 2.3 C 1.6 km/h
262 31-12-2014 06:30:00 2.2 C 5.29 g/m*3 2.2 C 1.6 km/h
263 31-12-2014 06:35:00 2.2 C 5.29 g/m*3 2.2 C 0 km/h
264 31-12-2014 06:40:00 2.2 C 5.29 g/m*3 2.2 C 1.6 km/h
265 31-12-2014 06:45:00 2.3 C 5.33 g/m*3 2.3 C 3.2 km/h
266 31-12-2014 06:50:00 2.3 C 5.33 g/m*3 2.3 C 3.2 km/h
267 31-12-2014 06:55:00 2.3 C 5.33 g/m*3 2.3 C 1.6 km/h
268 31-12-2014 07:00:00 2.3 C 5.33 g/m*3 2.3 C 3.2 km/h
269 31-12-2014 07:05:00 2.4 C 5.37 g/m*3 2.4 C 4.8 km/h
270 31-12-2014 07:10:00 2.4 C 5.37 g/m*3 2.4 C 3.2 km/h
271 31-12-2014 07:15:00 2.4 C 5.37 g/m*3 2.4 C 4.8 km/h
272 31-12-2014 07:20:00 2.5 C 5.4 g/m*3 2.5 C 1.6 km/h
273 31-12-2014 07:25:00 2.5 C 5.35 g/m*3 2.5 C 4.8 km/h
274 31-12-2014 07:30:00 2.6 C 5.44 g/m*3 2.6 C 3.2 km/h
275 31-12-2014 07:35:00 2.6 C 5.38 g/m*3 2.6 C 3.2 km/h
Sensor: Nr:Datum:Temp:Abs-Feuchte:Windchill:Wind:
Aussen-T/F 276 31-12-2014 07:40:00 2.6 C 5.38 g/m*3 2.6 C 3.2 km/h
277 31-12-2014 07:45:00 2.6 C 5.38 g/m*3 2.6 C 0 km/h
278 31-12-2014 07:50:00 2.5 C 5.35 g/m*3 2.5 C 3.2 km/h
279 31-12-2014 07:55:00 2.4 C 5.37 g/m*3 2.4 C 1.6 km/h
280 31-12-2014 08:00:00 2.5 C 5.35 g/m*3 2.5 C 3.2 km/h
281 31-12-2014 08:05:00 2.4 C 5.37 g/m*3 2.4 C 3.2 km/h
282 31-12-2014 08:10:00 2.4 C 5.37 g/m*3 2.4 C 3.2 km/h
283 31-12-2014 08:15:00 2.5 C 5.4 g/m*3 2.5 C 4.8 km/h
284 31-12-2014 08:20:00 2.6 C 5.44 g/m*3 0.82 C 6.4 km/h
285 31-12-2014 08:25:00 2.6 C 5.44 g/m*3 0.82 C 6.4 km/h
286 31-12-2014 08:30:00 2.6 C 5.44 g/m*3 2.6 C 1.6 km/h
287 31-12-2014 08:35:00 2.6 C 5.44 g/m*3 2.6 C 3.2 km/h
288 31-12-2014 08:40:00 2.6 C 5.38 g/m*3 0.29 C 8.1 km/h
289 31-12-2014 08:45:00 2.7 C 5.42 g/m*3 0.4 C 8.1 km/h
290 31-12-2014 08:50:00 2.7 C 5.42 g/m*3 2.7 C 4.8 km/h
291 31-12-2014 08:55:00 2.6 C 5.38 g/m*3 2.6 C 3.2 km/h
292 31-12-2014 09:00:00 2.7 C 5.42 g/m*3 0.4 C 8.1 km/h
293 31-12-2014 09:05:00 2.7 C 5.42 g/m*3 0.4 C 8.1 km/h
294 31-12-2014 09:10:00 2.7 C 5.42 g/m*3 0.94 C 6.4 km/h
295 31-12-2014 09:15:00 2.7 C 5.42 g/m*3 0.4 C 8.1 km/h
296 31-12-2014 09:20:00 2.7 C 5.42 g/m*3 -0.38 C 11.3 km/h
297 31-12-2014 09:25:00 2.8 C 5.4 g/m*3 0.52 C 8.1 km/h
298 31-12-2014 09:30:00 2.8 C 5.4 g/m*3 0.52 C 8.1 km/h
299 31-12-2014 09:35:00 2.8 C 5.4 g/m*3 0.52 C 8.1 km/h
300 31-12-2014 09:40:00 2.8 C 5.4 g/m*3 0.1 C 9.7 km/h
Sensor: Nr:Datum:Temp:Abs-Feuchte:Windchill:Wind:
Aussen-T/F 301 31-12-2014 09:45:00 2.8 C 5.4 g/m*3 1.05 C 6.4 km/h
302 31-12-2014 09:50:00 2.8 C 5.4 g/m*3 0.1 C 9.7 km/h
303 31-12-2014 09:55:00 2.9 C 5.43 g/m*3 0.64 C 8.1 km/h
304 31-12-2014 10:00:00 2.9 C 5.43 g/m*3 1.17 C 6.4 km/h
305 31-12-2014 10:05:00 2.9 C 5.43 g/m*3 1.17 C 6.4 km/h
306 31-12-2014 10:10:00 2.9 C 5.43 g/m*3 1.17 C 6.4 km/h
307 31-12-2014 10:15:00 3 C 5.47 g/m*3 0.34 C 9.7 km/h
308 31-12-2014 10:20:00 3 C 5.47 g/m*3 0.76 C 8.1 km/h
309 31-12-2014 10:25:00 3.1 C 5.51 g/m*3 0.46 C 9.7 km/h
310 31-12-2014 10:30:00 3.1 C 5.51 g/m*3 0.1 C 11.3 km/h
311 31-12-2014 10:35:00 3.1 C 5.45 g/m*3 0.87 C 8.1 km/h
312 31-12-2014 10:40:00 3.2 C 5.48 g/m*3 0.22 C 11.3 km/h
313 31-12-2014 10:45:00 3.2 C 5.48 g/m*3 0.22 C 11.3 km/h
314 31-12-2014 10:50:00 3.2 C 5.48 g/m*3 0.99 C 8.1 km/h
315 31-12-2014 10:55:00 3.3 C 5.52 g/m*3 0.34 C 11.3 km/h
316 31-12-2014 11:00:00 3.2 C 5.48 g/m*3 0.99 C 8.1 km/h
317 31-12-2014 11:05:00 3.2 C 5.48 g/m*3 0.58 C 9.7 km/h
318 31-12-2014 11:10:00 3.2 C 5.48 g/m*3 0.58 C 9.7 km/h
319 31-12-2014 11:15:00 3.3 C 5.52 g/m*3 1.11 C 8.1 km/h
320 31-12-2014 11:20:00 3.3 C 5.52 g/m*3 1.11 C 8.1 km/h
321 31-12-2014 11:25:00 3.3 C 5.52 g/m*3 1.63 C 6.4 km/h
322 31-12-2014 11:30:00 3.4 C 5.56 g/m*3 1.23 C 8.1 km/h
323 31-12-2014 11:35:00 3.4 C 5.56 g/m*3 1.75 C 6.4 km/h
324 31-12-2014 11:40:00 3.5 C 5.6 g/m*3 1.34 C 8.1 km/h
325 31-12-2014 11:45:00 3.6 C 5.63 g/m*3 1.46 C 8.1 km/h
Sensor: Nr:Datum:Temp:Abs-Feuchte:Windchill:Wind:
Aussen-T/F 326 31-12-2014 11:50:00 3.6 C 5.63 g/m*3 3.6 C 4.8 km/h
327 31-12-2014 11:55:00 3.6 C 5.63 g/m*3 3.6 C 4.8 km/h
328 31-12-2014 12:00:00 3.6 C 5.63 g/m*3 3.6 C 4.8 km/h
329 31-12-2014 17:10:00 3.3 C 6.07 g/m*3 3.3 C 1.6 km/h
330 31-12-2014 17:15:00 3.2 C 6.03 g/m*3 3.2 C 3.2 km/h
331 31-12-2014 17:20:00 3.2 C 6.03 g/m*3 3.2 C 1.6 km/h
332 31-12-2014 17:25:00 3.2 C 6.03 g/m*3 3.2 C 3.2 km/h
333 31-12-2014 17:30:00 3.2 C 6.03 g/m*3 0.58 C 9.7 km/h
334 31-12-2014 17:35:00 3.2 C 6.03 g/m*3 3.2 C 3.2 km/h
335 31-12-2014 17:40:00 3.2 C 6.03 g/m*3 3.2 C 3.2 km/h
336 01-01-2015 00:15:00 2.6 C 5.79 g/m*3 2.6 C 0 km/h
337 01-01-2015 00:20:00 2.6 C 5.79 g/m*3 2.6 C 0 km/h
338 01-01-2015 00:25:00 2.6 C 5.79 g/m*3 2.6 C 0 km/h
339 01-01-2015 00:30:00 2.6 C 5.79 g/m*3 2.6 C 1.6 km/h
340 01-01-2015 00:35:00 2.7 C 5.59 g/m*3 2.7 C 0 km/h
341 01-01-2015 00:40:00 2.7 C 5.59 g/m*3 2.7 C 0 km/h
342 01-01-2015 00:45:00 2.7 C 5.59 g/m*3 2.7 C 1.6 km/h
343 01-01-2015 00:50:00 2.7 C 5.59 g/m*3 2.7 C 0 km/h
344 01-01-2015 00:55:00 2.7 C 5.59 g/m*3 2.7 C 0 km/h
345 01-01-2015 01:00:00 2.7 C 5.59 g/m*3 2.7 C 1.6 km/h
346 01-01-2015 01:05:00 2.8 C 5.63 g/m*3 2.8 C 1.6 km/h
347 01-01-2015 01:10:00 2.8 C 5.63 g/m*3 2.8 C 0 km/h
348 01-01-2015 01:15:00 2.8 C 5.63 g/m*3 2.8 C 0 km/h
349 01-01-2015 01:20:00 2.8 C 5.63 g/m*3 2.8 C 1.6 km/h
350 01-01-2015 01:25:00 2.9 C 5.67 g/m*3 2.9 C 0 km/h
Sensor: Nr:Datum:Temp:Abs-Feuchte:Windchill:Wind:
Aussen-T/F 351 01-01-2015 01:30:00 2.9 C 5.67 g/m*3 2.9 C 1.6 km/h
352 01-01-2015 01:35:00 2.9 C 5.67 g/m*3 2.9 C 0 km/h
353 01-01-2015 01:40:00 2.9 C 5.67 g/m*3 2.9 C 0 km/h
354 01-01-2015 01:45:00 2.9 C 5.67 g/m*3 2.9 C 1.6 km/h
355 01-01-2015 01:50:00 2.9 C 5.67 g/m*3 2.9 C 0 km/h
356 01-01-2015 01:55:00 2.9 C 5.67 g/m*3 2.9 C 0 km/h
357 01-01-2015 02:00:00 2.8 C 5.63 g/m*3 2.8 C 0 km/h
358 01-01-2015 02:05:00 2.8 C 5.63 g/m*3 2.8 C 0 km/h
359 01-01-2015 02:10:00 2.8 C 5.63 g/m*3 2.8 C 0 km/h
360 01-01-2015 02:15:00 2.8 C 5.63 g/m*3 2.8 C 0 km/h
361 01-01-2015 02:20:00 2.8 C 5.63 g/m*3 2.8 C 0 km/h
362 01-01-2015 02:25:00 2.8 C 5.63 g/m*3 2.8 C 0 km/h
363 01-01-2015 02:30:00 2.8 C 5.63 g/m*3 2.8 C 0 km/h
364 01-01-2015 02:35:00 2.8 C 5.63 g/m*3 2.8 C 0 km/h
365 01-01-2015 02:40:00 2.7 C 5.59 g/m*3 2.7 C 0 km/h
366 01-01-2015 02:45:00 2.7 C 5.59 g/m*3 2.7 C 0 km/h
367 01-01-2015 02:50:00 2.7 C 5.59 g/m*3 2.7 C 0 km/h
368 01-01-2015 02:55:00 2.6 C 5.56 g/m*3 2.6 C 0 km/h
369 01-01-2015 03:00:00 2.5 C 5.52 g/m*3 2.5 C 0 km/h
370 01-01-2015 03:05:00 2.4 C 5.42 g/m*3 2.4 C 0 km/h
371 01-01-2015 03:10:00 2.2 C 5.35 g/m*3 2.2 C 3.2 km/h
372 01-01-2015 03:15:00 1.9 C 5.24 g/m*3 1.9 C 3.2 km/h
373 01-01-2015 03:20:00 1.8 C 5.21 g/m*3 1.8 C 3.2 km/h
374 01-01-2015 03:25:00 1.8 C 5.26 g/m*3 1.8 C 3.2 km/h
375 01-01-2015 03:30:00 1.7 C 5.23 g/m*3 1.7 C 0 km/h
Sensor: Nr:Datum:Temp:Abs-Feuchte:Windchill:Wind:
Aussen-T/F 376 01-01-2015 03:35:00 1.6 C 5.19 g/m*3 1.6 C 1.6 km/h
377 01-01-2015 03:40:00 1.6 C 5.19 g/m*3 1.6 C 1.6 km/h
378 01-01-2015 03:45:00 1.4 C 5.12 g/m*3 1.4 C 3.2 km/h
379 01-01-2015 03:50:00 1.4 C 5.12 g/m*3 1.4 C 3.2 km/h
380 01-01-2015 03:55:00 1.3 C 5.09 g/m*3 1.3 C 0 km/h
381 01-01-2015 04:00:00 1.3 C 5.09 g/m*3 1.3 C 1.6 km/h
382 01-01-2015 04:05:00 1.3 C 5.09 g/m*3 1.3 C 0 km/h
383 01-01-2015 04:10:00 1.2 C 5.05 g/m*3 1.2 C 3.2 km/h
384 01-01-2015 04:15:00 1.1 C 5.02 g/m*3 1.1 C 1.6 km/h
385 01-01-2015 04:20:00 1 C 4.98 g/m*3 1 C 1.6 km/h
386 01-01-2015 04:25:00 0.9 C 4.95 g/m*3 0.9 C 4.8 km/h
387 01-01-2015 04:30:00 0.9 C 4.95 g/m*3 0.9 C 4.8 km/h
388 01-01-2015 04:35:00 0.9 C 4.95 g/m*3 0.9 C 1.6 km/h
389 01-01-2015 04:40:00 0.9 C 5 g/m*3 0.9 C 3.2 km/h
390 01-01-2015 04:45:00 0.9 C 5 g/m*3 0.9 C 1.6 km/h
391 01-01-2015 04:50:00 0.9 C 5 g/m*3 0.9 C 3.2 km/h
392 01-01-2015 04:55:00 1 C 5.03 g/m*3 1 C 1.6 km/h
393 01-01-2015 05:00:00 1.1 C 5.07 g/m*3 1.1 C 1.6 km/h
394 01-01-2015 05:05:00 1.2 C 5.1 g/m*3 1.2 C 3.2 km/h
395 01-01-2015 05:10:00 1.3 C 5.14 g/m*3 1.3 C 0 km/h
396 01-01-2015 05:15:00 1.4 C 5.17 g/m*3 1.4 C 1.6 km/h
397 01-01-2015 05:20:00 1.5 C 5.21 g/m*3 1.5 C 0 km/h
398 01-01-2015 05:25:00 1.5 C 5.21 g/m*3 1.5 C 0 km/h
399 01-01-2015 05:30:00 1.5 C 5.21 g/m*3 1.5 C 1.6 km/h
400 01-01-2015 05:35:00 1.6 C 5.25 g/m*3 1.6 C 0 km/h
Sensor: Nr:Datum:Temp:Abs-Feuchte:Windchill:Wind:
Aussen-T/F 401 01-01-2015 05:40:00 1.7 C 5.28 g/m*3 1.7 C 3.2 km/h
402 01-01-2015 05:45:00 1.7 C 5.28 g/m*3 1.7 C 0 km/h
403 01-01-2015 05:50:00 1.8 C 5.32 g/m*3 1.8 C 4.8 km/h
404 01-01-2015 05:55:00 1.8 C 5.32 g/m*3 1.8 C 3.2 km/h
405 01-01-2015 06:00:00 1.8 C 5.32 g/m*3 -0.1 C 6.4 km/h
406 01-01-2015 06:05:00 1.8 C 5.32 g/m*3 -0.1 C 6.4 km/h
407 01-01-2015 06:10:00 1.8 C 5.32 g/m*3 1.8 C 4.8 km/h
408 01-01-2015 06:15:00 1.8 C 5.32 g/m*3 1.8 C 3.2 km/h
409 01-01-2015 06:20:00 1.8 C 5.32 g/m*3 1.8 C 4.8 km/h
410 01-01-2015 06:25:00 1.8 C 5.32 g/m*3 1.8 C 3.2 km/h
411 01-01-2015 06:30:00 1.8 C 5.32 g/m*3 1.8 C 4.8 km/h
412 01-01-2015 06:35:00 1.8 C 5.32 g/m*3 -0.65 C 8.1 km/h
413 01-01-2015 06:40:00 1.8 C 5.32 g/m*3 1.8 C 4.8 km/h
414 01-01-2015 06:45:00 1.8 C 5.32 g/m*3 -0.1 C 6.4 km/h
415 01-01-2015 06:50:00 1.8 C 5.32 g/m*3 -0.65 C 8.1 km/h
416 01-01-2015 06:55:00 1.8 C 5.32 g/m*3 1.8 C 4.8 km/h
417 01-01-2015 07:00:00 1.8 C 5.32 g/m*3 -0.1 C 6.4 km/h
418 01-01-2015 07:05:00 1.8 C 5.32 g/m*3 1.8 C 1.6 km/h
419 01-01-2015 07:10:00 1.8 C 5.32 g/m*3 1.8 C 3.2 km/h
420 01-01-2015 07:15:00 1.8 C 5.32 g/m*3 1.8 C 3.2 km/h
421 01-01-2015 07:20:00 1.7 C 5.28 g/m*3 1.7 C 0 km/h
422 01-01-2015 07:25:00 1.7 C 5.28 g/m*3 1.7 C 3.2 km/h
423 01-01-2015 07:30:00 1.7 C 5.28 g/m*3 1.7 C 4.8 km/h
424 01-01-2015 07:35:00 1.7 C 5.28 g/m*3 1.7 C 1.6 km/h
425 01-01-2015 07:40:00 1.7 C 5.28 g/m*3 1.7 C 4.8 km/h
Sensor: Nr:Datum:Temp:Abs-Feuchte:Windchill:Wind:
Aussen-T/F 426 01-01-2015 07:45:00 1.6 C 5.25 g/m*3 1.6 C 3.2 km/h
427 01-01-2015 07:50:00 1.6 C 5.25 g/m*3 1.6 C 0 km/h
428 01-01-2015 07:55:00 1.6 C 5.25 g/m*3 1.6 C 3.2 km/h
429 01-01-2015 08:00:00 1.6 C 5.25 g/m*3 1.6 C 3.2 km/h
430 01-01-2015 08:05:00 1.6 C 5.25 g/m*3 1.6 C 1.6 km/h
431 01-01-2015 08:10:00 1.6 C 5.25 g/m*3 1.6 C 3.2 km/h
432 01-01-2015 08:15:00 1.6 C 5.25 g/m*3 1.6 C 1.6 km/h
433 01-01-2015 08:20:00 1.6 C 5.25 g/m*3 1.6 C 0 km/h
434 01-01-2015 08:25:00 1.5 C 5.21 g/m*3 1.5 C 1.6 km/h
435 01-01-2015 08:30:00 1.5 C 5.21 g/m*3 1.5 C 0 km/h
436 01-01-2015 08:35:00 1.5 C 5.21 g/m*3 1.5 C 0 km/h
437 01-01-2015 16:40:00 1.8 C 5.48 g/m*3 1.8 C 1.6 km/h
438 01-01-2015 16:45:00 1.8 C 5.48 g/m*3 1.8 C 3.2 km/h
439 01-01-2015 18:30:00 1.9 C 5.24 g/m*3 1.9 C 3.2 km/h
440 01-01-2015 18:35:00 1.8 C 5.15 g/m*3 1.8 C 1.6 km/h
441 01-01-2015 18:40:00 1.7 C 5.17 g/m*3 1.7 C 3.2 km/h
442 01-01-2015 18:45:00 1.6 C 5.14 g/m*3 1.6 C 0 km/h
443 01-01-2015 18:50:00 1.6 C 5.14 g/m*3 1.6 C 0 km/h
444 01-01-2015 18:55:00 1.5 C 5.1 g/m*3 1.5 C 0 km/h
445 01-01-2015 19:00:00 1.3 C 5.03 g/m*3 1.3 C 0 km/h
446 01-01-2015 19:05:00 1.2 C 5 g/m*3 1.2 C 1.6 km/h
447 01-01-2015 19:10:00 1.2 C 5 g/m*3 1.2 C 3.2 km/h
448 01-01-2015 19:15:00 1.2 C 5.05 g/m*3 1.2 C 3.2 km/h
449 01-01-2015 19:20:00 1.1 C 4.96 g/m*3 1.1 C 1.6 km/h
450 01-01-2015 19:25:00 1.1 C 4.96 g/m*3 1.1 C 3.2 km/h
Sensor: Nr:Datum:Temp:Abs-Feuchte:Windchill:Wind:
Aussen-T/F 451 01-01-2015 19:30:00 1.1 C 4.96 g/m*3 1.1 C 1.6 km/h
452 02-01-2015 03:25:00 2.2 C 4.96 g/m*3 -0.99 C 11.3 km/h
453 02-01-2015 03:30:00 2.2 C 4.96 g/m*3 2.2 C 1.6 km/h
454 02-01-2015 03:35:00 2.2 C 4.96 g/m*3 -0.61 C 9.7 km/h
455 02-01-2015 05:05:00 3.2 C 4.94 g/m*3 -0.1 C 12.9 km/h
456 02-01-2015 05:10:00 3.2 C 4.94 g/m*3 0.22 C 11.3 km/h
457 02-01-2015 05:15:00 3.2 C 4.94 g/m*3 -1.32 C 20.9 km/h
458 02-01-2015 05:20:00 3.2 C 4.94 g/m*3 0.22 C 11.3 km/h
459 02-01-2015 05:25:00 3.2 C 4.94 g/m*3 0.22 C 11.3 km/h
460 02-01-2015 05:30:00 3.2 C 4.94 g/m*3 -0.39 C 14.5 km/h
461 02-01-2015 06:25:00 3.6 C 4.95 g/m*3 -0.15 C 16.1 km/h
462 02-01-2015 06:30:00 3.4 C 4.95 g/m*3 -0.14 C 14.5 km/h
463 02-01-2015 06:35:00 3.3 C 4.97 g/m*3 -1.57 C 24.1 km/h
464 02-01-2015 06:40:00 3.3 C 4.97 g/m*3 -0.76 C 17.7 km/h
465 02-01-2015 06:45:00 3.3 C 5.04 g/m*3 -1.19 C 20.9 km/h
466 02-01-2015 06:50:00 3.2 C 5 g/m*3 -1.11 C 19.3 km/h
467 02-01-2015 06:55:00 3.2 C 5 g/m*3 -1.87 C 25.7 km/h
468 02-01-2015 07:00:00 3.3 C 5.04 g/m*3 -1.74 C 25.7 km/h
469 02-01-2015 07:05:00 3.2 C 5 g/m*3 -1.51 C 22.5 km/h
470 02-01-2015 07:10:00 3.2 C 5 g/m*3 -0.89 C 17.7 km/h
471 02-01-2015 07:15:00 3.2 C 5.06 g/m*3 0.22 C 11.3 km/h
472 02-01-2015 07:20:00 3.1 C 5.03 g/m*3 -1.64 C 22.5 km/h
473 02-01-2015 07:25:00 3.1 C 5.09 g/m*3 -1.45 C 20.9 km/h
474 02-01-2015 07:30:00 3.1 C 5.09 g/m*3 -2.18 C 27.4 km/h
475 02-01-2015 07:35:00 3 C 5.05 g/m*3 -0.9 C 16.1 km/h
Sensor: Nr:Datum:Temp:Abs-Feuchte:Windchill:Wind:
Aussen-T/F 476 02-01-2015 07:40:00 3 C 5.05 g/m*3 -0.34 C 12.9 km/h
477 02-01-2015 07:45:00 2.9 C 5.08 g/m*3 -0.76 C 14.5 km/h
478 02-01-2015 07:50:00 2.9 C 5.08 g/m*3 -0.46 C 12.9 km/h
479 02-01-2015 07:55:00 2.9 C 5.08 g/m*3 -0.76 C 14.5 km/h
480 02-01-2015 08:00:00 2.8 C 5.1 g/m*3 -2.02 C 22.5 km/h
481 02-01-2015 08:05:00 2.8 C 5.1 g/m*3 0.52 C 8.1 km/h
482 02-01-2015 08:10:00 2.8 C 5.1 g/m*3 -0.26 C 11.3 km/h
483 02-01-2015 08:15:00 2.8 C 5.1 g/m*3 -1.61 C 19.3 km/h
484 02-01-2015 08:20:00 2.7 C 5.13 g/m*3 -2.34 C 24.1 km/h
485 02-01-2015 08:25:00 2.8 C 5.16 g/m*3 -1.61 C 19.3 km/h
486 02-01-2015 08:30:00 2.8 C 5.16 g/m*3 -0.88 C 14.5 km/h
487 02-01-2015 08:35:00 2.8 C 5.16 g/m*3 -1.39 C 17.7 km/h
488 02-01-2015 08:40:00 2.7 C 5.13 g/m*3 -1.95 C 20.9 km/h
489 02-01-2015 08:45:00 2.8 C 5.16 g/m*3 -2.57 C 27.4 km/h
490 02-01-2015 08:50:00 2.8 C 5.22 g/m*3 -1.39 C 17.7 km/h
491 02-01-2015 08:55:00 2.7 C 5.19 g/m*3 -1.74 C 19.3 km/h
492 02-01-2015 09:00:00 2.7 C 5.19 g/m*3 -1.51 C 17.7 km/h
493 02-01-2015 09:05:00 2.7 C 5.24 g/m*3 -1.27 C 16.1 km/h
494 02-01-2015 09:10:00 2.7 C 5.24 g/m*3 -2.15 C 22.5 km/h
495 02-01-2015 09:15:00 2.7 C 5.24 g/m*3 -2.15 C 22.5 km/h
496 02-01-2015 09:20:00 2.7 C 5.24 g/m*3 -1.95 C 20.9 km/h
497 02-01-2015 09:25:00 2.7 C 5.24 g/m*3 -2.34 C 24.1 km/h
498 02-01-2015 09:30:00 2.7 C 5.3 g/m*3 -2.34 C 24.1 km/h
499 02-01-2015 09:35:00 2.7 C 5.3 g/m*3 -1.27 C 16.1 km/h
500 02-01-2015 09:40:00 2.7 C 5.24 g/m*3 -2.34 C 24.1 km/h
Sensor: Nr:Datum:Temp:Abs-Feuchte:Windchill:Wind:
Aussen-T/F 501 02-01-2015 09:45:00 2.8 C 5.28 g/m*3 -2.39 C 25.7 km/h
502 02-01-2015 09:50:00 2.8 C 5.28 g/m*3 -1.39 C 17.7 km/h
503 02-01-2015 09:55:00 2.8 C 5.28 g/m*3 -1.83 C 20.9 km/h
504 02-01-2015 10:00:00 2.9 C 5.32 g/m*3 -1.02 C 16.1 km/h
505 02-01-2015 10:05:00 2.9 C 5.32 g/m*3 -2.26 C 25.7 km/h
506 02-01-2015 10:10:00 3 C 5.35 g/m*3 -1.77 C 22.5 km/h
507 02-01-2015 10:15:00 3.1 C 5.39 g/m*3 -1.83 C 24.1 km/h
508 02-01-2015 10:20:00 3.1 C 5.39 g/m*3 -1.45 C 20.9 km/h
509 02-01-2015 10:25:00 3.2 C 5.42 g/m*3 -1.7 C 24.1 km/h
510 02-01-2015 10:30:00 3.2 C 5.42 g/m*3 -0.89 C 17.7 km/h
511 02-01-2015 10:35:00 3.3 C 5.4 g/m*3 -0.76 C 17.7 km/h
512 02-01-2015 10:40:00 3.3 C 5.4 g/m*3 -1.19 C 20.9 km/h
513 02-01-2015 10:45:00 3.3 C 5.4 g/m*3 -0.99 C 19.3 km/h
514 02-01-2015 10:50:00 3.3 C 5.4 g/m*3 -0.76 C 17.7 km/h
515 02-01-2015 10:55:00 3.4 C 5.44 g/m*3 -1.44 C 24.1 km/h
516 02-01-2015 11:00:00 3.4 C 5.44 g/m*3 -0.64 C 17.7 km/h
517 02-01-2015 11:05:00 3.5 C 5.47 g/m*3 -0.28 C 16.1 km/h
518 02-01-2015 11:10:00 3.5 C 5.47 g/m*3 -1.49 C 25.7 km/h
519 02-01-2015 11:15:00 3.5 C 5.47 g/m*3 0.58 C 11.3 km/h
520 02-01-2015 11:20:00 3.6 C 5.51 g/m*3 -1.01 C 22.5 km/h
521 02-01-2015 11:25:00 3.6 C 5.51 g/m*3 -1.19 C 24.1 km/h
522 02-01-2015 11:30:00 3.7 C 5.55 g/m*3 -0.88 C 22.5 km/h
523 02-01-2015 11:35:00 3.7 C 5.55 g/m*3 -1.23 C 25.7 km/h
524 02-01-2015 11:40:00 3.7 C 5.55 g/m*3 -0.69 C 20.9 km/h
525 02-01-2015 11:45:00 3.8 C 5.58 g/m*3 -0.75 C 22.5 km/h
Sensor: Nr:Datum:Temp:Abs-Feuchte:Windchill:Wind:
Aussen-T/F 526 02-01-2015 11:50:00 3.8 C 5.58 g/m*3 -0.56 C 20.9 km/h
527 02-01-2015 11:55:00 3.9 C 5.62 g/m*3 -0.97 C 25.7 km/h
528 02-01-2015 12:00:00 3.9 C 5.62 g/m*3 -0.23 C 19.3 km/h
529 02-01-2015 12:05:00 4.1 C 5.7 g/m*3 0.47 C 16.1 km/h
530 02-01-2015 12:10:00 4.1 C 5.7 g/m*3 0.47 C 16.1 km/h
531 02-01-2015 12:15:00 4.1 C 5.7 g/m*3 0.02 C 19.3 km/h
532 02-01-2015 12:20:00 4.2 C 5.73 g/m*3 0.15 C 19.3 km/h
533 02-01-2015 12:25:00 4.2 C 5.73 g/m*3 0.36 C 17.7 km/h
534 02-01-2015 12:30:00 4.2 C 5.73 g/m*3 0.36 C 17.7 km/h
535 02-01-2015 12:35:00 4.3 C 5.77 g/m*3 0.49 C 17.7 km/h
536 02-01-2015 12:40:00 4.3 C 5.77 g/m*3 -0.11 C 22.5 km/h
537 02-01-2015 12:45:00 4.4 C 5.81 g/m*3 0.61 C 17.7 km/h
538 02-01-2015 12:50:00 4.5 C 5.85 g/m*3 0.74 C 17.7 km/h
539 02-01-2015 12:55:00 4.6 C 5.89 g/m*3 0.86 C 17.7 km/h
540 02-01-2015 13:00:00 4.6 C 5.89 g/m*3 0.45 C 20.9 km/h
541 02-01-2015 13:05:00 4.5 C 5.85 g/m*3 0.33 C 20.9 km/h
542 02-01-2015 13:10:00 4.5 C 5.85 g/m*3 0.96 C 16.1 km/h
543 02-01-2015 13:15:00 4.6 C 5.89 g/m*3 0.86 C 17.7 km/h
544 02-01-2015 13:20:00 4.6 C 5.96 g/m*3 0.86 C 17.7 km/h
545 02-01-2015 13:25:00 4.7 C 5.93 g/m*3 0.22 C 24.1 km/h
546 02-01-2015 13:30:00 4.7 C 5.93 g/m*3 0.78 C 19.3 km/h
547 02-01-2015 13:35:00 4.6 C 5.89 g/m*3 0.65 C 19.3 km/h
548 02-01-2015 13:40:00 4.6 C 5.96 g/m*3 1.34 C 14.5 km/h
549 02-01-2015 13:45:00 4.6 C 5.96 g/m*3 0.45 C 20.9 km/h
550 02-01-2015 13:50:00 4.6 C 5.96 g/m*3 0.65 C 19.3 km/h
Sensor: Nr:Datum:Temp:Abs-Feuchte:Windchill:Wind:
Aussen-T/F 551 02-01-2015 13:55:00 4.6 C 5.96 g/m*3 1.09 C 16.1 km/h
552 02-01-2015 14:00:00 4.5 C 5.92 g/m*3 1.21 C 14.5 km/h
553 02-01-2015 14:05:00 4.5 C 5.92 g/m*3 1.79 C 11.3 km/h
554 02-01-2015 14:10:00 4.5 C 5.92 g/m*3 0.96 C 16.1 km/h
555 02-01-2015 14:15:00 4.5 C 5.92 g/m*3 0.14 C 22.5 km/h
556 02-01-2015 14:20:00 4.5 C 5.98 g/m*3 1.79 C 11.3 km/h
557 02-01-2015 14:25:00 4.5 C 5.98 g/m*3 0.52 C 19.3 km/h
558 02-01-2015 14:30:00 4.6 C 6.02 g/m*3 1.09 C 16.1 km/h
559 02-01-2015 14:35:00 4.6 C 6.02 g/m*3 0.1 C 24.1 km/h
560 02-01-2015 14:40:00 4.6 C 6.02 g/m*3 0.45 C 20.9 km/h
561 02-01-2015 14:45:00 4.6 C 6.02 g/m*3 1.09 C 16.1 km/h
562 02-01-2015 14:50:00 4.6 C 6.02 g/m*3 1.34 C 14.5 km/h
563 02-01-2015 14:55:00 4.5 C 5.98 g/m*3 1.21 C 14.5 km/h
564 02-01-2015 15:00:00 4.5 C 6.05 g/m*3 0.96 C 16.1 km/h
565 02-01-2015 15:05:00 4.4 C 6.07 g/m*3 1.09 C 14.5 km/h
566 02-01-2015 15:10:00 4.4 C 6.07 g/m*3 0.84 C 16.1 km/h
567 02-01-2015 15:15:00 4.4 C 6.07 g/m*3 1.36 C 12.9 km/h
568 02-01-2015 15:20:00 4.4 C 6.07 g/m*3 2.01 C 9.7 km/h
569 02-01-2015 15:25:00 4.4 C 6.14 g/m*3 0.84 C 16.1 km/h
570 02-01-2015 15:30:00 4.4 C 6.14 g/m*3 1.09 C 14.5 km/h
571 02-01-2015 15:35:00 4.4 C 6.07 g/m*3 1.67 C 11.3 km/h
572 02-01-2015 15:40:00 4.4 C 6.14 g/m*3 0.61 C 17.7 km/h
573 02-01-2015 15:45:00 4.4 C 6.14 g/m*3 1.09 C 14.5 km/h
574 02-01-2015 15:50:00 4.4 C 6.14 g/m*3 2.01 C 9.7 km/h
575 02-01-2015 15:55:00 4.4 C 6.14 g/m*3 1.67 C 11.3 km/h
Sensor: Nr:Datum:Temp:Abs-Feuchte:Windchill:Wind:
Aussen-T/F 576 02-01-2015 16:00:00 4.3 C 6.1 g/m*3 0.97 C 14.5 km/h
577 02-01-2015 16:05:00 4.3 C 6.1 g/m*3 1.24 C 12.9 km/h
578 02-01-2015 16:10:00 4.3 C 6.1 g/m*3 1.89 C 9.7 km/h
579 02-01-2015 16:15:00 4.3 C 6.1 g/m*3 2.29 C 8.1 km/h
580 02-01-2015 16:20:00 4.3 C 6.1 g/m*3 0.97 C 14.5 km/h
581 02-01-2015 16:25:00 4.3 C 6.1 g/m*3 0.72 C 16.1 km/h
582 02-01-2015 16:30:00 4.4 C 6.14 g/m*3 0.2 C 20.9 km/h
583 02-01-2015 16:35:00 4.5 C 6.18 g/m*3 1.21 C 14.5 km/h
584 02-01-2015 16:40:00 4.5 C 6.11 g/m*3 0.74 C 17.7 km/h
585 02-01-2015 16:45:00 4.4 C 6.07 g/m*3 1.36 C 12.9 km/h
586 02-01-2015 16:50:00 4.4 C 6.07 g/m*3 1.36 C 12.9 km/h
587 02-01-2015 16:55:00 4.3 C 6.03 g/m*3 1.24 C 12.9 km/h
588 02-01-2015 17:00:00 4.3 C 6.1 g/m*3 0.07 C 20.9 km/h
589 02-01-2015 17:05:00 4.3 C 6.1 g/m*3 0.97 C 14.5 km/h
590 02-01-2015 17:10:00 4.3 C 6.1 g/m*3 2.29 C 8.1 km/h
591 02-01-2015 17:15:00 4.3 C 6.1 g/m*3 2.29 C 8.1 km/h
592 02-01-2015 23:30:00 2.4 C 5.2 g/m*3 2.4 C 3.2 km/h
593 02-01-2015 23:35:00 2.5 C 5.23 g/m*3 0.71 C 6.4 km/h
594 02-01-2015 23:40:00 2.6 C 5.27 g/m*3 0.82 C 6.4 km/h
595 02-01-2015 23:45:00 2.6 C 5.27 g/m*3 2.6 C 4.8 km/h
596 02-01-2015 23:50:00 2.4 C 5.14 g/m*3 0.59 C 6.4 km/h
597 02-01-2015 23:55:00 2.4 C 5.14 g/m*3 2.4 C 1.6 km/h
598 03-01-2015 00:00:00 2.2 C 5.13 g/m*3 2.2 C 1.6 km/h
599 03-01-2015 00:05:00 2 C 5.06 g/m*3 2 C 1.6 km/h
600 03-01-2015 00:10:00 1.8 C 5.04 g/m*3 1.8 C 4.8 km/h
Sensor: Nr:Datum:Temp:Abs-Feuchte:Windchill:Wind:
Aussen-T/F 601 03-01-2015 00:15:00 1.8 C 5.04 g/m*3 1.8 C 3.2 km/h
602 03-01-2015 00:20:00 1.8 C 5.1 g/m*3 1.8 C 3.2 km/h
603 03-01-2015 00:25:00 1.9 C 5.13 g/m*3 0.01 C 6.4 km/h
604 03-01-2015 00:30:00 2.1 C 5.2 g/m*3 0.24 C 6.4 km/h
605 03-01-2015 00:35:00 2.2 C 5.18 g/m*3 0.36 C 6.4 km/h
606 03-01-2015 00:40:00 2.3 C 5.16 g/m*3 2.3 C 4.8 km/h
607 03-01-2015 00:45:00 2.5 C 5.23 g/m*3 -0.62 C 11.3 km/h
608 03-01-2015 00:50:00 2.6 C 5.21 g/m*3 0.82 C 6.4 km/h
609 03-01-2015 00:55:00 2.5 C 5.17 g/m*3 2.5 C 4.8 km/h
610 03-01-2015 01:00:00 2.4 C 5.14 g/m*3 2.4 C 3.2 km/h
611 03-01-2015 01:05:00 2.4 C 5.14 g/m*3 0.59 C 6.4 km/h
612 03-01-2015 01:10:00 2.3 C 5.1 g/m*3 2.3 C 4.8 km/h
613 03-01-2015 01:15:00 2.4 C 5.2 g/m*3 0.59 C 6.4 km/h
614 03-01-2015 01:20:00 2.5 C 5.17 g/m*3 -0.62 C 11.3 km/h
615 03-01-2015 01:25:00 2.5 C 5.17 g/m*3 0.17 C 8.1 km/h
616 03-01-2015 01:30:00 2.4 C 5.14 g/m*3 0.59 C 6.4 km/h
617 03-01-2015 01:35:00 2.4 C 5.14 g/m*3 -0.37 C 9.7 km/h
618 03-01-2015 01:40:00 2.5 C 5.17 g/m*3 -0.62 C 11.3 km/h
619 03-01-2015 01:45:00 2.5 C 5.17 g/m*3 0.71 C 6.4 km/h
620 03-01-2015 01:50:00 2.5 C 5.17 g/m*3 0.17 C 8.1 km/h
621 03-01-2015 01:55:00 2.6 C 5.21 g/m*3 -0.14 C 9.7 km/h
622 03-01-2015 02:00:00 2.6 C 5.21 g/m*3 0.29 C 8.1 km/h
623 03-01-2015 02:05:00 2.7 C 5.24 g/m*3 -0.71 C 12.9 km/h
624 03-01-2015 02:10:00 2.7 C 5.24 g/m*3 0.4 C 8.1 km/h
625 03-01-2015 02:15:00 2.7 C 5.24 g/m*3 -0.02 C 9.7 km/h
Sensor: Nr:Datum:Temp:Abs-Feuchte:Windchill:Wind:
Aussen-T/F 626 03-01-2015 02:20:00 2.7 C 5.24 g/m*3 -0.02 C 9.7 km/h
627 03-01-2015 02:25:00 2.7 C 5.24 g/m*3 0.4 C 8.1 km/h
628 03-01-2015 02:30:00 2.7 C 5.24 g/m*3 -0.02 C 9.7 km/h
629 03-01-2015 02:35:00 2.8 C 5.28 g/m*3 -0.26 C 11.3 km/h
630 03-01-2015 02:40:00 2.8 C 5.28 g/m*3 0.1 C 9.7 km/h
631 03-01-2015 02:45:00 2.8 C 5.22 g/m*3 0.1 C 9.7 km/h
632 03-01-2015 02:50:00 2.8 C 5.22 g/m*3 -0.26 C 11.3 km/h
633 03-01-2015 02:55:00 2.8 C 5.22 g/m*3 0.1 C 9.7 km/h
634 03-01-2015 03:00:00 2.8 C 5.22 g/m*3 0.1 C 9.7 km/h
635 03-01-2015 04:30:00 2.5 C 5.29 g/m*3 -0.62 C 11.3 km/h
636 03-01-2015 04:35:00 2.5 C 5.29 g/m*3 -0.26 C 9.7 km/h
637 03-01-2015 04:40:00 2.5 C 5.29 g/m*3 -0.95 C 12.9 km/h
638 03-01-2015 04:45:00 2.4 C 5.25 g/m*3 -0.74 C 11.3 km/h
639 03-01-2015 04:50:00 2.4 C 5.25 g/m*3 -1.07 C 12.9 km/h
640 03-01-2015 04:55:00 2.4 C 5.25 g/m*3 -1.37 C 14.5 km/h
641 03-01-2015 05:00:00 2.4 C 5.31 g/m*3 -1.07 C 12.9 km/h
642 03-01-2015 05:05:00 2.4 C 5.31 g/m*3 -0.74 C 11.3 km/h
643 03-01-2015 05:10:00 2.5 C 5.35 g/m*3 -0.26 C 9.7 km/h
644 03-01-2015 05:15:00 2.5 C 5.35 g/m*3 -0.95 C 12.9 km/h
645 03-01-2015 05:20:00 2.5 C 5.35 g/m*3 -0.62 C 11.3 km/h
646 03-01-2015 05:25:00 2.6 C 5.38 g/m*3 -0.14 C 9.7 km/h
647 03-01-2015 05:30:00 2.6 C 5.38 g/m*3 0.29 C 8.1 km/h
648 03-01-2015 05:35:00 2.6 C 5.38 g/m*3 0.29 C 8.1 km/h
649 03-01-2015 06:00:00 2.6 C 5.79 g/m*3 2.6 C 1.6 km/h
650 03-01-2015 06:05:00 2.6 C 5.38 g/m*3 2.6 C 0 km/h
Sensor: Nr:Datum:Temp:Abs-Feuchte:Windchill:Wind:
Aussen-T/F 651 03-01-2015 06:10:00 2.6 C 5.38 g/m*3 2.6 C 4.8 km/h
652 03-01-2015 06:15:00 2.6 C 5.38 g/m*3 2.6 C 0 km/h
653 03-01-2015 06:20:00 2.5 C 5.35 g/m*3 2.5 C 0 km/h
654 03-01-2015 06:25:00 2.5 C 5.4 g/m*3 2.5 C 0 km/h
655 03-01-2015 06:30:00 2.5 C 5.4 g/m*3 2.5 C 1.6 km/h
656 03-01-2015 07:45:00 3 C 5.59 g/m*3 3 C 0 km/h
657 03-01-2015 07:50:00 3.1 C 5.63 g/m*3 3.1 C 0 km/h
658 03-01-2015 07:55:00 3.1 C 5.63 g/m*3 3.1 C 0 km/h
659 03-01-2015 11:25:00 4.2 C 5.86 g/m*3 0.84 C 14.5 km/h
660 03-01-2015 11:30:00 4.2 C 5.86 g/m*3 1.77 C 9.7 km/h
661 03-01-2015 11:35:00 4.2 C 5.86 g/m*3 4.2 C 4.8 km/h
662 03-01-2015 11:40:00 4.2 C 5.86 g/m*3 1.43 C 11.3 km/h
663 03-01-2015 11:45:00 4.2 C 5.86 g/m*3 1.77 C 9.7 km/h
664 03-01-2015 12:45:00 3.6 C 5.76 g/m*3 3.6 C 0 km/h
665 03-01-2015 12:50:00 3.6 C 5.76 g/m*3 3.6 C 1.6 km/h
666 03-01-2015 14:05:00 2.1 C 5.31 g/m*3 2.1 C 0 km/h
667 03-01-2015 14:10:00 2 C 5.28 g/m*3 2 C 0 km/h
668 03-01-2015 14:15:00 1.9 C 5.24 g/m*3 1.9 C 0 km/h
669 03-01-2015 14:20:00 1.8 C 5.21 g/m*3 1.8 C 0 km/h
670 03-01-2015 14:25:00 1.8 C 5.21 g/m*3 1.8 C 0 km/h
671 03-01-2015 14:30:00 1.7 C 5.17 g/m*3 1.7 C 0 km/h
672 03-01-2015 14:35:00 1.6 C 5.14 g/m*3 1.6 C 0 km/h
673 03-01-2015 14:40:00 1.6 C 5.14 g/m*3 1.6 C 0 km/h
674 03-01-2015 14:45:00 1.5 C 5.16 g/m*3 1.5 C 0 km/h
675 03-01-2015 14:50:00 1.6 C 5.19 g/m*3 1.6 C 0 km/h
Sensor: Nr:Datum:Temp:Abs-Feuchte:Windchill:Wind:
Aussen-T/F 676 03-01-2015 14:55:00 1.6 C 5.19 g/m*3 1.6 C 0 km/h
677 03-01-2015 15:00:00 1.6 C 5.19 g/m*3 1.6 C 0 km/h
678 03-01-2015 15:05:00 1.7 C 5.23 g/m*3 1.7 C 0 km/h
679 03-01-2015 15:10:00 1.7 C 5.23 g/m*3 1.7 C 0 km/h
680 03-01-2015 15:15:00 1.7 C 5.23 g/m*3 1.7 C 0 km/h
681 03-01-2015 15:20:00 1.7 C 5.23 g/m*3 1.7 C 0 km/h
682 03-01-2015 17:40:00 1.8 C 5.26 g/m*3 1.8 C 0 km/h
683 03-01-2015 17:45:00 1.6 C 5.19 g/m*3 1.6 C 0 km/h
684 03-01-2015 17:50:00 1.6 C 5.25 g/m*3 1.6 C 0 km/h
685 03-01-2015 17:55:00 1.6 C 5.25 g/m*3 1.6 C 0 km/h
686 03-01-2015 18:00:00 1.6 C 5.25 g/m*3 1.6 C 0 km/h
687 03-01-2015 18:05:00 1.6 C 5.25 g/m*3 1.6 C 1.6 km/h
688 03-01-2015 18:10:00 1.7 C 5.28 g/m*3 1.7 C 0 km/h
689 03-01-2015 18:15:00 1.7 C 5.28 g/m*3 1.7 C 3.2 km/h
690 03-01-2015 18:20:00 1.7 C 5.28 g/m*3 1.7 C 0 km/h
691 03-01-2015 18:25:00 1.6 C 5.25 g/m*3 1.6 C 0 km/h
692 03-01-2015 18:30:00 1.4 C 5.17 g/m*3 1.4 C 0 km/h
693 03-01-2015 18:35:00 1.3 C 5.14 g/m*3 1.3 C 0 km/h
694 03-01-2015 18:40:00 1.3 C 5.14 g/m*3 1.3 C 0 km/h
695 03-01-2015 18:45:00 1.2 C 5.1 g/m*3 1.2 C 0 km/h
696 03-01-2015 18:50:00 1.2 C 5.1 g/m*3 1.2 C 0 km/h
697 03-01-2015 18:55:00 1.2 C 5.1 g/m*3 1.2 C 0 km/h
698 03-01-2015 19:00:00 1.1 C 5.07 g/m*3 1.1 C 0 km/h
699 03-01-2015 19:05:00 1.1 C 5.07 g/m*3 1.1 C 0 km/h
700 03-01-2015 19:10:00 1.1 C 5.07 g/m*3 1.1 C 0 km/h
Sensor: Nr:Datum:Temp:Abs-Feuchte:Windchill:Wind:
Aussen-T/F 701 03-01-2015 19:15:00 1 C 5.03 g/m*3 1 C 0 km/h
702 03-01-2015 19:20:00 1 C 5.03 g/m*3 1 C 0 km/h
703 03-01-2015 19:25:00 1 C 5.03 g/m*3 1 C 0 km/h
704 03-01-2015 19:30:00 0.9 C 5 g/m*3 0.9 C 0 km/h
705 03-01-2015 19:35:00 1 C 5.03 g/m*3 1 C 0 km/h
706 03-01-2015 19:40:00 1 C 5.03 g/m*3 1 C 0 km/h
707 03-01-2015 19:45:00 1 C 5.03 g/m*3 1 C 0 km/h
708 03-01-2015 19:50:00 1 C 5.03 g/m*3 1 C 0 km/h
709 03-01-2015 19:55:00 1 C 5.03 g/m*3 1 C 0 km/h
710 03-01-2015 20:00:00 1 C 5.03 g/m*3 1 C 0 km/h
711 03-01-2015 20:05:00 1 C 5.03 g/m*3 1 C 0 km/h
712 03-01-2015 20:10:00 0.9 C 5 g/m*3 0.9 C 0 km/h
713 03-01-2015 20:15:00 0.9 C 5 g/m*3 0.9 C 0 km/h
714 03-01-2015 20:20:00 0.9 C 5 g/m*3 0.9 C 0 km/h
715 03-01-2015 20:25:00 0.9 C 5 g/m*3 0.9 C 0 km/h
716 03-01-2015 20:30:00 0.9 C 5 g/m*3 0.9 C 0 km/h
717 03-01-2015 20:35:00 0.8 C 4.97 g/m*3 0.8 C 0 km/h
718 03-01-2015 20:40:00 0.9 C 5 g/m*3 0.9 C 0 km/h
719 03-01-2015 20:45:00 0.8 C 5.02 g/m*3 0.8 C 0 km/h
720 03-01-2015 20:50:00 0.9 C 5.05 g/m*3 0.9 C 0 km/h
721 03-01-2015 20:55:00 0.9 C 5.05 g/m*3 0.9 C 0 km/h
722 03-01-2015 21:00:00 0.9 C 5.05 g/m*3 0.9 C 1.6 km/h
723 03-01-2015 21:05:00 0.9 C 5.05 g/m*3 0.9 C 3.2 km/h
724 03-01-2015 21:10:00 0.9 C 5.05 g/m*3 -1.14 C 6.4 km/h
725 03-01-2015 21:15:00 0.9 C 5.05 g/m*3 0.9 C 3.2 km/h
Sensor: Nr:Datum:Temp:Abs-Feuchte:Windchill:Wind:
Aussen-T/F 726 03-01-2015 21:20:00 1 C 5.09 g/m*3 1 C 3.2 km/h
727 03-01-2015 21:25:00 1.1 C 5.12 g/m*3 1.1 C 0 km/h
728 03-01-2015 21:30:00 1.2 C 5.16 g/m*3 1.2 C 4.8 km/h
729 03-01-2015 21:35:00 1.3 C 5.19 g/m*3 -0.68 C 6.4 km/h
730 03-01-2015 21:40:00 1.3 C 5.19 g/m*3 1.3 C 4.8 km/h
731 03-01-2015 21:45:00 1.3 C 5.19 g/m*3 1.3 C 4.8 km/h
732 03-01-2015 21:50:00 1.3 C 5.19 g/m*3 1.3 C 3.2 km/h
733 03-01-2015 21:55:00 1.3 C 5.19 g/m*3 1.3 C 1.6 km/h
734 03-01-2015 22:00:00 1.3 C 5.19 g/m*3 1.3 C 4.8 km/h
735 03-01-2015 22:05:00 1.3 C 5.19 g/m*3 1.3 C 1.6 km/h
736 03-01-2015 22:10:00 1.3 C 5.19 g/m*3 1.3 C 4.8 km/h
737 03-01-2015 22:15:00 1.4 C 5.23 g/m*3 1.4 C 4.8 km/h
738 03-01-2015 22:20:00 1.5 C 5.26 g/m*3 1.5 C 3.2 km/h
739 03-01-2015 22:25:00 1.4 C 5.23 g/m*3 1.4 C 4.8 km/h
740 03-01-2015 22:30:00 1.4 C 5.23 g/m*3 1.4 C 3.2 km/h
741 03-01-2015 22:35:00 1.6 C 5.3 g/m*3 1.6 C 4.8 km/h
742 03-01-2015 22:40:00 1.6 C 5.3 g/m*3 1.6 C 1.6 km/h
743 03-01-2015 22:45:00 1.7 C 5.34 g/m*3 1.7 C 4.8 km/h
744 03-01-2015 22:50:00 1.8 C 5.37 g/m*3 -0.65 C 8.1 km/h
745 03-01-2015 22:55:00 1.8 C 5.37 g/m*3 -0.65 C 8.1 km/h
746 03-01-2015 23:00:00 1.9 C 5.41 g/m*3 0.01 C 6.4 km/h
747 03-01-2015 23:05:00 1.9 C 5.41 g/m*3 -0.54 C 8.1 km/h
748 03-01-2015 23:10:00 2 C 5.39 g/m*3 2 C 4.8 km/h
749 03-01-2015 23:15:00 2 C 5.39 g/m*3 2 C 3.2 km/h
750 03-01-2015 23:20:00 2 C 5.39 g/m*3 2 C 0 km/h
Sensor: Nr:Datum:Temp:Abs-Feuchte:Windchill:Wind:
Aussen-T/F 751 03-01-2015 23:25:00 1.9 C 5.35 g/m*3 1.9 C 4.8 km/h
752 03-01-2015 23:30:00 1.9 C 5.35 g/m*3 1.9 C 0 km/h
753 03-01-2015 23:35:00 2 C 5.39 g/m*3 0.13 C 6.4 km/h
754 03-01-2015 23:40:00 2 C 5.39 g/m*3 2 C 1.6 km/h
755 03-01-2015 23:45:00 2 C 5.39 g/m*3 2 C 4.8 km/h
756 03-01-2015 23:50:00 2 C 5.39 g/m*3 0.13 C 6.4 km/h
757 03-01-2015 23:55:00 2 C 5.39 g/m*3 2 C 3.2 km/h
758 04-01-2015 00:00:00 2 C 5.39 g/m*3 2 C 1.6 km/h
759 04-01-2015 00:05:00 2 C 5.39 g/m*3 2 C 3.2 km/h
760 04-01-2015 00:10:00 2 C 5.39 g/m*3 2 C 3.2 km/h
761 04-01-2015 00:15:00 2.1 C 5.43 g/m*3 0.24 C 6.4 km/h
762 04-01-2015 00:20:00 2.2 C 5.46 g/m*3 2.2 C 1.6 km/h
763 04-01-2015 00:25:00 2.1 C 5.43 g/m*3 2.1 C 4.8 km/h
764 04-01-2015 00:30:00 2.1 C 5.43 g/m*3 2.1 C 4.8 km/h
765 04-01-2015 00:35:00 2 C 5.39 g/m*3 2 C 3.2 km/h
766 04-01-2015 00:40:00 2 C 5.39 g/m*3 0.13 C 6.4 km/h
767 04-01-2015 00:45:00 2.1 C 5.43 g/m*3 0.24 C 6.4 km/h
768 04-01-2015 00:50:00 2.1 C 5.43 g/m*3 2.1 C 3.2 km/h
769 04-01-2015 00:55:00 2.1 C 5.43 g/m*3 2.1 C 4.8 km/h
770 04-01-2015 01:00:00 2.2 C 5.52 g/m*3 2.2 C 3.2 km/h
771 04-01-2015 01:05:00 2.2 C 5.52 g/m*3 2.2 C 1.6 km/h
772 04-01-2015 01:10:00 2.2 C 5.52 g/m*3 2.2 C 1.6 km/h
773 04-01-2015 01:15:00 2.2 C 5.52 g/m*3 2.2 C 0 km/h
774 04-01-2015 01:20:00 2.2 C 5.52 g/m*3 2.2 C 1.6 km/h
775 04-01-2015 01:25:00 2.2 C 5.52 g/m*3 2.2 C 4.8 km/h
Sensor: Nr:Datum:Temp:Abs-Feuchte:Windchill:Wind:
Aussen-T/F 776 04-01-2015 01:30:00 2.2 C 5.52 g/m*3 2.2 C 3.2 km/h
777 04-01-2015 01:35:00 2.3 C 5.56 g/m*3 2.3 C 4.8 km/h
778 04-01-2015 01:40:00 2.4 C 5.6 g/m*3 2.4 C 3.2 km/h
779 04-01-2015 01:45:00 2.7 C 5.71 g/m*3 2.7 C 4.8 km/h
780 04-01-2015 01:50:00 2.8 C 5.75 g/m*3 0.1 C 9.7 km/h
781 04-01-2015 01:55:00 2.9 C 5.79 g/m*3 2.9 C 4.8 km/h
782 04-01-2015 02:00:00 3.1 C 5.87 g/m*3 0.46 C 9.7 km/h
783 04-01-2015 02:05:00 3.3 C 5.95 g/m*3 3.3 C 4.8 km/h
784 04-01-2015 02:10:00 3.4 C 5.99 g/m*3 3.4 C 4.8 km/h
785 04-01-2015 02:15:00 3.4 C 5.92 g/m*3 3.4 C 4.8 km/h
786 04-01-2015 02:20:00 3.6 C 6 g/m*3 1.46 C 8.1 km/h
787 04-01-2015 02:25:00 3.7 C 6.04 g/m*3 1.58 C 8.1 km/h
788 04-01-2015 02:30:00 3.7 C 6.04 g/m*3 3.7 C 1.6 km/h
789 04-01-2015 02:35:00 3.7 C 5.98 g/m*3 3.7 C 3.2 km/h
790 04-01-2015 02:40:00 3.8 C 6.02 g/m*3 0.63 C 12.9 km/h
791 04-01-2015 02:45:00 3.9 C 6.06 g/m*3 1.06 C 11.3 km/h
792 04-01-2015 02:50:00 4.1 C 6.08 g/m*3 2.55 C 6.4 km/h
793 04-01-2015 02:55:00 4.1 C 6.08 g/m*3 2.55 C 6.4 km/h
794 04-01-2015 03:00:00 4.1 C 6.08 g/m*3 2.55 C 6.4 km/h
795 04-01-2015 03:05:00 4.1 C 6.08 g/m*3 0.72 C 14.5 km/h
796 04-01-2015 03:10:00 4.1 C 6.02 g/m*3 2.05 C 8.1 km/h
797 04-01-2015 03:15:00 4.1 C 6.02 g/m*3 4.1 C 4.8 km/h
798 04-01-2015 03:20:00 4.1 C 6.02 g/m*3 2.55 C 6.4 km/h
799 04-01-2015 03:25:00 4.1 C 5.95 g/m*3 2.05 C 8.1 km/h
800 04-01-2015 03:30:00 4.1 C 5.95 g/m*3 0.72 C 14.5 km/h
Sensor: Nr:Datum:Temp:Abs-Feuchte:Windchill:Wind:
Aussen-T/F 801 04-01-2015 03:35:00 4.1 C 5.95 g/m*3 1.65 C 9.7 km/h
802 04-01-2015 03:40:00 4.1 C 5.95 g/m*3 2.05 C 8.1 km/h
803 04-01-2015 03:45:00 4 C 5.91 g/m*3 1.93 C 8.1 km/h
804 04-01-2015 03:50:00 4 C 5.91 g/m*3 1.93 C 8.1 km/h
805 04-01-2015 03:55:00 4 C 5.91 g/m*3 1.53 C 9.7 km/h
806 04-01-2015 04:00:00 3.9 C 5.87 g/m*3 1.82 C 8.1 km/h
807 04-01-2015 04:05:00 3.9 C 5.87 g/m*3 3.9 C 4.8 km/h
808 04-01-2015 04:10:00 3.9 C 5.87 g/m*3 1.82 C 8.1 km/h
809 04-01-2015 04:50:00 2.9 C 5.55 g/m*3 2.9 C 4.8 km/h
810 04-01-2015 04:55:00 2.8 C 5.51 g/m*3 2.8 C 4.8 km/h
811 04-01-2015 05:00:00 2.6 C 5.44 g/m*3 2.6 C 0 km/h
812 04-01-2015 05:05:00 2.4 C 5.37 g/m*3 2.4 C 4.8 km/h
813 04-01-2015 05:10:00 2.2 C 5.29 g/m*3 2.2 C 4.8 km/h
814 04-01-2015 05:15:00 2.1 C 5.31 g/m*3 -0.3 C 8.1 km/h
815 04-01-2015 05:20:00 2.1 C 5.31 g/m*3 2.1 C 3.2 km/h
816 04-01-2015 05:25:00 2.1 C 5.37 g/m*3 2.1 C 3.2 km/h
817 04-01-2015 05:30:00 2 C 5.33 g/m*3 2 C 4.8 km/h
818 04-01-2015 05:35:00 2 C 5.33 g/m*3 2 C 3.2 km/h
819 04-01-2015 05:40:00 1.9 C 5.3 g/m*3 1.9 C 4.8 km/h
820 04-01-2015 05:45:00 1.8 C 5.26 g/m*3 1.8 C 4.8 km/h
821 04-01-2015 05:50:00 1.7 C 5.23 g/m*3 1.7 C 3.2 km/h
822 04-01-2015 05:55:00 1.7 C 5.23 g/m*3 -0.22 C 6.4 km/h
823 04-01-2015 06:00:00 1.6 C 5.19 g/m*3 1.6 C 4.8 km/h
824 04-01-2015 06:05:00 1.6 C 5.25 g/m*3 1.6 C 4.8 km/h
825 04-01-2015 06:10:00 1.6 C 5.25 g/m*3 1.6 C 4.8 km/h
Sensor: Nr:Datum:Temp:Abs-Feuchte:Windchill:Wind:
Aussen-T/F 826 04-01-2015 06:15:00 1.5 C 5.16 g/m*3 1.5 C 4.8 km/h
827 04-01-2015 06:20:00 1.4 C 5.12 g/m*3 1.4 C 1.6 km/h
828 04-01-2015 06:25:00 1.4 C 5.17 g/m*3 1.4 C 4.8 km/h
829 04-01-2015 06:30:00 1.3 C 5.14 g/m*3 1.3 C 0 km/h
830 04-01-2015 06:35:00 1.2 C 5.05 g/m*3 1.2 C 1.6 km/h
831 04-01-2015 06:40:00 1.2 C 5.05 g/m*3 1.2 C 4.8 km/h
832 04-01-2015 06:45:00 1.1 C 5.07 g/m*3 -0.91 C 6.4 km/h
833 04-01-2015 06:50:00 1.1 C 5.07 g/m*3 1.1 C 1.6 km/h
834 04-01-2015 06:55:00 1.1 C 5.07 g/m*3 1.1 C 1.6 km/h
835 04-01-2015 07:00:00 1.1 C 5.07 g/m*3 1.1 C 4.8 km/h
836 04-01-2015 07:05:00 1.1 C 5.07 g/m*3 1.1 C 4.8 km/h
837 04-01-2015 07:10:00 1.1 C 5.07 g/m*3 1.1 C 3.2 km/h
838 04-01-2015 07:15:00 1 C 5.03 g/m*3 1 C 3.2 km/h
839 04-01-2015 07:20:00 0.9 C 5 g/m*3 0.9 C 1.6 km/h
840 04-01-2015 07:25:00 0.9 C 5 g/m*3 0.9 C 3.2 km/h
841 04-01-2015 07:30:00 0.9 C 5 g/m*3 0.9 C 3.2 km/h
842 04-01-2015 07:35:00 1 C 5.03 g/m*3 1 C 3.2 km/h
843 04-01-2015 07:40:00 1.1 C 5.07 g/m*3 1.1 C 3.2 km/h
844 04-01-2015 07:45:00 1.2 C 5.1 g/m*3 1.2 C 1.6 km/h
845 04-01-2015 07:50:00 1.1 C 5.07 g/m*3 1.1 C 1.6 km/h
846 04-01-2015 07:55:00 1.1 C 5.07 g/m*3 1.1 C 4.8 km/h
847 04-01-2015 08:00:00 1.1 C 5.07 g/m*3 1.1 C 1.6 km/h
848 04-01-2015 08:05:00 1.2 C 5.1 g/m*3 1.2 C 1.6 km/h
849 04-01-2015 08:10:00 1.2 C 5.1 g/m*3 1.2 C 3.2 km/h
850 04-01-2015 08:15:00 1.2 C 5.1 g/m*3 1.2 C 1.6 km/h
Sensor: Nr:Datum:Temp:Abs-Feuchte:Windchill:Wind:
Aussen-T/F 851 04-01-2015 08:20:00 1.2 C 5.1 g/m*3 1.2 C 3.2 km/h
852 04-01-2015 18:15:00 4.1 C 5.89 g/m*3 4.1 C 1.6 km/h
853 04-01-2015 18:20:00 4.1 C 5.89 g/m*3 4.1 C 1.6 km/h
854 04-01-2015 18:25:00 4 C 5.85 g/m*3 4 C 3.2 km/h
855 04-01-2015 18:30:00 4 C 5.85 g/m*3 4 C 1.6 km/h
856 04-01-2015 18:35:00 3.9 C 5.75 g/m*3 3.9 C 4.8 km/h
857 04-01-2015 18:40:00 4 C 5.79 g/m*3 4 C 4.8 km/h
858 04-01-2015 18:45:00 4.1 C 5.76 g/m*3 4.1 C 4.8 km/h
859 04-01-2015 18:50:00 4.2 C 5.73 g/m*3 2.67 C 6.4 km/h
860 04-01-2015 18:55:00 4.3 C 5.71 g/m*3 1.89 C 9.7 km/h
861 04-01-2015 19:00:00 4.4 C 5.68 g/m*3 4.4 C 3.2 km/h
862 04-01-2015 19:05:00 4.4 C 5.68 g/m*3 4.4 C 3.2 km/h
863 04-01-2015 19:10:00 4.4 C 5.68 g/m*3 2.9 C 6.4 km/h
864 04-01-2015 19:15:00 4.3 C 5.64 g/m*3 2.78 C 6.4 km/h
865 04-01-2015 19:20:00 4.3 C 5.64 g/m*3 4.3 C 1.6 km/h
866 04-01-2015 19:25:00 4.2 C 5.67 g/m*3 4.2 C 1.6 km/h
867 04-01-2015 19:30:00 4.2 C 5.67 g/m*3 4.2 C 4.8 km/h
868 04-01-2015 19:35:00 4.1 C 5.63 g/m*3 2.05 C 8.1 km/h
869 04-01-2015 19:40:00 4.1 C 5.63 g/m*3 4.1 C 3.2 km/h
870 04-01-2015 19:45:00 4.1 C 5.63 g/m*3 4.1 C 1.6 km/h
871 04-01-2015 19:50:00 4 C 5.59 g/m*3 4 C 1.6 km/h
872 04-01-2015 19:55:00 3.9 C 5.62 g/m*3 2.32 C 6.4 km/h
873 04-01-2015 20:00:00 3.9 C 5.62 g/m*3 3.9 C 4.8 km/h
874 04-01-2015 20:05:00 3.9 C 5.62 g/m*3 3.9 C 4.8 km/h
875 04-01-2015 20:10:00 3.8 C 5.58 g/m*3 3.8 C 4.8 km/h
Sensor: Nr:Datum:Temp:Abs-Feuchte:Windchill:Wind:
Aussen-T/F 876 04-01-2015 20:15:00 3.8 C 5.58 g/m*3 3.8 C 4.8 km/h
877 04-01-2015 20:20:00 3.7 C 5.61 g/m*3 3.7 C 3.2 km/h
878 04-01-2015 20:25:00 3.7 C 5.61 g/m*3 3.7 C 3.2 km/h
879 04-01-2015 20:30:00 3.6 C 5.57 g/m*3 3.6 C 4.8 km/h
880 04-01-2015 20:35:00 3.6 C 5.63 g/m*3 3.6 C 1.6 km/h
881 04-01-2015 20:40:00 3.6 C 5.63 g/m*3 3.6 C 3.2 km/h
882 04-01-2015 20:45:00 3.6 C 5.63 g/m*3 3.6 C 3.2 km/h
883 04-01-2015 20:50:00 3.6 C 5.63 g/m*3 3.6 C 4.8 km/h
884 04-01-2015 20:55:00 3.6 C 5.63 g/m*3 3.6 C 3.2 km/h
885 04-01-2015 21:00:00 3.7 C 5.67 g/m*3 3.7 C 1.6 km/h
886 04-01-2015 21:05:00 3.7 C 5.67 g/m*3 3.7 C 3.2 km/h
887 04-01-2015 21:10:00 3.7 C 5.61 g/m*3 3.7 C 3.2 km/h
888 04-01-2015 21:15:00 3.7 C 5.61 g/m*3 3.7 C 3.2 km/h
889 04-01-2015 21:20:00 3.8 C 5.65 g/m*3 3.8 C 3.2 km/h
890 04-01-2015 21:25:00 3.8 C 5.65 g/m*3 3.8 C 3.2 km/h
891 04-01-2015 21:30:00 3.8 C 5.65 g/m*3 2.21 C 6.4 km/h
892 04-01-2015 21:35:00 3.8 C 5.65 g/m*3 3.8 C 4.8 km/h
893 04-01-2015 21:40:00 3.9 C 5.62 g/m*3 2.32 C 6.4 km/h
894 04-01-2015 21:45:00 3.9 C 5.62 g/m*3 3.9 C 3.2 km/h
895 04-01-2015 21:50:00 4 C 5.66 g/m*3 4 C 4.8 km/h
896 04-01-2015 21:55:00 4 C 5.66 g/m*3 4 C 4.8 km/h
897 04-01-2015 22:00:00 3.9 C 5.62 g/m*3 3.9 C 4.8 km/h
898 04-01-2015 22:05:00 3.7 C 5.61 g/m*3 3.7 C 1.6 km/h
899 04-01-2015 22:10:00 3.6 C 5.57 g/m*3 3.6 C 3.2 km/h
900 04-01-2015 22:15:00 3.5 C 5.6 g/m*3 3.5 C 3.2 km/h
Sensor: Nr:Datum:Temp:Abs-Feuchte:Windchill:Wind:
Aussen-T/F 901 04-01-2015 22:20:00 3.4 C 5.56 g/m*3 3.4 C 1.6 km/h
902 04-01-2015 22:25:00 3.3 C 5.58 g/m*3 3.3 C 1.6 km/h
903 04-01-2015 22:30:00 3.2 C 5.54 g/m*3 3.2 C 0 km/h
904 04-01-2015 22:35:00 3.2 C 5.6 g/m*3 3.2 C 1.6 km/h
905 04-01-2015 22:40:00 3.2 C 5.6 g/m*3 3.2 C 1.6 km/h
906 04-01-2015 22:45:00 3.2 C 5.6 g/m*3 3.2 C 0 km/h
907 04-01-2015 22:50:00 3.2 C 5.6 g/m*3 3.2 C 0 km/h
908 04-01-2015 22:55:00 3.2 C 5.54 g/m*3 3.2 C 3.2 km/h
909 04-01-2015 23:00:00 3.2 C 5.54 g/m*3 3.2 C 1.6 km/h
910 04-01-2015 23:05:00 3.2 C 5.54 g/m*3 3.2 C 3.2 km/h
911 04-01-2015 23:10:00 3.3 C 5.58 g/m*3 3.3 C 1.6 km/h
912 04-01-2015 23:15:00 3.3 C 5.58 g/m*3 3.3 C 1.6 km/h
913 04-01-2015 23:20:00 3.3 C 5.58 g/m*3 3.3 C 1.6 km/h
914 04-01-2015 23:25:00 3.2 C 5.54 g/m*3 3.2 C 3.2 km/h
915 04-01-2015 23:30:00 3.2 C 5.48 g/m*3 1.51 C 6.4 km/h
916 04-01-2015 23:35:00 3.2 C 5.54 g/m*3 3.2 C 1.6 km/h
917 04-01-2015 23:40:00 3.2 C 5.48 g/m*3 3.2 C 4.8 km/h
918 04-01-2015 23:45:00 3.3 C 5.52 g/m*3 3.3 C 3.2 km/h
919 04-01-2015 23:50:00 3.3 C 5.46 g/m*3 3.3 C 4.8 km/h
920 04-01-2015 23:55:00 3.4 C 5.44 g/m*3 3.4 C 3.2 km/h
921 05-01-2015 00:00:00 3.5 C 5.47 g/m*3 3.5 C 1.6 km/h
922 05-01-2015 00:05:00 3.4 C 5.5 g/m*3 3.4 C 1.6 km/h
923 05-01-2015 00:10:00 3.3 C 5.46 g/m*3 3.3 C 3.2 km/h
924 05-01-2015 00:15:00 3.2 C 5.42 g/m*3 3.2 C 4.8 km/h
925 05-01-2015 00:20:00 3.2 C 5.42 g/m*3 3.2 C 3.2 km/h
Sensor: Nr:Datum:Temp:Abs-Feuchte:Windchill:Wind:
Aussen-T/F 926 05-01-2015 00:25:00 3.1 C 5.45 g/m*3 3.1 C 3.2 km/h
927 05-01-2015 00:30:00 3 C 5.41 g/m*3 3 C 4.8 km/h
928 05-01-2015 00:35:00 2.9 C 5.37 g/m*3 2.9 C 3.2 km/h
929 05-01-2015 00:40:00 2.8 C 5.34 g/m*3 2.8 C 3.2 km/h
930 05-01-2015 00:45:00 2.8 C 5.34 g/m*3 2.8 C 3.2 km/h
931 05-01-2015 00:50:00 2.8 C 5.34 g/m*3 2.8 C 3.2 km/h
932 05-01-2015 00:55:00 2.8 C 5.28 g/m*3 2.8 C 3.2 km/h
933 05-01-2015 01:00:00 2.9 C 5.32 g/m*3 2.9 C 3.2 km/h
934 05-01-2015 01:05:00 2.9 C 5.26 g/m*3 0.64 C 8.1 km/h
935 05-01-2015 01:10:00 2.9 C 5.26 g/m*3 0.64 C 8.1 km/h
936 05-01-2015 01:15:00 2.9 C 5.26 g/m*3 2.9 C 1.6 km/h
937 05-01-2015 01:20:00 2.8 C 5.22 g/m*3 2.8 C 4.8 km/h
938 05-01-2015 01:25:00 2.7 C 5.24 g/m*3 2.7 C 3.2 km/h
939 05-01-2015 01:30:00 2.6 C 5.21 g/m*3 2.6 C 1.6 km/h
940 05-01-2015 01:35:00 2.6 C 5.21 g/m*3 2.6 C 1.6 km/h
941 05-01-2015 01:40:00 2.5 C 5.23 g/m*3 2.5 C 1.6 km/h
942 05-01-2015 01:45:00 2.4 C 5.2 g/m*3 2.4 C 3.2 km/h
943 05-01-2015 01:50:00 2.3 C 5.16 g/m*3 2.3 C 3.2 km/h
944 05-01-2015 01:55:00 2.2 C 5.13 g/m*3 2.2 C 1.6 km/h
945 05-01-2015 02:00:00 2.1 C 5.15 g/m*3 2.1 C 1.6 km/h
946 05-01-2015 02:05:00 1.9 C 5.08 g/m*3 1.9 C 0 km/h
947 05-01-2015 02:10:00 1.8 C 5.04 g/m*3 1.8 C 0 km/h
948 05-01-2015 02:15:00 1.6 C 4.97 g/m*3 1.6 C 1.6 km/h
949 05-01-2015 02:20:00 1.4 C 4.91 g/m*3 1.4 C 0 km/h
950 05-01-2015 02:25:00 1.3 C 4.93 g/m*3 1.3 C 0 km/h
Sensor: Nr:Datum:Temp:Abs-Feuchte:Windchill:Wind:
Aussen-T/F 951 05-01-2015 02:30:00 1.2 C 4.89 g/m*3 1.2 C 1.6 km/h
952 05-01-2015 02:35:00 1.2 C 4.89 g/m*3 1.2 C 1.6 km/h
953 05-01-2015 02:40:00 1.1 C 4.91 g/m*3 1.1 C 3.2 km/h
954 05-01-2015 02:45:00 1.1 C 4.91 g/m*3 1.1 C 1.6 km/h
955 05-01-2015 02:50:00 1.1 C 4.91 g/m*3 1.1 C 1.6 km/h
956 05-01-2015 02:55:00 1.1 C 4.91 g/m*3 1.1 C 1.6 km/h
957 05-01-2015 03:00:00 1 C 4.88 g/m*3 1 C 1.6 km/h
958 05-01-2015 03:05:00 1 C 4.88 g/m*3 1 C 3.2 km/h
959 05-01-2015 03:10:00 1 C 4.88 g/m*3 1 C 3.2 km/h
960 05-01-2015 03:15:00 1 C 4.88 g/m*3 1 C 3.2 km/h
961 05-01-2015 03:20:00 1 C 4.88 g/m*3 1 C 4.8 km/h
962 05-01-2015 03:25:00 0.9 C 4.85 g/m*3 0.9 C 1.6 km/h
963 05-01-2015 03:30:00 1 C 4.88 g/m*3 1 C 4.8 km/h
964 05-01-2015 03:35:00 1 C 4.88 g/m*3 1 C 0 km/h
965 05-01-2015 03:40:00 0.9 C 4.85 g/m*3 0.9 C 0 km/h
966 05-01-2015 03:45:00 0.8 C 4.81 g/m*3 0.8 C 1.6 km/h
967 05-01-2015 03:50:00 0.8 C 4.81 g/m*3 0.8 C 1.6 km/h
968 05-01-2015 03:55:00 0.7 C 4.78 g/m*3 0.7 C 0 km/h
969 05-01-2015 04:00:00 0.7 C 4.78 g/m*3 0.7 C 0 km/h
970 05-01-2015 04:05:00 0.5 C 4.71 g/m*3 0.5 C 0 km/h
971 05-01-2015 04:10:00 0.4 C 4.68 g/m*3 0.4 C 3.2 km/h
972 05-01-2015 04:15:00 0.3 C 4.65 g/m*3 0.3 C 3.2 km/h
973 05-01-2015 04:20:00 0.2 C 4.62 g/m*3 0.2 C 1.6 km/h
974 05-01-2015 04:25:00 0.1 C 4.59 g/m*3 0.1 C 1.6 km/h
975 05-01-2015 04:30:00 0.1 C 4.59 g/m*3 0.1 C 0 km/h
Sensor: Nr:Datum:Temp:Abs-Feuchte:Windchill:Wind:
Aussen-T/F 976 05-01-2015 04:35:00 -0.1 C 4.52 g/m*3 -0.1 C 0 km/h
977 05-01-2015 04:40:00 -0.1 C 4.57 g/m*3 -0.1 C 0 km/h
978 05-01-2015 04:45:00 -0.2 C 4.54 g/m*3 -0.2 C 0 km/h
979 05-01-2015 04:50:00 -0.3 C 4.51 g/m*3 -0.3 C 0 km/h
980 05-01-2015 04:55:00 -0.3 C 4.51 g/m*3 -0.3 C 0 km/h
981 05-01-2015 05:00:00 -0.4 C 4.48 g/m*3 -0.4 C 1.6 km/h
982 05-01-2015 05:05:00 -0.4 C 4.48 g/m*3 -0.4 C 1.6 km/h
983 05-01-2015 05:10:00 -0.4 C 4.48 g/m*3 -0.4 C 0 km/h
984 05-01-2015 05:15:00 -0.4 C 4.48 g/m*3 -0.4 C 0 km/h
985 05-01-2015 05:20:00 -0.4 C 4.48 g/m*3 -0.4 C 0 km/h
986 05-01-2015 05:25:00 -0.5 C 4.45 g/m*3 -0.5 C 0 km/h
987 05-01-2015 05:30:00 -0.6 C 4.42 g/m*3 -0.6 C 1.6 km/h
988 05-01-2015 05:35:00 -0.6 C 4.46 g/m*3 -0.6 C 0 km/h
989 05-01-2015 05:40:00 -0.6 C 4.46 g/m*3 -0.6 C 1.6 km/h
990 05-01-2015 05:45:00 -0.5 C 4.49 g/m*3 -0.5 C 3.2 km/h
991 05-01-2015 05:50:00 -0.5 C 4.49 g/m*3 -0.5 C 1.6 km/h
992 05-01-2015 05:55:00 -0.5 C 4.49 g/m*3 -0.5 C 0 km/h
993 05-01-2015 06:00:00 -0.5 C 4.49 g/m*3 -0.5 C 1.6 km/h
994 05-01-2015 06:05:00 -0.6 C 4.46 g/m*3 -0.6 C 0 km/h
995 05-01-2015 06:10:00 -0.6 C 4.46 g/m*3 -0.6 C 0 km/h
996 05-01-2015 06:15:00 -0.6 C 4.46 g/m*3 -0.6 C 0 km/h
997 05-01-2015 06:20:00 -0.6 C 4.46 g/m*3 -0.6 C 0 km/h
998 05-01-2015 06:25:00 -0.9 C 4.37 g/m*3 -0.9 C 0 km/h
999 05-01-2015 06:30:00 -1 C 4.34 g/m*3 -1 C 1.6 km/h
1000 05-01-2015 06:35:00 -1 C 4.34 g/m*3 -1 C 0 km/h
Sensor: Nr:Datum:Temp:Abs-Feuchte:Windchill:Wind:
Aussen-T/F 1001 05-01-2015 06:40:00 -1 C 4.34 g/m*3 -1 C 0 km/h
1002 05-01-2015 06:45:00 -0.9 C 4.37 g/m*3 -0.9 C 0 km/h
1003 05-01-2015 06:50:00 -0.9 C 4.37 g/m*3 -0.9 C 1.6 km/h
1004 05-01-2015 06:55:00 -0.9 C 4.37 g/m*3 -0.9 C 1.6 km/h
1005 05-01-2015 07:00:00 -0.9 C 4.37 g/m*3 -0.9 C 4.8 km/h
1006 05-01-2015 07:05:00 -0.9 C 4.37 g/m*3 -0.9 C 1.6 km/h
1007 05-01-2015 07:10:00 -0.8 C 4.4 g/m*3 -0.8 C 1.6 km/h
1008 05-01-2015 07:15:00 -0.9 C 4.37 g/m*3 -0.9 C 0 km/h
1009 05-01-2015 07:20:00 -0.9 C 4.37 g/m*3 -0.9 C 0 km/h
1010 05-01-2015 07:25:00 -1 C 4.34 g/m*3 -1 C 1.6 km/h
1011 05-01-2015 07:30:00 -1 C 4.34 g/m*3 -1 C 0 km/h
1012 05-01-2015 07:35:00 -1 C 4.38 g/m*3 -1 C 1.6 km/h
1013 05-01-2015 07:40:00 -0.9 C 4.42 g/m*3 -0.9 C 4.8 km/h
1014 05-01-2015 07:45:00 -0.8 C 4.45 g/m*3 -3.11 C 6.4 km/h
1015 05-01-2015 07:50:00 -0.8 C 4.45 g/m*3 -3.11 C 6.4 km/h
1016 05-01-2015 07:55:00 -0.8 C 4.45 g/m*3 -3.11 C 6.4 km/h
1017 05-01-2015 08:00:00 -0.8 C 4.45 g/m*3 -3.71 C 8.1 km/h
1018 05-01-2015 08:05:00 -0.8 C 4.45 g/m*3 -0.8 C 3.2 km/h
1019 05-01-2015 08:10:00 -0.7 C 4.48 g/m*3 -3.59 C 8.1 km/h
1020 05-01-2015 08:15:00 -0.7 C 4.48 g/m*3 -2.99 C 6.4 km/h
1021 05-01-2015 08:20:00 -0.7 C 4.48 g/m*3 -0.7 C 4.8 km/h
1022 05-01-2015 08:25:00 -0.7 C 4.48 g/m*3 -0.7 C 4.8 km/h
1023 05-01-2015 08:30:00 -0.7 C 4.48 g/m*3 -0.7 C 4.8 km/h
1024 05-01-2015 08:35:00 -0.7 C 4.48 g/m*3 -4.07 C 9.7 km/h
1025 05-01-2015 08:40:00 -0.8 C 4.45 g/m*3 -3.71 C 8.1 km/h
Sensor: Nr:Datum:Temp:Abs-Feuchte:Windchill:Wind:
Aussen-T/F 1026 05-01-2015 08:45:00 -0.8 C 4.45 g/m*3 -0.8 C 4.8 km/h
1027 05-01-2015 08:50:00 -0.8 C 4.45 g/m*3 -3.71 C 8.1 km/h
1028 05-01-2015 08:55:00 -0.8 C 4.45 g/m*3 -0.8 C 4.8 km/h
1029 05-01-2015 09:00:00 -0.8 C 4.45 g/m*3 -0.8 C 4.8 km/h
1030 05-01-2015 09:05:00 -0.8 C 4.45 g/m*3 -3.11 C 6.4 km/h
1031 05-01-2015 09:10:00 -0.8 C 4.45 g/m*3 -3.11 C 6.4 km/h
1032 05-01-2015 09:15:00 -0.8 C 4.45 g/m*3 -3.11 C 6.4 km/h
1033 05-01-2015 09:20:00 -0.8 C 4.45 g/m*3 -0.8 C 4.8 km/h
1034 05-01-2015 09:25:00 -0.8 C 4.45 g/m*3 -0.8 C 4.8 km/h
1035 05-01-2015 09:30:00 -0.8 C 4.45 g/m*3 -0.8 C 3.2 km/h
1036 05-01-2015 09:35:00 -0.8 C 4.45 g/m*3 -3.11 C 6.4 km/h
1037 05-01-2015 09:40:00 -0.6 C 4.51 g/m*3 -3.48 C 8.1 km/h
1038 05-01-2015 09:45:00 -0.6 C 4.51 g/m*3 -3.95 C 9.7 km/h
1039 05-01-2015 09:50:00 -0.6 C 4.51 g/m*3 -0.6 C 4.8 km/h
1040 05-01-2015 09:55:00 -0.6 C 4.51 g/m*3 -0.6 C 4.8 km/h
1041 05-01-2015 10:00:00 -0.6 C 4.51 g/m*3 -0.6 C 3.2 km/h
1042 05-01-2015 10:05:00 -0.6 C 4.51 g/m*3 -0.6 C 3.2 km/h
1043 05-01-2015 10:10:00 -0.6 C 4.51 g/m*3 -0.6 C 3.2 km/h
1044 05-01-2015 10:15:00 -0.6 C 4.51 g/m*3 -0.6 C 1.6 km/h
1045 05-01-2015 10:20:00 -0.6 C 4.51 g/m*3 -2.88 C 6.4 km/h
1046 05-01-2015 10:25:00 -0.5 C 4.54 g/m*3 -0.5 C 1.6 km/h
1047 05-01-2015 10:30:00 -0.5 C 4.54 g/m*3 -0.5 C 4.8 km/h
1048 05-01-2015 10:35:00 -0.5 C 4.54 g/m*3 -2.76 C 6.4 km/h
1049 05-01-2015 10:40:00 -0.3 C 4.6 g/m*3 -3.12 C 8.1 km/h
1050 05-01-2015 10:45:00 -0.2 C 4.64 g/m*3 -0.2 C 4.8 km/h
Sensor: Nr:Datum:Temp:Abs-Feuchte:Windchill:Wind:
Aussen-T/F 1051 05-01-2015 10:50:00 -0.2 C 4.64 g/m*3 -0.2 C 3.2 km/h
1052 05-01-2015 10:55:00 -0.2 C 4.64 g/m*3 -0.2 C 1.6 km/h
1053 05-01-2015 11:00:00 -0.2 C 4.64 g/m*3 -0.2 C 1.6 km/h
1054 05-01-2015 11:05:00 -0.2 C 4.64 g/m*3 -0.2 C 3.2 km/h
1055 05-01-2015 11:10:00 -0.2 C 4.64 g/m*3 -0.2 C 1.6 km/h
1056 05-01-2015 11:50:00 0.2 C 4.77 g/m*3 0.2 C 3.2 km/h
1057 05-01-2015 11:55:00 0.2 C 4.77 g/m*3 0.2 C 1.6 km/h
1058 05-01-2015 12:00:00 0.2 C 4.77 g/m*3 0.2 C 1.6 km/h
1059 05-01-2015 12:05:00 0.2 C 4.77 g/m*3 0.2 C 1.6 km/h
1060 05-01-2015 12:10:00 0.2 C 4.77 g/m*3 0.2 C 3.2 km/h
1061 05-01-2015 12:15:00 0.2 C 4.77 g/m*3 0.2 C 1.6 km/h
1062 05-01-2015 12:20:00 0.2 C 4.77 g/m*3 0.2 C 1.6 km/h
1063 05-01-2015 12:25:00 0.2 C 4.77 g/m*3 0.2 C 1.6 km/h
1064 05-01-2015 13:50:00 1.1 C 5.23 g/m*3 1.1 C 3.2 km/h
1065 05-01-2015 13:55:00 1.1 C 4.96 g/m*3 1.1 C 4.8 km/h
1066 05-01-2015 14:00:00 1.1 C 4.96 g/m*3 1.1 C 3.2 km/h
1067 05-01-2015 18:20:00 -0.8 C 4.4 g/m*3 -0.8 C 0 km/h
1068 05-01-2015 18:25:00 -0.8 C 4.4 g/m*3 -0.8 C 0 km/h
1069 05-01-2015 18:30:00 -0.8 C 4.4 g/m*3 -0.8 C 0 km/h
1070 05-01-2015 18:35:00 -0.8 C 4.4 g/m*3 -0.8 C 1.6 km/h
1071 05-01-2015 18:40:00 -0.8 C 4.4 g/m*3 -0.8 C 0 km/h
1072 05-01-2015 18:45:00 -0.8 C 4.4 g/m*3 -0.8 C 0 km/h
1073 05-01-2015 18:50:00 -0.8 C 4.4 g/m*3 -0.8 C 0 km/h
1074 05-01-2015 18:55:00 -0.8 C 4.4 g/m*3 -0.8 C 0 km/h
1075 05-01-2015 19:00:00 -0.8 C 4.4 g/m*3 -0.8 C 0 km/h
Sensor: Nr:Datum:Temp:Abs-Feuchte:Windchill:Wind:
Aussen-T/F 1076 05-01-2015 19:05:00 -0.9 C 4.37 g/m*3 -0.9 C 0 km/h
1077 05-01-2015 19:10:00 -0.9 C 4.37 g/m*3 -0.9 C 0 km/h
1078 05-01-2015 20:10:00 -1.4 C 4.22 g/m*3 -1.4 C 0 km/h
1079 05-01-2015 20:15:00 -1.4 C 4.22 g/m*3 -1.4 C 0 km/h
1080 05-01-2015 20:20:00 -1.3 C 4.25 g/m*3 -1.3 C 0 km/h
1081 05-01-2015 20:25:00 -1.4 C 4.22 g/m*3 -1.4 C 0 km/h
1082 05-01-2015 20:30:00 -1.4 C 4.22 g/m*3 -1.4 C 0 km/h
1083 05-01-2015 20:35:00 -1.4 C 4.22 g/m*3 -1.4 C 0 km/h
1084 05-01-2015 20:40:00 -1.3 C 4.25 g/m*3 -1.3 C 0 km/h
1085 05-01-2015 20:45:00 -1.4 C 4.22 g/m*3 -1.4 C 0 km/h
1086 05-01-2015 20:50:00 -1.4 C 4.22 g/m*3 -1.4 C 0 km/h
1087 05-01-2015 20:55:00 -1.5 C 4.19 g/m*3 -1.5 C 0 km/h
1088 05-01-2015 21:00:00 -1.5 C 4.19 g/m*3 -1.5 C 0 km/h
1089 05-01-2015 21:05:00 -1.6 C 4.16 g/m*3 -1.6 C 0 km/h
1090 05-01-2015 21:10:00 -1.5 C 4.19 g/m*3 -1.5 C 0 km/h
1091 05-01-2015 21:15:00 -1.5 C 4.19 g/m*3 -1.5 C 0 km/h
1092 05-01-2015 21:20:00 -1.5 C 4.19 g/m*3 -1.5 C 0 km/h
1093 05-01-2015 21:25:00 -1.6 C 4.16 g/m*3 -1.6 C 0 km/h
1094 05-01-2015 21:30:00 -1.6 C 4.16 g/m*3 -1.6 C 0 km/h
1095 05-01-2015 21:35:00 -1.6 C 4.16 g/m*3 -1.6 C 0 km/h
1096 05-01-2015 21:40:00 -1.6 C 4.16 g/m*3 -1.6 C 0 km/h
1097 05-01-2015 21:45:00 -1.6 C 4.16 g/m*3 -1.6 C 0 km/h
1098 05-01-2015 21:50:00 -1.6 C 4.16 g/m*3 -1.6 C 0 km/h
1099 05-01-2015 21:55:00 -1.6 C 4.21 g/m*3 -1.6 C 0 km/h
1100 05-01-2015 22:00:00 -1.6 C 4.21 g/m*3 -1.6 C 0 km/h
Sensor: Nr:Datum:Temp:Abs-Feuchte:Windchill:Wind:
Aussen-T/F 1101 05-01-2015 22:05:00 -1.7 C 4.13 g/m*3 -1.7 C 0 km/h
1102 05-01-2015 22:10:00 -1.7 C 4.13 g/m*3 -1.7 C 0 km/h
1103 05-01-2015 22:15:00 -1.8 C 4.1 g/m*3 -1.8 C 0 km/h
1104 05-01-2015 22:20:00 -1.8 C 4.1 g/m*3 -1.8 C 0 km/h
1105 05-01-2015 22:25:00 -1.8 C 4.1 g/m*3 -1.8 C 0 km/h
1106 05-01-2015 22:30:00 -1.8 C 4.1 g/m*3 -1.8 C 1.6 km/h
1107 05-01-2015 22:35:00 -1.8 C 4.1 g/m*3 -1.8 C 0 km/h
1108 05-01-2015 22:40:00 -1.8 C 4.1 g/m*3 -1.8 C 0 km/h
1109 06-01-2015 07:55:00 -2.9 C 3.84 g/m*3 -2.9 C 4.8 km/h
1110 06-01-2015 08:00:00 -2.9 C 3.84 g/m*3 -2.9 C 3.2 km/h
1111 06-01-2015 08:05:00 -2.9 C 3.84 g/m*3 -2.9 C 1.6 km/h
1112 06-01-2015 08:10:00 -2.9 C 3.84 g/m*3 -2.9 C 3.2 km/h
1113 06-01-2015 08:15:00 -2.9 C 3.84 g/m*3 -2.9 C 3.2 km/h
1114 06-01-2015 13:05:00 -1.4 C 4.26 g/m*3 -1.4 C 3.2 km/h
1115 06-01-2015 13:10:00 -1.3 C 4.29 g/m*3 -1.3 C 0 km/h
1116 06-01-2015 13:15:00 -1.3 C 4.29 g/m*3 -1.3 C 0 km/h
1117 06-01-2015 13:20:00 -1.3 C 4.29 g/m*3 -1.3 C 0 km/h
1118 06-01-2015 13:25:00 -1.3 C 4.29 g/m*3 -1.3 C 1.6 km/h
1119 06-01-2015 19:40:00 1.1 C 4.7 g/m*3 -2.66 C 12.9 km/h
1120 06-01-2015 19:45:00 1.1 C 4.7 g/m*3 -2.97 C 14.5 km/h
1121 06-01-2015 19:50:00 1.1 C 4.7 g/m*3 -2.97 C 14.5 km/h
1122 06-01-2015 19:55:00 1.1 C 4.7 g/m*3 -2.66 C 12.9 km/h
1123 06-01-2015 20:00:00 0.9 C 4.64 g/m*3 -3.21 C 14.5 km/h
1124 06-01-2015 20:05:00 0.9 C 4.64 g/m*3 -2.16 C 9.7 km/h
1125 06-01-2015 20:10:00 0.8 C 4.61 g/m*3 -4.13 C 19.3 km/h
Sensor: Nr:Datum:Temp:Abs-Feuchte:Windchill:Wind:
Aussen-T/F 1126 06-01-2015 20:15:00 0.8 C 4.61 g/m*3 -3.02 C 12.9 km/h
1127 06-01-2015 20:20:00 0.8 C 4.61 g/m*3 -3.02 C 12.9 km/h
1128 06-01-2015 20:25:00 0.8 C 4.61 g/m*3 -2.67 C 11.3 km/h
1129 06-01-2015 21:20:00 0.7 C 4.68 g/m*3 -1.95 C 8.1 km/h
1130 06-01-2015 21:25:00 0.7 C 4.68 g/m*3 -2.8 C 11.3 km/h
1131 06-01-2015 21:30:00 0.7 C 4.68 g/m*3 -2.8 C 11.3 km/h
1132 06-01-2015 21:35:00 0.8 C 4.71 g/m*3 -2.28 C 9.7 km/h
1133 06-01-2015 21:40:00 0.8 C 4.71 g/m*3 -2.28 C 9.7 km/h
1134 06-01-2015 21:45:00 0.8 C 4.71 g/m*3 -2.28 C 9.7 km/h
1135 06-01-2015 21:50:00 0.8 C 4.71 g/m*3 -2.67 C 11.3 km/h
1136 06-01-2015 21:55:00 0.8 C 4.71 g/m*3 -3.34 C 14.5 km/h
1137 06-01-2015 22:00:00 0.9 C 4.74 g/m*3 -1.14 C 6.4 km/h
1138 06-01-2015 22:05:00 1 C 4.78 g/m*3 -2.78 C 12.9 km/h
1139 06-01-2015 22:10:00 1 C 4.78 g/m*3 -1.59 C 8.1 km/h
1140 06-01-2015 22:15:00 1.1 C 4.81 g/m*3 -1.92 C 9.7 km/h
1141 06-01-2015 22:20:00 1.1 C 4.81 g/m*3 -1.48 C 8.1 km/h
1142 06-01-2015 22:25:00 1.1 C 4.81 g/m*3 -2.31 C 11.3 km/h
1143 06-01-2015 22:30:00 1.2 C 4.84 g/m*3 -0.8 C 6.4 km/h
1144 06-01-2015 22:35:00 1.3 C 4.87 g/m*3 -0.68 C 6.4 km/h
1145 06-01-2015 22:40:00 1.3 C 4.87 g/m*3 1.3 C 1.6 km/h
1146 06-01-2015 22:45:00 1.3 C 4.87 g/m*3 1.3 C 1.6 km/h
1147 06-01-2015 22:50:00 1.3 C 4.87 g/m*3 1.3 C 4.8 km/h
1148 06-01-2015 22:55:00 1.2 C 4.84 g/m*3 1.2 C 0 km/h
1149 06-01-2015 23:00:00 1.2 C 4.84 g/m*3 -1.8 C 9.7 km/h
1150 06-01-2015 23:05:00 1.2 C 4.84 g/m*3 1.2 C 4.8 km/h
Sensor: Nr:Datum:Temp:Abs-Feuchte:Windchill:Wind:
Aussen-T/F 1151 06-01-2015 23:10:00 1.2 C 4.84 g/m*3 1.2 C 3.2 km/h
1152 06-01-2015 23:15:00 1.3 C 4.93 g/m*3 -0.68 C 6.4 km/h
1153 06-01-2015 23:20:00 1.4 C 4.96 g/m*3 -2.29 C 12.9 km/h
1154 06-01-2015 23:25:00 1.6 C 5.03 g/m*3 -1.33 C 9.7 km/h
1155 06-01-2015 23:30:00 1.6 C 5.03 g/m*3 1.6 C 4.8 km/h
1156 06-01-2015 23:35:00 1.6 C 4.97 g/m*3 -0.33 C 6.4 km/h
1157 06-01-2015 23:40:00 1.6 C 4.97 g/m*3 1.6 C 4.8 km/h
1158 06-01-2015 23:45:00 1.5 C 4.94 g/m*3 1.5 C 4.8 km/h
1159 06-01-2015 23:50:00 1.5 C 4.99 g/m*3 -0.45 C 6.4 km/h
1160 06-01-2015 23:55:00 1.5 C 4.99 g/m*3 -2.17 C 12.9 km/h
1161 07-01-2015 00:00:00 1.5 C 4.99 g/m*3 -1.01 C 8.1 km/h
1162 07-01-2015 00:05:00 1.6 C 5.03 g/m*3 -0.33 C 6.4 km/h
1163 07-01-2015 00:10:00 1.6 C 5.03 g/m*3 -0.33 C 6.4 km/h
1164 07-01-2015 00:15:00 1.6 C 5.03 g/m*3 -0.33 C 6.4 km/h
1165 07-01-2015 00:20:00 1.6 C 5.03 g/m*3 -0.33 C 6.4 km/h
1166 07-01-2015 00:25:00 1.6 C 5.03 g/m*3 -0.89 C 8.1 km/h
1167 07-01-2015 00:30:00 1.6 C 5.03 g/m*3 1.6 C 3.2 km/h
1168 07-01-2015 00:35:00 1.6 C 5.08 g/m*3 -0.33 C 6.4 km/h
1169 07-01-2015 00:40:00 1.7 C 5.12 g/m*3 -0.22 C 6.4 km/h
1170 07-01-2015 00:45:00 1.7 C 5.12 g/m*3 1.7 C 3.2 km/h
1171 07-01-2015 00:50:00 1.7 C 5.12 g/m*3 1.7 C 3.2 km/h
1172 07-01-2015 00:55:00 1.7 C 5.12 g/m*3 1.7 C 3.2 km/h
1173 07-01-2015 01:00:00 1.8 C 5.15 g/m*3 -1.09 C 9.7 km/h
1174 07-01-2015 01:05:00 1.9 C 5.19 g/m*3 -0.97 C 9.7 km/h
1175 07-01-2015 01:10:00 1.9 C 5.19 g/m*3 1.9 C 4.8 km/h
Sensor: Nr:Datum:Temp:Abs-Feuchte:Windchill:Wind:
Aussen-T/F 1176 07-01-2015 01:15:00 1.9 C 5.19 g/m*3 0.01 C 6.4 km/h
1177 07-01-2015 01:20:00 2 C 5.22 g/m*3 -2.14 C 16.1 km/h
1178 07-01-2015 01:25:00 2.1 C 5.26 g/m*3 -0.73 C 9.7 km/h
1179 07-01-2015 01:30:00 2.1 C 5.26 g/m*3 -0.73 C 9.7 km/h
1180 07-01-2015 01:35:00 2.2 C 5.29 g/m*3 2.2 C 4.8 km/h
1181 07-01-2015 01:40:00 2.1 C 5.2 g/m*3 -1.74 C 14.5 km/h
1182 07-01-2015 01:45:00 2.2 C 5.29 g/m*3 2.2 C 4.8 km/h
1183 07-01-2015 01:50:00 2.2 C 5.29 g/m*3 0.36 C 6.4 km/h
1184 07-01-2015 01:55:00 2.2 C 5.29 g/m*3 0.36 C 6.4 km/h
1185 07-01-2015 02:00:00 2.2 C 5.29 g/m*3 2.2 C 3.2 km/h
1186 07-01-2015 02:05:00 2.2 C 5.29 g/m*3 2.2 C 3.2 km/h
1187 07-01-2015 02:10:00 2.2 C 5.29 g/m*3 2.2 C 4.8 km/h
1188 07-01-2015 02:15:00 2.2 C 5.29 g/m*3 -0.18 C 8.1 km/h
1189 07-01-2015 02:20:00 2.3 C 5.33 g/m*3 -0.87 C 11.3 km/h
1190 07-01-2015 02:25:00 2.3 C 5.33 g/m*3 -0.49 C 9.7 km/h
1191 07-01-2015 02:30:00 2.3 C 5.33 g/m*3 0.47 C 6.4 km/h
1192 07-01-2015 02:35:00 2.3 C 5.33 g/m*3 -0.07 C 8.1 km/h
1193 07-01-2015 02:40:00 2.2 C 5.29 g/m*3 -0.61 C 9.7 km/h
1194 07-01-2015 02:45:00 2.2 C 5.29 g/m*3 0.36 C 6.4 km/h
1195 07-01-2015 02:50:00 2.2 C 5.29 g/m*3 0.36 C 6.4 km/h
1196 07-01-2015 02:55:00 2.3 C 5.33 g/m*3 2.3 C 4.8 km/h
1197 07-01-2015 03:00:00 2.3 C 5.33 g/m*3 0.47 C 6.4 km/h
1198 07-01-2015 03:05:00 2.3 C 5.33 g/m*3 -0.87 C 11.3 km/h
1199 07-01-2015 03:10:00 2.4 C 5.37 g/m*3 -0.74 C 11.3 km/h
1200 07-01-2015 03:15:00 2.6 C 5.44 g/m*3 0.29 C 8.1 km/h
Sensor: Nr:Datum:Temp:Abs-Feuchte:Windchill:Wind:
Aussen-T/F 1201 07-01-2015 03:20:00 2.6 C 5.38 g/m*3 -0.14 C 9.7 km/h
1202 07-01-2015 03:25:00 2.5 C 5.35 g/m*3 -0.62 C 11.3 km/h
1203 07-01-2015 03:30:00 2.4 C 5.31 g/m*3 0.59 C 6.4 km/h
1204 07-01-2015 03:35:00 2.5 C 5.4 g/m*3 -0.26 C 9.7 km/h
1205 07-01-2015 03:40:00 2.5 C 5.35 g/m*3 -0.26 C 9.7 km/h
1206 07-01-2015 03:45:00 2.6 C 5.44 g/m*3 -0.5 C 11.3 km/h
1207 07-01-2015 03:50:00 2.6 C 5.44 g/m*3 0.82 C 6.4 km/h
1208 07-01-2015 03:55:00 2.5 C 5.4 g/m*3 0.71 C 6.4 km/h
1209 07-01-2015 04:00:00 2.4 C 5.37 g/m*3 0.59 C 6.4 km/h
1210 07-01-2015 04:05:00 2.4 C 5.37 g/m*3 2.4 C 4.8 km/h
1211 07-01-2015 04:10:00 2.4 C 5.37 g/m*3 -1.37 C 14.5 km/h
1212 07-01-2015 04:15:00 2.4 C 5.37 g/m*3 -0.37 C 9.7 km/h
1213 07-01-2015 04:20:00 2.4 C 5.37 g/m*3 -0.74 C 11.3 km/h
1214 07-01-2015 04:25:00 2.5 C 5.4 g/m*3 -0.26 C 9.7 km/h
1215 07-01-2015 04:30:00 2.5 C 5.4 g/m*3 -1.52 C 16.1 km/h
1216 07-01-2015 04:35:00 2.5 C 5.4 g/m*3 0.17 C 8.1 km/h
1217 07-01-2015 04:40:00 2.6 C 5.44 g/m*3 -0.5 C 11.3 km/h
1218 07-01-2015 04:45:00 2.5 C 5.4 g/m*3 0.71 C 6.4 km/h
1219 07-01-2015 04:50:00 2.5 C 5.4 g/m*3 -0.62 C 11.3 km/h
1220 07-01-2015 04:55:00 2.4 C 5.37 g/m*3 2.4 C 4.8 km/h
1221 07-01-2015 05:00:00 2.4 C 5.37 g/m*3 0.59 C 6.4 km/h
1222 07-01-2015 05:05:00 2.4 C 5.37 g/m*3 2.4 C 4.8 km/h
1223 07-01-2015 05:10:00 2.4 C 5.37 g/m*3 0.05 C 8.1 km/h
1224 07-01-2015 05:15:00 2.5 C 5.4 g/m*3 -0.26 C 9.7 km/h
1225 07-01-2015 05:20:00 2.5 C 5.4 g/m*3 0.71 C 6.4 km/h
Sensor: Nr:Datum:Temp:Abs-Feuchte:Windchill:Wind:
Aussen-T/F 1226 07-01-2015 05:25:00 2.6 C 5.44 g/m*3 2.6 C 4.8 km/h
1227 07-01-2015 05:30:00 2.6 C 5.44 g/m*3 0.82 C 6.4 km/h
1228 07-01-2015 05:35:00 2.6 C 5.44 g/m*3 -0.5 C 11.3 km/h
1229 07-01-2015 05:40:00 2.5 C 5.4 g/m*3 0.71 C 6.4 km/h
1230 07-01-2015 05:45:00 2.5 C 5.4 g/m*3 0.71 C 6.4 km/h
1231 07-01-2015 05:50:00 2.4 C 5.37 g/m*3 2.4 C 4.8 km/h
1232 07-01-2015 05:55:00 2.3 C 5.33 g/m*3 2.3 C 4.8 km/h
1233 07-01-2015 06:00:00 2.1 C 5.26 g/m*3 2.1 C 3.2 km/h
1234 07-01-2015 06:05:00 1.9 C 5.19 g/m*3 1.9 C 3.2 km/h
1235 07-01-2015 06:10:00 1.8 C 5.15 g/m*3 1.8 C 1.6 km/h
1236 07-01-2015 06:15:00 1.7 C 5.17 g/m*3 1.7 C 3.2 km/h
1237 07-01-2015 06:20:00 1.6 C 5.14 g/m*3 1.6 C 1.6 km/h
1238 07-01-2015 06:25:00 1.6 C 5.14 g/m*3 1.6 C 1.6 km/h
1239 07-01-2015 06:30:00 1.4 C 5.07 g/m*3 1.4 C 0 km/h
1240 07-01-2015 06:35:00 1.4 C 5.12 g/m*3 1.4 C 1.6 km/h
1241 07-01-2015 06:40:00 1.4 C 5.12 g/m*3 1.4 C 4.8 km/h
1242 07-01-2015 06:45:00 1.5 C 5.16 g/m*3 1.5 C 4.8 km/h
1243 07-01-2015 06:50:00 1.4 C 5.12 g/m*3 1.4 C 3.2 km/h
1244 07-01-2015 06:55:00 1.4 C 5.12 g/m*3 1.4 C 4.8 km/h
1245 07-01-2015 07:00:00 1.3 C 5.09 g/m*3 1.3 C 4.8 km/h
1246 07-01-2015 07:05:00 1.3 C 5.09 g/m*3 1.3 C 3.2 km/h
1247 07-01-2015 07:10:00 1.4 C 5.12 g/m*3 1.4 C 3.2 km/h
1248 07-01-2015 07:15:00 1.5 C 5.16 g/m*3 1.5 C 3.2 km/h
1249 07-01-2015 07:20:00 1.4 C 5.12 g/m*3 1.4 C 3.2 km/h
1250 07-01-2015 07:25:00 1.4 C 5.12 g/m*3 1.4 C 3.2 km/h
Sensor: Nr:Datum:Temp:Abs-Feuchte:Windchill:Wind:
Aussen-T/F 1251 07-01-2015 07:30:00 1.4 C 5.12 g/m*3 -0.56 C 6.4 km/h
1252 07-01-2015 07:35:00 1.4 C 5.12 g/m*3 1.4 C 3.2 km/h
1253 07-01-2015 07:40:00 1.3 C 5.09 g/m*3 1.3 C 1.6 km/h
1254 07-01-2015 07:45:00 1.3 C 5.09 g/m*3 -0.68 C 6.4 km/h
1255 07-01-2015 07:50:00 1.4 C 5.12 g/m*3 1.4 C 3.2 km/h
1256 07-01-2015 07:55:00 1.3 C 5.09 g/m*3 1.3 C 3.2 km/h
1257 07-01-2015 08:00:00 1.3 C 5.09 g/m*3 1.3 C 3.2 km/h
1258 07-01-2015 08:05:00 1.3 C 5.14 g/m*3 1.3 C 4.8 km/h
1259 07-01-2015 08:10:00 1.4 C 5.17 g/m*3 1.4 C 4.8 km/h
1260 07-01-2015 08:15:00 1.5 C 5.21 g/m*3 -1.01 C 8.1 km/h
1261 07-01-2015 08:20:00 1.6 C 5.25 g/m*3 1.6 C 4.8 km/h
1262 07-01-2015 08:25:00 1.7 C 5.28 g/m*3 -0.22 C 6.4 km/h
1263 07-01-2015 08:30:00 1.7 C 5.28 g/m*3 -0.22 C 6.4 km/h
1264 07-01-2015 08:35:00 1.7 C 5.23 g/m*3 -0.22 C 6.4 km/h
1265 07-01-2015 08:40:00 1.8 C 5.26 g/m*3 1.8 C 3.2 km/h
1266 07-01-2015 08:45:00 1.8 C 5.26 g/m*3 1.8 C 3.2 km/h
1267 07-01-2015 08:50:00 1.8 C 5.26 g/m*3 -0.65 C 8.1 km/h
1268 07-01-2015 08:55:00 1.9 C 5.35 g/m*3 1.9 C 4.8 km/h
1269 07-01-2015 09:00:00 2 C 5.33 g/m*3 2 C 4.8 km/h
1270 07-01-2015 09:05:00 2.1 C 5.37 g/m*3 2.1 C 4.8 km/h
1271 07-01-2015 09:10:00 2 C 5.33 g/m*3 2 C 3.2 km/h
1272 07-01-2015 09:15:00 2 C 5.33 g/m*3 2 C 1.6 km/h
1273 07-01-2015 09:20:00 2 C 5.33 g/m*3 2 C 3.2 km/h
1274 07-01-2015 09:25:00 2.1 C 5.37 g/m*3 2.1 C 4.8 km/h
1275 07-01-2015 09:30:00 2.1 C 5.37 g/m*3 2.1 C 0 km/h
Sensor: Nr:Datum:Temp:Abs-Feuchte:Windchill:Wind:
Aussen-T/F 1276 07-01-2015 09:35:00 2.1 C 5.37 g/m*3 2.1 C 4.8 km/h
1277 07-01-2015 09:40:00 2.1 C 5.37 g/m*3 2.1 C 3.2 km/h
1278 07-01-2015 11:40:00 3.2 C 5.54 g/m*3 -0.1 C 12.9 km/h
1279 07-01-2015 11:45:00 3.3 C 5.58 g/m*3 1.63 C 6.4 km/h
1280 07-01-2015 11:50:00 3.2 C 5.54 g/m*3 0.58 C 9.7 km/h
1281 07-01-2015 11:55:00 3.2 C 5.54 g/m*3 3.2 C 4.8 km/h
1282 07-01-2015 12:00:00 3.1 C 5.51 g/m*3 1.4 C 6.4 km/h
1283 07-01-2015 12:05:00 3.1 C 5.51 g/m*3 3.1 C 4.8 km/h
1284 07-01-2015 12:10:00 3.2 C 5.54 g/m*3 1.51 C 6.4 km/h
1285 07-01-2015 12:15:00 3.1 C 5.51 g/m*3 1.4 C 6.4 km/h
1286 07-01-2015 12:20:00 3.1 C 5.51 g/m*3 3.1 C 4.8 km/h
1287 07-01-2015 12:25:00 3.1 C 5.51 g/m*3 0.1 C 11.3 km/h
1288 07-01-2015 12:30:00 3.2 C 5.54 g/m*3 0.58 C 9.7 km/h
1289 07-01-2015 12:35:00 3.2 C 5.48 g/m*3 1.51 C 6.4 km/h
1290 07-01-2015 12:40:00 3.2 C 5.54 g/m*3 0.22 C 11.3 km/h
1291 07-01-2015 12:45:00 3.3 C 5.52 g/m*3 0.34 C 11.3 km/h
1292 07-01-2015 12:50:00 3.3 C 5.52 g/m*3 1.11 C 8.1 km/h
1293 07-01-2015 12:55:00 3.4 C 5.56 g/m*3 0.46 C 11.3 km/h
1294 07-01-2015 13:00:00 3.4 C 5.5 g/m*3 0.46 C 11.3 km/h
1295 07-01-2015 13:05:00 3.4 C 5.5 g/m*3 0.46 C 11.3 km/h
1296 07-01-2015 13:10:00 3.4 C 5.5 g/m*3 1.75 C 6.4 km/h
1297 07-01-2015 13:15:00 3.4 C 5.5 g/m*3 1.23 C 8.1 km/h
1298 07-01-2015 13:20:00 3.4 C 5.56 g/m*3 1.75 C 6.4 km/h
1299 07-01-2015 13:25:00 3.4 C 5.56 g/m*3 0.46 C 11.3 km/h
1300 07-01-2015 13:30:00 3.4 C 5.56 g/m*3 1.23 C 8.1 km/h
Sensor: Nr:Datum:Temp:Abs-Feuchte:Windchill:Wind:
Aussen-T/F 1301 07-01-2015 13:35:00 3.4 C 5.56 g/m*3 0.82 C 9.7 km/h
1302 07-01-2015 13:40:00 3.4 C 5.5 g/m*3 -0.14 C 14.5 km/h
1303 07-01-2015 13:45:00 3.4 C 5.5 g/m*3 1.23 C 8.1 km/h
1304 07-01-2015 13:50:00 3.4 C 5.5 g/m*3 0.14 C 12.9 km/h
1305 07-01-2015 13:55:00 3.5 C 5.53 g/m*3 0.58 C 11.3 km/h
1306 07-01-2015 14:00:00 3.5 C 5.53 g/m*3 0.94 C 9.7 km/h
1307 07-01-2015 14:05:00 3.5 C 5.53 g/m*3 1.86 C 6.4 km/h
1308 07-01-2015 14:10:00 3.5 C 5.53 g/m*3 0.94 C 9.7 km/h
1309 07-01-2015 14:15:00 3.4 C 5.5 g/m*3 -0.4 C 16.1 km/h
1310 07-01-2015 14:20:00 3.4 C 5.5 g/m*3 0.46 C 11.3 km/h
1311 07-01-2015 14:25:00 3.4 C 5.5 g/m*3 0.82 C 9.7 km/h
1312 07-01-2015 14:30:00 3.4 C 5.44 g/m*3 0.46 C 11.3 km/h
1313 07-01-2015 14:35:00 3.4 C 5.44 g/m*3 0.82 C 9.7 km/h
1314 07-01-2015 14:40:00 3.4 C 5.44 g/m*3 0.82 C 9.7 km/h
1315 07-01-2015 14:45:00 3.4 C 5.44 g/m*3 0.82 C 9.7 km/h
1316 07-01-2015 14:50:00 3.4 C 5.44 g/m*3 0.14 C 12.9 km/h
1317 07-01-2015 14:55:00 3.4 C 5.44 g/m*3 0.46 C 11.3 km/h
1318 07-01-2015 15:00:00 3.4 C 5.44 g/m*3 3.4 C 4.8 km/h
1319 07-01-2015 15:05:00 3.4 C 5.37 g/m*3 3.4 C 4.8 km/h
1320 07-01-2015 15:10:00 3.5 C 5.47 g/m*3 0.58 C 11.3 km/h
1321 07-01-2015 15:15:00 3.5 C 5.47 g/m*3 1.86 C 6.4 km/h
1322 07-01-2015 15:20:00 3.5 C 5.47 g/m*3 1.86 C 6.4 km/h
1323 07-01-2015 15:25:00 3.5 C 5.41 g/m*3 3.5 C 4.8 km/h
1324 07-01-2015 15:30:00 3.5 C 5.47 g/m*3 3.5 C 4.8 km/h
1325 07-01-2015 15:35:00 3.4 C 5.44 g/m*3 0.82 C 9.7 km/h
Sensor: Nr:Datum:Temp:Abs-Feuchte:Windchill:Wind:
Aussen-T/F 1326 07-01-2015 15:40:00 3.4 C 5.37 g/m*3 1.23 C 8.1 km/h
1327 07-01-2015 15:45:00 3.3 C 5.34 g/m*3 0.7 C 9.7 km/h
1328 07-01-2015 15:50:00 3.3 C 5.4 g/m*3 0.34 C 11.3 km/h
1329 07-01-2015 15:55:00 3.3 C 5.4 g/m*3 0.7 C 9.7 km/h
1330 07-01-2015 16:00:00 3.2 C 5.36 g/m*3 0.99 C 8.1 km/h
1331 07-01-2015 16:05:00 3.2 C 5.36 g/m*3 3.2 C 4.8 km/h
1332 07-01-2015 16:10:00 3.2 C 5.42 g/m*3 0.99 C 8.1 km/h
1333 07-01-2015 16:15:00 3.2 C 5.36 g/m*3 0.58 C 9.7 km/h
1334 07-01-2015 16:20:00 3.2 C 5.42 g/m*3 3.2 C 4.8 km/h
1335 07-01-2015 16:25:00 3.2 C 5.42 g/m*3 3.2 C 3.2 km/h
1336 07-01-2015 16:30:00 3.1 C 5.39 g/m*3 3.1 C 3.2 km/h
1337 07-01-2015 16:35:00 3.1 C 5.39 g/m*3 3.1 C 4.8 km/h
1338 07-01-2015 16:40:00 3.1 C 5.39 g/m*3 0.87 C 8.1 km/h
1339 07-01-2015 16:45:00 3.1 C 5.39 g/m*3 1.4 C 6.4 km/h
1340 07-01-2015 16:50:00 3.1 C 5.39 g/m*3 1.4 C 6.4 km/h
1341 07-01-2015 16:55:00 3 C 5.35 g/m*3 3 C 4.8 km/h
1342 07-01-2015 17:00:00 3 C 5.35 g/m*3 1.28 C 6.4 km/h
1343 07-01-2015 17:05:00 2.9 C 5.32 g/m*3 2.9 C 3.2 km/h
1344 07-01-2015 17:10:00 2.9 C 5.32 g/m*3 2.9 C 3.2 km/h
1345 07-01-2015 17:15:00 2.9 C 5.32 g/m*3 0.22 C 9.7 km/h
1346 07-01-2015 17:20:00 2.9 C 5.37 g/m*3 2.9 C 1.6 km/h
1347 07-01-2015 17:25:00 2.8 C 5.34 g/m*3 2.8 C 0 km/h
1348 07-01-2015 17:30:00 2.8 C 5.34 g/m*3 2.8 C 0 km/h
1349 07-01-2015 17:35:00 2.8 C 5.34 g/m*3 2.8 C 0 km/h
1350 07-01-2015 17:40:00 2.7 C 5.3 g/m*3 2.7 C 3.2 km/h
Sensor: Nr:Datum:Temp:Abs-Feuchte:Windchill:Wind:
Aussen-T/F 1351 07-01-2015 17:45:00 2.7 C 5.3 g/m*3 0.4 C 8.1 km/h
1352 07-01-2015 17:50:00 2.8 C 5.34 g/m*3 0.52 C 8.1 km/h
1353 07-01-2015 17:55:00 2.8 C 5.34 g/m*3 1.05 C 6.4 km/h
1354 07-01-2015 18:00:00 2.8 C 5.28 g/m*3 2.8 C 4.8 km/h
1355 07-01-2015 18:05:00 2.8 C 5.28 g/m*3 0.1 C 9.7 km/h
1356 07-01-2015 18:10:00 2.8 C 5.28 g/m*3 1.05 C 6.4 km/h
1357 07-01-2015 18:15:00 2.8 C 5.28 g/m*3 2.8 C 3.2 km/h
1358 07-01-2015 18:20:00 2.8 C 5.28 g/m*3 2.8 C 1.6 km/h
1359 07-01-2015 18:25:00 2.8 C 5.28 g/m*3 2.8 C 3.2 km/h
1360 07-01-2015 18:30:00 2.8 C 5.28 g/m*3 2.8 C 4.8 km/h
1361 07-01-2015 18:35:00 2.8 C 5.28 g/m*3 2.8 C 3.2 km/h
1362 07-01-2015 18:40:00 2.8 C 5.28 g/m*3 2.8 C 3.2 km/h
1363 07-01-2015 18:45:00 2.8 C 5.34 g/m*3 2.8 C 0 km/h
1364 07-01-2015 18:50:00 2.7 C 5.3 g/m*3 2.7 C 0 km/h
1365 07-01-2015 18:55:00 2.7 C 5.3 g/m*3 2.7 C 1.6 km/h
1366 07-01-2015 19:00:00 2.7 C 5.3 g/m*3 2.7 C 1.6 km/h
1367 07-01-2015 19:05:00 2.7 C 5.3 g/m*3 2.7 C 0 km/h
1368 07-01-2015 19:10:00 2.7 C 5.36 g/m*3 2.7 C 1.6 km/h
1369 07-01-2015 19:15:00 2.6 C 5.32 g/m*3 2.6 C 0 km/h
1370 07-01-2015 19:20:00 2.6 C 5.32 g/m*3 2.6 C 0 km/h
1371 07-01-2015 19:25:00 2.6 C 5.32 g/m*3 2.6 C 1.6 km/h
1372 07-01-2015 19:30:00 2.6 C 5.32 g/m*3 2.6 C 1.6 km/h
1373 07-01-2015 19:35:00 2.5 C 5.35 g/m*3 2.5 C 1.6 km/h
1374 07-01-2015 19:40:00 2.5 C 5.35 g/m*3 2.5 C 0 km/h
1375 07-01-2015 19:45:00 2.5 C 5.35 g/m*3 2.5 C 0 km/h
Sensor: Nr:Datum:Temp:Abs-Feuchte:Windchill:Wind:
Aussen-T/F 1376 07-01-2015 19:50:00 2.4 C 5.31 g/m*3 2.4 C 0 km/h
1377 07-01-2015 19:55:00 2.4 C 5.31 g/m*3 2.4 C 3.2 km/h
1378 07-01-2015 20:00:00 2.5 C 5.35 g/m*3 2.5 C 0 km/h
1379 07-01-2015 20:05:00 2.5 C 5.35 g/m*3 2.5 C 0 km/h
1380 07-01-2015 20:10:00 2.6 C 5.38 g/m*3 2.6 C 0 km/h
1381 07-01-2015 20:15:00 2.6 C 5.38 g/m*3 2.6 C 0 km/h
1382 07-01-2015 20:20:00 2.6 C 5.38 g/m*3 2.6 C 0 km/h
1383 07-01-2015 20:25:00 2.6 C 5.38 g/m*3 2.6 C 0 km/h
1384 07-01-2015 20:30:00 2.6 C 5.38 g/m*3 2.6 C 1.6 km/h
1385 07-01-2015 20:35:00 2.6 C 5.32 g/m*3 2.6 C 4.8 km/h
1386 07-01-2015 20:40:00 2.6 C 5.32 g/m*3 0.29 C 8.1 km/h
1387 07-01-2015 20:45:00 2.7 C 5.36 g/m*3 0.94 C 6.4 km/h
1388 07-01-2015 20:50:00 2.7 C 5.36 g/m*3 0.94 C 6.4 km/h
1389 07-01-2015 20:55:00 2.7 C 5.36 g/m*3 2.7 C 3.2 km/h
1390 07-01-2015 21:00:00 2.7 C 5.36 g/m*3 2.7 C 1.6 km/h
1391 07-01-2015 21:05:00 2.7 C 5.36 g/m*3 2.7 C 1.6 km/h
1392 07-01-2015 21:10:00 2.7 C 5.36 g/m*3 2.7 C 3.2 km/h
1393 07-01-2015 21:15:00 2.6 C 5.32 g/m*3 2.6 C 3.2 km/h
1394 07-01-2015 21:20:00 2.6 C 5.32 g/m*3 2.6 C 3.2 km/h
1395 07-01-2015 21:25:00 2.6 C 5.27 g/m*3 2.6 C 3.2 km/h
1396 07-01-2015 21:30:00 2.6 C 5.32 g/m*3 2.6 C 0 km/h
1397 07-01-2015 21:35:00 2.6 C 5.32 g/m*3 2.6 C 1.6 km/h
1398 07-01-2015 21:40:00 2.6 C 5.32 g/m*3 2.6 C 1.6 km/h
1399 07-01-2015 21:45:00 2.5 C 5.29 g/m*3 2.5 C 0 km/h
1400 07-01-2015 21:50:00 2.4 C 5.25 g/m*3 2.4 C 0 km/h
Sensor: Nr:Datum:Temp:Abs-Feuchte:Windchill:Wind:
Aussen-T/F 1401 07-01-2015 21:55:00 2.4 C 5.31 g/m*3 2.4 C 0 km/h
1402 07-01-2015 22:00:00 2.4 C 5.31 g/m*3 2.4 C 0 km/h
1403 07-01-2015 22:05:00 2.4 C 5.31 g/m*3 2.4 C 0 km/h
1404 07-01-2015 22:10:00 2.4 C 5.31 g/m*3 2.4 C 0 km/h
1405 07-01-2015 22:15:00 2.4 C 5.31 g/m*3 2.4 C 0 km/h
1406 07-01-2015 22:20:00 2.4 C 5.31 g/m*3 2.4 C 1.6 km/h
1407 07-01-2015 22:25:00 2.4 C 5.25 g/m*3 2.4 C 1.6 km/h
1408 07-01-2015 22:30:00 2.4 C 5.25 g/m*3 0.59 C 6.4 km/h
1409 07-01-2015 22:35:00 2.4 C 5.2 g/m*3 2.4 C 3.2 km/h
1410 07-01-2015 22:40:00 2.6 C 5.21 g/m*3 2.6 C 4.8 km/h
1411 07-01-2015 22:45:00 2.6 C 5.15 g/m*3 2.6 C 3.2 km/h
1412 07-01-2015 22:50:00 2.6 C 5.15 g/m*3 2.6 C 3.2 km/h
1413 07-01-2015 22:55:00 2.7 C 5.19 g/m*3 2.7 C 1.6 km/h
1414 07-01-2015 23:00:00 2.7 C 5.19 g/m*3 0.4 C 8.1 km/h
1415 07-01-2015 23:05:00 2.7 C 5.13 g/m*3 0.94 C 6.4 km/h
1416 07-01-2015 23:10:00 2.8 C 5.16 g/m*3 2.8 C 3.2 km/h
1417 07-01-2015 23:15:00 2.8 C 5.16 g/m*3 2.8 C 0 km/h
1418 07-01-2015 23:20:00 2.8 C 5.16 g/m*3 0.52 C 8.1 km/h
1419 07-01-2015 23:25:00 2.8 C 5.16 g/m*3 2.8 C 3.2 km/h
1420 07-01-2015 23:30:00 2.8 C 5.16 g/m*3 2.8 C 0 km/h
1421 07-01-2015 23:35:00 2.8 C 5.16 g/m*3 2.8 C 3.2 km/h
1422 07-01-2015 23:40:00 2.9 C 5.2 g/m*3 2.9 C 3.2 km/h
1423 07-01-2015 23:45:00 2.9 C 5.2 g/m*3 2.9 C 0 km/h
1424 07-01-2015 23:50:00 2.9 C 5.26 g/m*3 2.9 C 0 km/h
1425 07-01-2015 23:55:00 2.8 C 5.22 g/m*3 2.8 C 0 km/h
Sensor: Nr:Datum:Temp:Abs-Feuchte:Windchill:Wind:
Aussen-T/F 1426 08-01-2015 00:00:00 2.8 C 5.28 g/m*3 2.8 C 0 km/h
1427 08-01-2015 00:05:00 2.7 C 5.3 g/m*3 2.7 C 3.2 km/h
1428 08-01-2015 00:10:00 2.6 C 5.27 g/m*3 2.6 C 0 km/h
1429 08-01-2015 00:15:00 2.6 C 5.32 g/m*3 2.6 C 0 km/h
1430 08-01-2015 00:20:00 2.6 C 5.32 g/m*3 2.6 C 0 km/h
1431 08-01-2015 00:25:00 2.6 C 5.32 g/m*3 2.6 C 1.6 km/h
1432 08-01-2015 00:30:00 2.6 C 5.32 g/m*3 2.6 C 1.6 km/h
1433 08-01-2015 00:35:00 2.6 C 5.32 g/m*3 2.6 C 0 km/h
1434 08-01-2015 00:40:00 2.6 C 5.38 g/m*3 2.6 C 1.6 km/h
1435 08-01-2015 00:45:00 2.6 C 5.38 g/m*3 2.6 C 1.6 km/h
1436 08-01-2015 00:50:00 2.6 C 5.38 g/m*3 2.6 C 0 km/h
1437 08-01-2015 00:55:00 2.6 C 5.38 g/m*3 2.6 C 1.6 km/h
1438 08-01-2015 01:00:00 2.6 C 5.38 g/m*3 2.6 C 0 km/h
1439 08-01-2015 01:05:00 2.6 C 5.38 g/m*3 2.6 C 0 km/h
1440 08-01-2015 01:10:00 2.6 C 5.44 g/m*3 2.6 C 0 km/h
1441 08-01-2015 01:15:00 2.6 C 5.44 g/m*3 2.6 C 0 km/h
1442 08-01-2015 01:20:00 2.6 C 5.44 g/m*3 2.6 C 0 km/h
1443 08-01-2015 01:25:00 2.6 C 5.44 g/m*3 2.6 C 0 km/h
1444 08-01-2015 01:30:00 2.6 C 5.44 g/m*3 2.6 C 1.6 km/h
1445 08-01-2015 01:35:00 2.6 C 5.44 g/m*3 2.6 C 0 km/h
1446 08-01-2015 01:40:00 2.6 C 5.44 g/m*3 2.6 C 0 km/h
1447 08-01-2015 01:45:00 2.7 C 5.48 g/m*3 2.7 C 0 km/h
1448 08-01-2015 01:50:00 2.7 C 5.48 g/m*3 2.7 C 0 km/h
1449 08-01-2015 01:55:00 2.7 C 5.48 g/m*3 2.7 C 0 km/h
1450 08-01-2015 02:00:00 2.6 C 5.44 g/m*3 2.6 C 0 km/h
Sensor: Nr:Datum:Temp:Abs-Feuchte:Windchill:Wind:
Aussen-T/F 1451 08-01-2015 02:05:00 2.7 C 5.48 g/m*3 2.7 C 0 km/h
1452 08-01-2015 02:10:00 2.7 C 5.48 g/m*3 2.7 C 0 km/h
1453 08-01-2015 02:15:00 2.7 C 5.48 g/m*3 2.7 C 0 km/h
1454 08-01-2015 02:20:00 2.7 C 5.48 g/m*3 2.7 C 0 km/h
1455 08-01-2015 02:25:00 2.7 C 5.48 g/m*3 2.7 C 0 km/h
1456 08-01-2015 02:30:00 2.7 C 5.48 g/m*3 2.7 C 0 km/h
1457 08-01-2015 02:35:00 2.8 C 5.51 g/m*3 2.8 C 0 km/h
1458 08-01-2015 02:40:00 2.8 C 5.51 g/m*3 2.8 C 1.6 km/h
1459 08-01-2015 02:45:00 2.9 C 5.55 g/m*3 2.9 C 0 km/h
1460 08-01-2015 02:50:00 2.9 C 5.55 g/m*3 2.9 C 0 km/h
1461 08-01-2015 02:55:00 3.2 C 5.66 g/m*3 1.51 C 6.4 km/h
1462 08-01-2015 03:00:00 3.4 C 5.74 g/m*3 0.82 C 9.7 km/h
1463 08-01-2015 03:05:00 3.8 C 5.9 g/m*3 0.35 C 14.5 km/h
1464 08-01-2015 03:10:00 4 C 5.98 g/m*3 2.44 C 6.4 km/h
1465 08-01-2015 03:15:00 4.2 C 5.99 g/m*3 1.43 C 11.3 km/h
1466 08-01-2015 03:20:00 4.2 C 5.93 g/m*3 2.17 C 8.1 km/h
1467 08-01-2015 03:25:00 4.3 C 5.97 g/m*3 1.24 C 12.9 km/h
1468 08-01-2015 03:30:00 4.4 C 6.01 g/m*3 2.01 C 9.7 km/h
1469 08-01-2015 03:35:00 4.5 C 6.05 g/m*3 1.48 C 12.9 km/h
1470 08-01-2015 03:40:00 4.6 C 6.02 g/m*3 3.13 C 6.4 km/h
1471 08-01-2015 03:45:00 4.7 C 6.06 g/m*3 2.37 C 9.7 km/h
1472 08-01-2015 03:50:00 4.7 C 6.06 g/m*3 4.7 C 4.8 km/h
1473 08-01-2015 03:55:00 4.6 C 6.02 g/m*3 3.13 C 6.4 km/h
1474 08-01-2015 04:00:00 4.6 C 6.09 g/m*3 4.6 C 4.8 km/h
1475 08-01-2015 04:05:00 4.5 C 6.05 g/m*3 4.5 C 4.8 km/h
Sensor: Nr:Datum:Temp:Abs-Feuchte:Windchill:Wind:
Aussen-T/F 1476 08-01-2015 04:10:00 4.4 C 6.07 g/m*3 4.4 C 4.8 km/h
1477 08-01-2015 04:15:00 4.4 C 6.14 g/m*3 4.4 C 4.8 km/h
1478 08-01-2015 04:20:00 4.5 C 6.18 g/m*3 4.5 C 4.8 km/h
1479 08-01-2015 04:25:00 4.5 C 6.18 g/m*3 4.5 C 0 km/h
1480 08-01-2015 04:30:00 4.4 C 6.14 g/m*3 4.4 C 4.8 km/h
1481 08-01-2015 04:35:00 4.3 C 6.16 g/m*3 4.3 C 0 km/h
1482 08-01-2015 04:40:00 4.2 C 6.12 g/m*3 4.2 C 4.8 km/h
1483 08-01-2015 04:45:00 4.2 C 6.12 g/m*3 4.2 C 3.2 km/h
1484 08-01-2015 04:50:00 4.2 C 6.19 g/m*3 4.2 C 3.2 km/h
1485 08-01-2015 04:55:00 4.2 C 6.19 g/m*3 4.2 C 3.2 km/h
1486 08-01-2015 05:00:00 4.2 C 6.19 g/m*3 4.2 C 1.6 km/h
1487 08-01-2015 05:05:00 4.3 C 6.23 g/m*3 4.3 C 1.6 km/h
1488 08-01-2015 05:10:00 4.3 C 6.23 g/m*3 4.3 C 0 km/h
1489 08-01-2015 05:15:00 4.2 C 6.19 g/m*3 4.2 C 0 km/h
1490 08-01-2015 05:20:00 4.2 C 6.19 g/m*3 4.2 C 1.6 km/h
1491 08-01-2015 05:25:00 4.3 C 6.23 g/m*3 4.3 C 3.2 km/h
1492 08-01-2015 05:30:00 4.3 C 6.23 g/m*3 4.3 C 1.6 km/h
1493 08-01-2015 05:35:00 4.3 C 6.23 g/m*3 4.3 C 1.6 km/h
1494 08-01-2015 05:40:00 4.3 C 6.29 g/m*3 4.3 C 3.2 km/h
1495 08-01-2015 05:45:00 4.3 C 6.23 g/m*3 4.3 C 4.8 km/h
1496 08-01-2015 05:50:00 4.3 C 6.23 g/m*3 4.3 C 1.6 km/h
1497 08-01-2015 05:55:00 4.3 C 6.23 g/m*3 4.3 C 0 km/h
1498 08-01-2015 06:00:00 4.3 C 6.23 g/m*3 4.3 C 3.2 km/h
1499 08-01-2015 06:05:00 4.3 C 6.29 g/m*3 4.3 C 1.6 km/h
1500 08-01-2015 06:10:00 4.3 C 6.29 g/m*3 4.3 C 0 km/h
Sensor: Nr:Datum:Temp:Abs-Feuchte:Windchill:Wind:
Aussen-T/F 1501 08-01-2015 06:15:00 4.2 C 6.25 g/m*3 4.2 C 1.6 km/h
1502 08-01-2015 06:20:00 4.3 C 6.29 g/m*3 4.3 C 1.6 km/h
1503 08-01-2015 06:25:00 4.3 C 6.29 g/m*3 4.3 C 0 km/h
1504 08-01-2015 06:30:00 4.3 C 6.29 g/m*3 4.3 C 3.2 km/h
1505 08-01-2015 06:35:00 4.3 C 6.29 g/m*3 4.3 C 1.6 km/h
1506 08-01-2015 06:40:00 4.2 C 6.25 g/m*3 4.2 C 1.6 km/h
1507 08-01-2015 06:45:00 4.3 C 6.29 g/m*3 4.3 C 0 km/h
1508 08-01-2015 06:50:00 4.3 C 6.29 g/m*3 4.3 C 0 km/h
1509 08-01-2015 06:55:00 4.3 C 6.29 g/m*3 4.3 C 0 km/h
1510 08-01-2015 07:00:00 4.3 C 6.29 g/m*3 4.3 C 1.6 km/h
1511 08-01-2015 07:05:00 4.4 C 6.33 g/m*3 4.4 C 1.6 km/h
1512 08-01-2015 07:10:00 4.4 C 6.33 g/m*3 4.4 C 4.8 km/h
1513 08-01-2015 07:15:00 4.5 C 6.38 g/m*3 4.5 C 3.2 km/h
1514 08-01-2015 07:20:00 4.7 C 6.53 g/m*3 2.03 C 11.3 km/h
1515 08-01-2015 07:25:00 4.9 C 6.62 g/m*3 2.99 C 8.1 km/h
1516 08-01-2015 07:30:00 5.1 C 6.7 g/m*3 5.1 C 3.2 km/h
1517 08-01-2015 07:35:00 5.2 C 6.68 g/m*3 3.34 C 8.1 km/h
1518 08-01-2015 07:40:00 5.3 C 6.72 g/m*3 2.46 C 12.9 km/h
1519 08-01-2015 07:45:00 5.4 C 6.77 g/m*3 2.08 C 16.1 km/h
1520 08-01-2015 07:50:00 5.6 C 6.86 g/m*3 2.33 C 16.1 km/h
1521 08-01-2015 07:55:00 5.6 C 6.79 g/m*3 2.11 C 17.7 km/h
1522 08-01-2015 08:00:00 5.7 C 6.83 g/m*3 3.93 C 8.1 km/h
1523 08-01-2015 08:05:00 5.6 C 6.79 g/m*3 5.6 C 4.8 km/h
1524 08-01-2015 08:10:00 5.6 C 6.79 g/m*3 3.81 C 8.1 km/h
1525 08-01-2015 08:15:00 5.7 C 6.83 g/m*3 3.56 C 9.7 km/h
Sensor: Nr:Datum:Temp:Abs-Feuchte:Windchill:Wind:
Aussen-T/F 1526 08-01-2015 08:20:00 5.7 C 6.83 g/m*3 3.93 C 8.1 km/h
1527 08-01-2015 08:25:00 5.7 C 6.83 g/m*3 4.4 C 6.4 km/h
1528 08-01-2015 08:30:00 5.7 C 6.83 g/m*3 5.7 C 4.8 km/h
1529 08-01-2015 08:35:00 5.6 C 6.79 g/m*3 5.6 C 1.6 km/h
1530 08-01-2015 08:40:00 5.6 C 6.79 g/m*3 5.6 C 1.6 km/h
1531 08-01-2015 08:45:00 5.6 C 6.79 g/m*3 5.6 C 0 km/h
1532 08-01-2015 08:50:00 5.6 C 6.79 g/m*3 5.6 C 4.8 km/h
1533 08-01-2015 08:55:00 5.5 C 6.74 g/m*3 5.5 C 3.2 km/h
1534 08-01-2015 09:00:00 5.4 C 6.77 g/m*3 5.4 C 3.2 km/h
1535 08-01-2015 09:05:00 5.4 C 6.77 g/m*3 5.4 C 3.2 km/h
1536 08-01-2015 09:10:00 5.5 C 6.81 g/m*3 5.5 C 0 km/h
1537 08-01-2015 09:15:00 5.5 C 6.81 g/m*3 5.5 C 1.6 km/h
1538 08-01-2015 09:20:00 5.5 C 6.81 g/m*3 5.5 C 0 km/h
1539 08-01-2015 09:25:00 5.5 C 6.81 g/m*3 5.5 C 0 km/h
1540 08-01-2015 09:30:00 5.6 C 6.86 g/m*3 5.6 C 0 km/h
1541 08-01-2015 09:35:00 5.6 C 6.86 g/m*3 5.6 C 3.2 km/h
1542 08-01-2015 09:40:00 5.6 C 6.86 g/m*3 5.6 C 1.6 km/h
1543 08-01-2015 09:45:00 5.7 C 6.97 g/m*3 5.7 C 1.6 km/h
1544 08-01-2015 09:50:00 5.8 C 7.02 g/m*3 5.8 C 3.2 km/h
1545 08-01-2015 09:55:00 5.9 C 7.07 g/m*3 5.9 C 1.6 km/h
1546 08-01-2015 10:00:00 6 C 7.11 g/m*3 6 C 3.2 km/h
1547 08-01-2015 10:05:00 6.1 C 7.16 g/m*3 6.1 C 3.2 km/h
1548 08-01-2015 10:10:00 6.1 C 7.16 g/m*3 6.1 C 4.8 km/h
1549 08-01-2015 10:15:00 6.2 C 7.21 g/m*3 6.2 C 1.6 km/h
1550 08-01-2015 10:20:00 6.3 C 7.25 g/m*3 6.3 C 0 km/h
Sensor: Nr:Datum:Temp:Abs-Feuchte:Windchill:Wind:
Aussen-T/F 1551 08-01-2015 10:25:00 6.4 C 7.3 g/m*3 6.4 C 3.2 km/h
1552 08-01-2015 10:30:00 6.4 C 7.3 g/m*3 6.4 C 0 km/h
1553 08-01-2015 10:35:00 6.6 C 7.4 g/m*3 6.6 C 4.8 km/h
1554 08-01-2015 10:40:00 6.7 C 7.45 g/m*3 5.56 C 6.4 km/h
1555 08-01-2015 10:45:00 6.8 C 7.5 g/m*3 6.8 C 1.6 km/h
1556 08-01-2015 10:50:00 6.8 C 7.42 g/m*3 5.67 C 6.4 km/h
1557 08-01-2015 10:55:00 6.9 C 7.47 g/m*3 4.68 C 11.3 km/h
1558 08-01-2015 11:00:00 7.1 C 7.57 g/m*3 7.1 C 3.2 km/h
1559 08-01-2015 11:05:00 7.1 C 7.57 g/m*3 7.1 C 4.8 km/h
1560 08-01-2015 11:10:00 7.2 C 7.61 g/m*3 7.2 C 4.8 km/h
1561 08-01-2015 11:15:00 7.2 C 7.61 g/m*3 7.2 C 4.8 km/h
1562 08-01-2015 11:20:00 7.3 C 7.58 g/m*3 5.47 C 9.7 km/h
1563 08-01-2015 11:25:00 7.4 C 7.63 g/m*3 5.93 C 8.1 km/h
1564 08-01-2015 11:30:00 7.6 C 7.65 g/m*3 5.82 C 9.7 km/h
1565 08-01-2015 11:35:00 7.7 C 7.7 g/m*3 6.28 C 8.1 km/h
1566 08-01-2015 11:40:00 7.7 C 7.7 g/m*3 6.71 C 6.4 km/h
1567 08-01-2015 11:45:00 7.8 C 7.75 g/m*3 6.06 C 9.7 km/h
1568 08-01-2015 11:50:00 7.9 C 7.8 g/m*3 6.18 C 9.7 km/h
1569 08-01-2015 11:55:00 8 C 7.85 g/m*3 6.3 C 9.7 km/h
1570 08-01-2015 12:00:00 8.1 C 7.82 g/m*3 8.1 C 3.2 km/h
1571 08-01-2015 12:05:00 8.1 C 7.82 g/m*3 8.1 C 3.2 km/h
1572 08-01-2015 12:10:00 8.1 C 7.82 g/m*3 6.75 C 8.1 km/h
1573 08-01-2015 12:15:00 8.1 C 7.82 g/m*3 6.75 C 8.1 km/h
1574 08-01-2015 12:20:00 8.2 C 7.87 g/m*3 6.87 C 8.1 km/h
1575 08-01-2015 12:25:00 8.2 C 7.87 g/m*3 6.87 C 8.1 km/h
Sensor: Nr:Datum:Temp:Abs-Feuchte:Windchill:Wind:
Aussen-T/F 1576 08-01-2015 12:30:00 8.3 C 7.92 g/m*3 7.41 C 6.4 km/h
1577 08-01-2015 12:35:00 8.4 C 7.89 g/m*3 6.49 C 11.3 km/h
1578 08-01-2015 12:40:00 8.6 C 7.99 g/m*3 6.48 C 12.9 km/h
1579 08-01-2015 12:45:00 8.7 C 7.96 g/m*3 7.46 C 8.1 km/h
1580 08-01-2015 12:50:00 8.8 C 8.01 g/m*3 7.58 C 8.1 km/h
1581 08-01-2015 12:55:00 8.9 C 8.06 g/m*3 6.85 C 12.9 km/h
1582 08-01-2015 13:00:00 8.9 C 8.06 g/m*3 6.42 C 16.1 km/h
1583 08-01-2015 13:05:00 8.9 C 8.06 g/m*3 6.42 C 16.1 km/h
1584 08-01-2015 13:10:00 8.9 C 8.06 g/m*3 6.23 C 17.7 km/h
1585 08-01-2015 13:15:00 8.9 C 8.06 g/m*3 5.6 C 24.1 km/h
1586 08-01-2015 13:20:00 9 C 8.11 g/m*3 5.6 C 25.7 km/h
1587 08-01-2015 13:25:00 9 C 8.11 g/m*3 5.73 C 24.1 km/h
1588 08-01-2015 13:30:00 9.1 C 8.16 g/m*3 6.15 C 20.9 km/h
1589 08-01-2015 13:35:00 9.1 C 8.16 g/m*3 5.73 C 25.7 km/h
1590 08-01-2015 13:40:00 9.2 C 8.13 g/m*3 6.13 C 22.5 km/h
1591 08-01-2015 13:45:00 9.2 C 8.13 g/m*3 5.86 C 25.7 km/h
1592 08-01-2015 13:50:00 9.3 C 8.18 g/m*3 6.12 C 24.1 km/h
1593 08-01-2015 13:55:00 9.3 C 8.18 g/m*3 5.98 C 25.7 km/h
1594 08-01-2015 14:00:00 9.2 C 8.22 g/m*3 7.21 C 12.9 km/h
1595 08-01-2015 14:05:00 9.2 C 8.22 g/m*3 6.61 C 17.7 km/h
1596 08-01-2015 14:10:00 9.2 C 8.13 g/m*3 5.86 C 25.7 km/h
1597 08-01-2015 14:15:00 9.3 C 8.18 g/m*3 6.73 C 17.7 km/h
1598 08-01-2015 14:20:00 9.3 C 8.18 g/m*3 6.92 C 16.1 km/h
1599 08-01-2015 14:25:00 9.4 C 8.23 g/m*3 7.04 C 16.1 km/h
1600 08-01-2015 14:30:00 9.4 C 8.23 g/m*3 6.11 C 25.7 km/h
Sensor: Nr:Datum:Temp:Abs-Feuchte:Windchill:Wind:
Aussen-T/F 1601 08-01-2015 14:35:00 9.5 C 8.28 g/m*3 6.82 C 19.3 km/h
1602 08-01-2015 14:40:00 9.6 C 8.34 g/m*3 6.94 C 19.3 km/h
1603 08-01-2015 14:45:00 9.6 C 8.24 g/m*3 6.79 C 20.9 km/h
1604 08-01-2015 14:50:00 9.6 C 8.24 g/m*3 7.48 C 14.5 km/h
1605 08-01-2015 14:55:00 9.7 C 8.3 g/m*3 7.23 C 17.7 km/h
1606 08-01-2015 15:00:00 9.7 C 8.3 g/m*3 7.41 C 16.1 km/h
1607 08-01-2015 15:05:00 9.8 C 8.35 g/m*3 7.19 C 19.3 km/h
1608 08-01-2015 15:10:00 9.8 C 8.35 g/m*3 7.36 C 17.7 km/h
1609 08-01-2015 15:15:00 9.7 C 8.39 g/m*3 9.02 C 6.4 km/h
1610 08-01-2015 15:20:00 9.6 C 8.34 g/m*3 7.7 C 12.9 km/h
1611 08-01-2015 15:25:00 9.5 C 8.37 g/m*3 8.4 C 8.1 km/h
1612 08-01-2015 15:30:00 9.5 C 8.37 g/m*3 8.09 C 9.7 km/h
1613 08-01-2015 15:35:00 9.6 C 8.34 g/m*3 7.29 C 16.1 km/h
1614 08-01-2015 15:40:00 9.7 C 8.39 g/m*3 8.33 C 9.7 km/h
1615 08-01-2015 15:45:00 9.7 C 8.39 g/m*3 6.5 C 25.7 km/h
1616 08-01-2015 15:50:00 9.8 C 8.35 g/m*3 6.89 C 22.5 km/h
1617 08-01-2015 15:55:00 9.8 C 8.35 g/m*3 7.54 C 16.1 km/h
1618 08-01-2015 16:00:00 9.8 C 8.35 g/m*3 7.73 C 14.5 km/h
1619 08-01-2015 16:05:00 9.8 C 8.26 g/m*3 6.17 C 32.2 km/h
1620 08-01-2015 16:10:00 9.9 C 8.31 g/m*3 7.02 C 22.5 km/h
1621 08-01-2015 16:15:00 9.9 C 8.31 g/m*3 7.66 C 16.1 km/h
1622 08-01-2015 16:20:00 9.9 C 8.31 g/m*3 7.48 C 17.7 km/h
1623 08-01-2015 16:25:00 9.8 C 8.26 g/m*3 7.73 C 14.5 km/h
1624 08-01-2015 16:30:00 9.8 C 8.35 g/m*3 6.27 C 30.6 km/h
1625 08-01-2015 16:35:00 9.8 C 8.35 g/m*3 6.89 C 22.5 km/h
Sensor: Nr:Datum:Temp:Abs-Feuchte:Windchill:Wind:
Aussen-T/F 1626 08-01-2015 16:40:00 9.7 C 8.3 g/m*3 7.23 C 17.7 km/h
1627 08-01-2015 16:45:00 9.7 C 8.3 g/m*3 7.41 C 16.1 km/h
1628 08-01-2015 16:50:00 9.7 C 8.3 g/m*3 8.06 C 11.3 km/h
1629 08-01-2015 16:55:00 9.6 C 8.34 g/m*3 7.7 C 12.9 km/h
1630 08-01-2015 17:00:00 9.6 C 8.34 g/m*3 7.48 C 14.5 km/h
1631 08-01-2015 17:05:00 9.6 C 8.34 g/m*3 6.94 C 19.3 km/h
1632 08-01-2015 17:10:00 9.6 C 8.34 g/m*3 7.94 C 11.3 km/h
1633 08-01-2015 17:15:00 9.6 C 8.34 g/m*3 7.11 C 17.7 km/h
1634 08-01-2015 17:20:00 9.6 C 8.34 g/m*3 6.79 C 20.9 km/h
1635 08-01-2015 17:25:00 9.7 C 8.39 g/m*3 7.41 C 16.1 km/h
1636 08-01-2015 17:30:00 9.7 C 8.39 g/m*3 7.41 C 16.1 km/h
1637 08-01-2015 17:35:00 9.7 C 8.39 g/m*3 7.23 C 17.7 km/h
1638 08-01-2015 17:40:00 9.7 C 8.39 g/m*3 7.61 C 14.5 km/h
1639 08-01-2015 17:45:00 9.7 C 8.39 g/m*3 7.41 C 16.1 km/h
1640 08-01-2015 17:50:00 9.7 C 8.39 g/m*3 7.23 C 17.7 km/h
1641 08-01-2015 17:55:00 9.7 C 8.39 g/m*3 7.82 C 12.9 km/h
1642 08-01-2015 18:00:00 9.8 C 8.44 g/m*3 7.04 C 20.9 km/h
1643 08-01-2015 18:05:00 9.8 C 8.44 g/m*3 7.36 C 17.7 km/h
1644 08-01-2015 18:10:00 9.8 C 8.44 g/m*3 6.89 C 22.5 km/h
1645 08-01-2015 18:15:00 9.8 C 8.44 g/m*3 7.36 C 17.7 km/h
1646 08-01-2015 18:20:00 9.8 C 8.44 g/m*3 7.04 C 20.9 km/h
1647 08-01-2015 18:25:00 9.8 C 8.44 g/m*3 7.19 C 19.3 km/h
1648 08-01-2015 18:30:00 9.8 C 8.44 g/m*3 6.63 C 25.7 km/h
1649 08-01-2015 18:35:00 9.8 C 8.44 g/m*3 6.76 C 24.1 km/h
1650 08-01-2015 18:40:00 9.8 C 8.44 g/m*3 7.19 C 19.3 km/h
Sensor: Nr:Datum:Temp:Abs-Feuchte:Windchill:Wind:
Aussen-T/F 1651 08-01-2015 18:45:00 9.7 C 8.48 g/m*3 7.82 C 12.9 km/h
1652 08-01-2015 18:50:00 9.7 C 8.48 g/m*3 7.07 C 19.3 km/h
1653 08-01-2015 18:55:00 9.7 C 8.48 g/m*3 7.07 C 19.3 km/h
1654 08-01-2015 19:00:00 9.6 C 8.43 g/m*3 7.29 C 16.1 km/h
1655 08-01-2015 19:05:00 9.6 C 8.43 g/m*3 5.61 C 37 km/h
1656 08-01-2015 19:10:00 9.6 C 8.34 g/m*3 6.5 C 24.1 km/h
1657 08-01-2015 19:15:00 9.5 C 8.01 g/m*3 6.37 C 24.1 km/h
1658 08-01-2015 19:20:00 9.3 C 7.73 g/m*3 6.92 C 16.1 km/h
1659 08-01-2015 19:25:00 9.1 C 7.54 g/m*3 6.67 C 16.1 km/h
1660 08-01-2015 19:30:00 8.9 C 7.36 g/m*3 5.47 C 25.7 km/h
1661 08-01-2015 19:35:00 8.9 C 7.45 g/m*3 6.85 C 12.9 km/h
1662 08-01-2015 19:40:00 8.8 C 7.31 g/m*3 5.48 C 24.1 km/h
1663 08-01-2015 19:45:00 8.7 C 7.26 g/m*3 4.62 C 33.8 km/h
1664 08-01-2015 19:50:00 8.5 C 7.26 g/m*3 4.46 C 32.2 km/h
1665 08-01-2015 19:55:00 8.3 C 7.16 g/m*3 4.84 C 24.1 km/h
1666 08-01-2015 20:00:00 8.1 C 7.07 g/m*3 4.58 C 24.1 km/h
1667 08-01-2015 20:05:00 8 C 7.11 g/m*3 6.3 C 9.7 km/h
1668 08-01-2015 20:10:00 7.9 C 7.15 g/m*3 5.39 C 14.5 km/h
1669 08-01-2015 20:15:00 7.8 C 7.1 g/m*3 4.86 C 17.7 km/h
1670 08-01-2015 20:20:00 7.8 C 7.1 g/m*3 5.27 C 14.5 km/h
1671 08-01-2015 20:25:00 7.7 C 7.14 g/m*3 5.38 C 12.9 km/h
1672 08-01-2015 20:30:00 7.7 C 7.14 g/m*3 5.65 C 11.3 km/h
1673 08-01-2015 20:35:00 7.6 C 7.09 g/m*3 4.81 C 16.1 km/h
1674 08-01-2015 20:40:00 7.6 C 7.17 g/m*3 4.61 C 17.7 km/h
1675 08-01-2015 20:45:00 7.5 C 7.12 g/m*3 5.7 C 9.7 km/h
Sensor: Nr:Datum:Temp:Abs-Feuchte:Windchill:Wind:
Aussen-T/F 1676 08-01-2015 20:50:00 7.4 C 7.08 g/m*3 5.58 C 9.7 km/h
1677 08-01-2015 20:55:00 7.4 C 7.16 g/m*3 5.02 C 12.9 km/h
1678 08-01-2015 21:00:00 7.4 C 7.16 g/m*3 5.93 C 8.1 km/h
1679 08-01-2015 21:05:00 7.3 C 7.11 g/m*3 4.9 C 12.9 km/h
1680 08-01-2015 21:10:00 7.3 C 7.03 g/m*3 4.9 C 12.9 km/h
1681 08-01-2015 21:15:00 7.3 C 7.03 g/m*3 5.16 C 11.3 km/h
1682 08-01-2015 21:20:00 7.4 C 7.08 g/m*3 5.28 C 11.3 km/h
1683 08-01-2015 21:25:00 7.3 C 7.03 g/m*3 5.47 C 9.7 km/h
1684 08-01-2015 21:30:00 7.3 C 7.03 g/m*3 5.81 C 8.1 km/h
1685 08-01-2015 21:35:00 7.3 C 7.03 g/m*3 6.25 C 6.4 km/h
1686 08-01-2015 21:40:00 7.3 C 7.03 g/m*3 5.16 C 11.3 km/h
1687 08-01-2015 21:45:00 7.3 C 7.03 g/m*3 5.47 C 9.7 km/h
1688 08-01-2015 21:50:00 7.3 C 7.03 g/m*3 5.16 C 11.3 km/h
1689 08-01-2015 21:55:00 7.3 C 6.95 g/m*3 5.47 C 9.7 km/h
1690 08-01-2015 22:00:00 7.3 C 6.95 g/m*3 4.66 C 14.5 km/h
1691 08-01-2015 22:05:00 7.3 C 6.95 g/m*3 4.9 C 12.9 km/h
1692 08-01-2015 22:10:00 7.2 C 6.99 g/m*3 5.04 C 11.3 km/h
1693 08-01-2015 22:15:00 7.2 C 6.91 g/m*3 4.53 C 14.5 km/h
1694 08-01-2015 22:20:00 7.2 C 6.91 g/m*3 4.53 C 14.5 km/h
1695 08-01-2015 22:25:00 7.2 C 6.91 g/m*3 4.53 C 14.5 km/h
1696 08-01-2015 22:30:00 7.2 C 6.91 g/m*3 5.35 C 9.7 km/h
1697 08-01-2015 22:35:00 7.1 C 6.86 g/m*3 7.1 C 4.8 km/h
1698 08-01-2015 22:40:00 7.1 C 6.86 g/m*3 5.23 C 9.7 km/h
1699 08-01-2015 22:45:00 7.1 C 6.86 g/m*3 4.65 C 12.9 km/h
1700 08-01-2015 22:50:00 7 C 6.82 g/m*3 5.11 C 9.7 km/h
Sensor: Nr:Datum:Temp:Abs-Feuchte:Windchill:Wind:
Aussen-T/F 1701 08-01-2015 22:55:00 7 C 6.9 g/m*3 5.46 C 8.1 km/h
1702 08-01-2015 23:00:00 6.9 C 6.85 g/m*3 5.79 C 6.4 km/h
1703 08-01-2015 23:05:00 6.8 C 6.81 g/m*3 5.67 C 6.4 km/h
1704 08-01-2015 23:10:00 6.7 C 6.84 g/m*3 6.7 C 4.8 km/h
1705 08-01-2015 23:15:00 6.6 C 6.79 g/m*3 4.99 C 8.1 km/h
1706 08-01-2015 23:20:00 6.5 C 6.75 g/m*3 5.33 C 6.4 km/h
1707 08-01-2015 23:25:00 6.4 C 6.78 g/m*3 3.8 C 12.9 km/h
1708 08-01-2015 23:30:00 6.5 C 6.82 g/m*3 4.51 C 9.7 km/h
1709 08-01-2015 23:35:00 6.6 C 6.87 g/m*3 4.32 C 11.3 km/h
1710 08-01-2015 23:40:00 6.5 C 6.75 g/m*3 4.51 C 9.7 km/h
1711 08-01-2015 23:45:00 6.5 C 6.82 g/m*3 5.33 C 6.4 km/h
1712 08-01-2015 23:50:00 6.4 C 6.78 g/m*3 6.4 C 4.8 km/h
1713 08-01-2015 23:55:00 6.5 C 6.75 g/m*3 4.2 C 11.3 km/h
1714 09-01-2015 00:00:00 6.6 C 6.79 g/m*3 4.04 C 12.9 km/h
1715 09-01-2015 00:05:00 6.5 C 6.75 g/m*3 4.87 C 8.1 km/h
1716 09-01-2015 00:10:00 6.6 C 6.79 g/m*3 4.63 C 9.7 km/h
1717 09-01-2015 00:15:00 6.5 C 6.75 g/m*3 5.33 C 6.4 km/h
1718 09-01-2015 00:20:00 6.6 C 6.72 g/m*3 4.63 C 9.7 km/h
1719 09-01-2015 00:25:00 6.5 C 6.67 g/m*3 6.5 C 4.8 km/h
1720 09-01-2015 00:30:00 6.5 C 6.67 g/m*3 5.33 C 6.4 km/h
1721 09-01-2015 00:35:00 6.4 C 6.63 g/m*3 4.39 C 9.7 km/h
1722 09-01-2015 00:40:00 6.5 C 6.67 g/m*3 4.87 C 8.1 km/h
1723 09-01-2015 00:45:00 6.6 C 6.72 g/m*3 4.99 C 8.1 km/h
1724 09-01-2015 00:50:00 6.4 C 6.63 g/m*3 6.4 C 4.8 km/h
1725 09-01-2015 00:55:00 6.3 C 6.66 g/m*3 3.96 C 11.3 km/h
Sensor: Nr:Datum:Temp:Abs-Feuchte:Windchill:Wind:
Aussen-T/F 1726 09-01-2015 01:00:00 6.3 C 6.59 g/m*3 5.1 C 6.4 km/h
1727 09-01-2015 01:05:00 6.3 C 6.59 g/m*3 4.64 C 8.1 km/h
1728 09-01-2015 01:10:00 6.2 C 6.62 g/m*3 4.15 C 9.7 km/h
1729 09-01-2015 01:15:00 6.2 C 6.62 g/m*3 3.84 C 11.3 km/h
1730 09-01-2015 01:20:00 6.2 C 6.62 g/m*3 2.86 C 17.7 km/h
1731 09-01-2015 01:25:00 6.3 C 6.66 g/m*3 3.96 C 11.3 km/h
1732 09-01-2015 01:30:00 6.5 C 6.75 g/m*3 4.51 C 9.7 km/h
1733 09-01-2015 01:35:00 6.6 C 6.72 g/m*3 3.17 C 19.3 km/h
1734 09-01-2015 01:40:00 6.7 C 6.76 g/m*3 3.29 C 19.3 km/h
1735 09-01-2015 01:45:00 6.7 C 6.69 g/m*3 4.44 C 11.3 km/h
1736 09-01-2015 01:50:00 6.7 C 6.69 g/m*3 5.11 C 8.1 km/h
1737 09-01-2015 01:55:00 6.7 C 6.69 g/m*3 3.92 C 14.5 km/h
1738 09-01-2015 02:00:00 6.7 C 6.69 g/m*3 5.11 C 8.1 km/h
1739 09-01-2015 02:05:00 6.7 C 6.69 g/m*3 5.11 C 8.1 km/h
1740 09-01-2015 02:10:00 6.6 C 6.64 g/m*3 5.44 C 6.4 km/h
1741 09-01-2015 02:15:00 6.5 C 6.6 g/m*3 5.33 C 6.4 km/h
1742 09-01-2015 02:20:00 6.3 C 6.59 g/m*3 5.1 C 6.4 km/h
1743 09-01-2015 02:25:00 6.4 C 6.63 g/m*3 5.21 C 6.4 km/h
1744 09-01-2015 02:30:00 6.3 C 6.59 g/m*3 3.43 C 14.5 km/h
1745 09-01-2015 02:35:00 6.3 C 6.59 g/m*3 5.1 C 6.4 km/h
1746 09-01-2015 02:40:00 6.3 C 6.66 g/m*3 5.1 C 6.4 km/h
1747 09-01-2015 02:45:00 6.3 C 6.66 g/m*3 5.1 C 6.4 km/h
1748 09-01-2015 02:50:00 6.3 C 6.66 g/m*3 5.1 C 6.4 km/h
1749 09-01-2015 02:55:00 6.4 C 6.71 g/m*3 5.21 C 6.4 km/h
1750 09-01-2015 03:00:00 6.4 C 6.71 g/m*3 5.21 C 6.4 km/h
Sensor: Nr:Datum:Temp:Abs-Feuchte:Windchill:Wind:
Aussen-T/F 1751 09-01-2015 03:05:00 6.7 C 6.76 g/m*3 4.17 C 12.9 km/h
1752 09-01-2015 03:10:00 7 C 6.9 g/m*3 5.46 C 8.1 km/h
1753 09-01-2015 03:15:00 7.2 C 6.83 g/m*3 3.92 C 19.3 km/h
1754 09-01-2015 03:20:00 7.3 C 6.87 g/m*3 4.66 C 14.5 km/h
1755 09-01-2015 03:25:00 7.4 C 6.84 g/m*3 5.02 C 12.9 km/h
1756 09-01-2015 03:30:00 7.4 C 6.84 g/m*3 4.56 C 16.1 km/h
1757 09-01-2015 03:35:00 7.4 C 6.84 g/m*3 4.78 C 14.5 km/h
1758 09-01-2015 03:40:00 7.5 C 6.88 g/m*3 5.41 C 11.3 km/h
1759 09-01-2015 03:45:00 7.5 C 6.88 g/m*3 4.9 C 14.5 km/h
1760 09-01-2015 03:50:00 7.5 C 6.88 g/m*3 6.48 C 6.4 km/h
1761 09-01-2015 03:55:00 7.5 C 6.88 g/m*3 6.48 C 6.4 km/h
1762 09-01-2015 04:00:00 7.4 C 6.92 g/m*3 7.4 C 4.8 km/h
1763 09-01-2015 04:05:00 7.4 C 6.92 g/m*3 5.93 C 8.1 km/h
1764 09-01-2015 04:10:00 7.4 C 6.92 g/m*3 7.4 C 4.8 km/h
1765 09-01-2015 04:15:00 7.4 C 6.92 g/m*3 6.37 C 6.4 km/h
1766 09-01-2015 04:20:00 7.4 C 6.92 g/m*3 4.36 C 17.7 km/h
1767 09-01-2015 04:25:00 7.5 C 6.96 g/m*3 6.05 C 8.1 km/h
1768 09-01-2015 04:30:00 7.5 C 6.96 g/m*3 6.05 C 8.1 km/h
1769 09-01-2015 04:35:00 7.4 C 6.92 g/m*3 5.93 C 8.1 km/h
1770 09-01-2015 04:40:00 7.4 C 7 g/m*3 7.4 C 4.8 km/h
1771 09-01-2015 04:45:00 7.3 C 7.03 g/m*3 7.3 C 1.6 km/h
1772 09-01-2015 04:50:00 7.2 C 6.99 g/m*3 5.69 C 8.1 km/h
1773 09-01-2015 04:55:00 7.2 C 6.99 g/m*3 7.2 C 1.6 km/h
1774 09-01-2015 05:00:00 7.2 C 6.99 g/m*3 7.2 C 3.2 km/h
1775 09-01-2015 05:05:00 7.2 C 6.99 g/m*3 5.69 C 8.1 km/h
Sensor: Nr:Datum:Temp:Abs-Feuchte:Windchill:Wind:
Aussen-T/F 1776 09-01-2015 05:10:00 7.2 C 6.99 g/m*3 5.69 C 8.1 km/h
1777 09-01-2015 05:15:00 7.3 C 6.95 g/m*3 6.25 C 6.4 km/h
1778 09-01-2015 05:20:00 7.4 C 7 g/m*3 7.4 C 4.8 km/h
1779 09-01-2015 05:25:00 7.6 C 7.01 g/m*3 5.26 C 12.9 km/h
1780 09-01-2015 05:30:00 7.6 C 6.93 g/m*3 5.02 C 14.5 km/h
1781 09-01-2015 05:35:00 7.7 C 6.97 g/m*3 6.28 C 8.1 km/h
1782 09-01-2015 05:40:00 7.7 C 6.89 g/m*3 5.15 C 14.5 km/h
1783 09-01-2015 05:45:00 7.8 C 6.94 g/m*3 5.77 C 11.3 km/h
1784 09-01-2015 05:50:00 7.7 C 6.89 g/m*3 5.65 C 11.3 km/h
1785 09-01-2015 05:55:00 7.7 C 6.89 g/m*3 5.94 C 9.7 km/h
1786 09-01-2015 06:00:00 7.7 C 6.89 g/m*3 6.71 C 6.4 km/h
1787 09-01-2015 06:05:00 7.7 C 6.89 g/m*3 4.93 C 16.1 km/h
1788 09-01-2015 06:10:00 7.8 C 6.86 g/m*3 5.06 C 16.1 km/h
1789 09-01-2015 06:15:00 7.9 C 6.9 g/m*3 4.8 C 19.3 km/h
1790 09-01-2015 06:20:00 8.1 C 6.91 g/m*3 4.58 C 24.1 km/h
1791 09-01-2015 06:25:00 8.1 C 6.91 g/m*3 5.43 C 16.1 km/h
1792 09-01-2015 06:30:00 8.1 C 6.91 g/m*3 4.44 C 25.7 km/h
1793 09-01-2015 06:35:00 8.1 C 6.91 g/m*3 5.05 C 19.3 km/h
1794 09-01-2015 06:40:00 8.2 C 6.95 g/m*3 4.86 C 22.5 km/h
1795 09-01-2015 06:45:00 8.2 C 6.95 g/m*3 5.18 C 19.3 km/h
1796 09-01-2015 06:50:00 8.2 C 6.95 g/m*3 5.01 C 20.9 km/h
1797 09-01-2015 06:55:00 8.2 C 6.95 g/m*3 5.36 C 17.7 km/h
1798 09-01-2015 07:00:00 8.2 C 6.95 g/m*3 5.01 C 20.9 km/h
1799 09-01-2015 07:05:00 8.3 C 6.91 g/m*3 4.98 C 22.5 km/h
1800 09-01-2015 07:10:00 8.3 C 6.91 g/m*3 5.89 C 14.5 km/h
Sensor: Nr:Datum:Temp:Abs-Feuchte:Windchill:Wind:
Aussen-T/F 1801 09-01-2015 07:15:00 8.3 C 6.91 g/m*3 6.12 C 12.9 km/h
1802 09-01-2015 07:20:00 8.4 C 6.96 g/m*3 5.8 C 16.1 km/h
1803 09-01-2015 07:25:00 8.4 C 6.96 g/m*3 5.27 C 20.9 km/h
1804 09-01-2015 07:30:00 8.4 C 7.04 g/m*3 5.8 C 16.1 km/h
1805 09-01-2015 07:35:00 8.4 C 7.04 g/m*3 5.61 C 17.7 km/h
1806 09-01-2015 07:40:00 8.4 C 7.04 g/m*3 5.43 C 19.3 km/h
1807 09-01-2015 07:45:00 8.4 C 7.04 g/m*3 6.01 C 14.5 km/h
1808 09-01-2015 07:50:00 8.5 C 7.09 g/m*3 5.73 C 17.7 km/h
1809 09-01-2015 07:55:00 8.6 C 7.13 g/m*3 5.86 C 17.7 km/h
1810 09-01-2015 08:00:00 8.6 C 7.05 g/m*3 5.22 C 24.1 km/h
1811 09-01-2015 08:05:00 8.7 C 7.09 g/m*3 5.98 C 17.7 km/h
1812 09-01-2015 08:10:00 8.7 C 7.09 g/m*3 5.81 C 19.3 km/h
1813 09-01-2015 08:15:00 8.7 C 7.09 g/m*3 6.17 C 16.1 km/h
1814 09-01-2015 08:20:00 8.7 C 7.09 g/m*3 5.65 C 20.9 km/h
1815 09-01-2015 08:25:00 8.7 C 7.09 g/m*3 5.65 C 20.9 km/h
1816 09-01-2015 08:30:00 8.7 C 7.09 g/m*3 5.81 C 19.3 km/h
1817 09-01-2015 08:35:00 8.7 C 7.09 g/m*3 5.35 C 24.1 km/h
1818 09-01-2015 08:40:00 8.8 C 7.14 g/m*3 5.77 C 20.9 km/h
1819 09-01-2015 08:45:00 8.8 C 7.14 g/m*3 5.34 C 25.7 km/h
1820 09-01-2015 08:50:00 8.8 C 7.14 g/m*3 5.48 C 24.1 km/h
1821 09-01-2015 08:55:00 8.9 C 7.18 g/m*3 7.09 C 11.3 km/h
1822 09-01-2015 09:00:00 8.9 C 7.18 g/m*3 5.75 C 22.5 km/h
1823 09-01-2015 09:05:00 9 C 7.14 g/m*3 5.34 C 29 km/h
1824 09-01-2015 09:10:00 9.1 C 7.19 g/m*3 5.86 C 24.1 km/h
1825 09-01-2015 09:15:00 9.1 C 7.19 g/m*3 5.86 C 24.1 km/h
Sensor: Nr:Datum:Temp:Abs-Feuchte:Windchill:Wind:
Aussen-T/F 1826 09-01-2015 09:20:00 9.1 C 7.19 g/m*3 6.67 C 16.1 km/h
1827 09-01-2015 09:25:00 9.1 C 7.28 g/m*3 6.15 C 20.9 km/h
1828 09-01-2015 09:30:00 9.1 C 7.28 g/m*3 6.87 C 14.5 km/h
1829 09-01-2015 09:35:00 9.1 C 7.28 g/m*3 5.25 C 32.2 km/h
1830 09-01-2015 09:40:00 9.1 C 7.28 g/m*3 7.33 C 11.3 km/h
1831 09-01-2015 09:45:00 9.1 C 7.28 g/m*3 6.67 C 16.1 km/h
1832 09-01-2015 09:50:00 9.1 C 7.28 g/m*3 5.86 C 24.1 km/h
1833 09-01-2015 09:55:00 9.1 C 7.28 g/m*3 6.48 C 17.7 km/h
1834 09-01-2015 10:00:00 9 C 7.32 g/m*3 6.03 C 20.9 km/h
1835 09-01-2015 10:05:00 9 C 7.32 g/m*3 6.36 C 17.7 km/h
1836 09-01-2015 10:10:00 9 C 7.32 g/m*3 6.36 C 17.7 km/h
1837 09-01-2015 10:15:00 9 C 7.32 g/m*3 5.6 C 25.7 km/h
1838 09-01-2015 10:20:00 8.9 C 7.36 g/m*3 6.62 C 14.5 km/h
1839 09-01-2015 10:25:00 8.9 C 7.36 g/m*3 6.42 C 16.1 km/h
1840 09-01-2015 10:30:00 8.8 C 7.31 g/m*3 6.3 C 16.1 km/h
1841 09-01-2015 10:35:00 8.9 C 7.36 g/m*3 5.21 C 29 km/h
1842 09-01-2015 10:40:00 8.9 C 7.36 g/m*3 5.75 C 22.5 km/h
1843 09-01-2015 10:45:00 8.9 C 7.36 g/m*3 5.1 C 30.6 km/h
1844 09-01-2015 10:50:00 8.9 C 7.36 g/m*3 5.9 C 20.9 km/h
1845 09-01-2015 10:55:00 8.9 C 7.36 g/m*3 5.33 C 27.4 km/h
1846 09-01-2015 11:00:00 9 C 7.41 g/m*3 5.87 C 22.5 km/h
1847 09-01-2015 11:05:00 9.1 C 7.45 g/m*3 6 C 22.5 km/h
1848 09-01-2015 11:10:00 9.1 C 7.36 g/m*3 5.25 C 32.2 km/h
1849 09-01-2015 11:15:00 9.1 C 7.45 g/m*3 5.47 C 29 km/h
1850 09-01-2015 11:20:00 9.1 C 7.45 g/m*3 5.59 C 27.4 km/h
Sensor: Nr:Datum:Temp:Abs-Feuchte:Windchill:Wind:
Aussen-T/F 1851 09-01-2015 11:25:00 9.2 C 7.5 g/m*3 5.27 C 33.8 km/h
1852 09-01-2015 11:30:00 9.2 C 7.5 g/m*3 6.44 C 19.3 km/h
1853 09-01-2015 11:35:00 9.2 C 7.5 g/m*3 6.28 C 20.9 km/h
1854 09-01-2015 11:40:00 9.2 C 7.5 g/m*3 5.6 C 29 km/h
1855 09-01-2015 11:45:00 9.2 C 7.5 g/m*3 5.6 C 29 km/h
1856 09-01-2015 11:50:00 9.2 C 7.59 g/m*3 5.17 C 35.4 km/h
1857 09-01-2015 11:55:00 9.3 C 7.64 g/m*3 5.98 C 25.7 km/h
1858 09-01-2015 12:00:00 9.3 C 7.64 g/m*3 5.41 C 33.8 km/h
1859 09-01-2015 12:05:00 9.3 C 7.64 g/m*3 5.73 C 29 km/h
1860 09-01-2015 12:10:00 9.3 C 7.64 g/m*3 5.98 C 25.7 km/h
1861 09-01-2015 12:15:00 9.3 C 7.64 g/m*3 5.62 C 30.6 km/h
1862 09-01-2015 12:20:00 9.3 C 7.64 g/m*3 5.12 C 38.6 km/h
1863 09-01-2015 12:25:00 9.3 C 7.73 g/m*3 5.03 C 40.2 km/h
1864 09-01-2015 12:30:00 9.3 C 7.73 g/m*3 5.98 C 25.7 km/h
1865 09-01-2015 12:35:00 9.4 C 7.78 g/m*3 5.86 C 29 km/h
1866 09-01-2015 12:40:00 9.4 C 7.78 g/m*3 6.38 C 22.5 km/h
1867 09-01-2015 12:45:00 9.4 C 7.78 g/m*3 6.38 C 22.5 km/h
1868 09-01-2015 12:50:00 9.4 C 7.78 g/m*3 6.25 C 24.1 km/h
1869 09-01-2015 12:55:00 9.4 C 7.78 g/m*3 5.98 C 27.4 km/h
1870 09-01-2015 13:00:00 9.5 C 7.83 g/m*3 5.57 C 35.4 km/h
1871 09-01-2015 13:05:00 9.6 C 7.97 g/m*3 6.5 C 24.1 km/h
1872 09-01-2015 13:10:00 9.6 C 7.97 g/m*3 5.8 C 33.8 km/h
1873 09-01-2015 13:15:00 9.6 C 7.97 g/m*3 6.5 C 24.1 km/h
1874 09-01-2015 13:20:00 9.7 C 7.93 g/m*3 5.93 C 33.8 km/h
1875 09-01-2015 13:25:00 9.7 C 8.02 g/m*3 5.93 C 33.8 km/h
Sensor: Nr:Datum:Temp:Abs-Feuchte:Windchill:Wind:
Aussen-T/F 1876 09-01-2015 13:30:00 9.7 C 8.02 g/m*3 6.25 C 29 km/h
1877 09-01-2015 13:35:00 9.7 C 8.02 g/m*3 6.77 C 22.5 km/h
1878 09-01-2015 13:40:00 9.8 C 8.07 g/m*3 6.89 C 22.5 km/h
1879 09-01-2015 13:45:00 9.8 C 8.07 g/m*3 6.38 C 29 km/h
1880 09-01-2015 13:50:00 9.8 C 8.07 g/m*3 6.5 C 27.4 km/h
1881 09-01-2015 13:55:00 9.9 C 8.12 g/m*3 6.89 C 24.1 km/h
1882 09-01-2015 14:00:00 9.9 C 8.12 g/m*3 7.16 C 20.9 km/h
1883 09-01-2015 14:05:00 10.1 C 8.23 g/m*3 6.77 C 29 km/h
1884 09-01-2015 14:10:00 10.1 C 8.23 g/m*3 7.28 C 22.5 km/h
1885 09-01-2015 14:15:00 10.2 C 8.28 g/m*3 7.4 C 22.5 km/h
1886 09-01-2015 14:20:00 10.2 C 8.28 g/m*3 6.8 C 30.6 km/h
1887 09-01-2015 14:25:00 10.3 C 8.33 g/m*3 6.93 C 30.6 km/h
1888 09-01-2015 14:30:00 10.3 C 8.33 g/m*3 7.98 C 17.7 km/h
1889 09-01-2015 14:35:00 10.4 C 8.38 g/m*3 7.53 C 24.1 km/h
1890 09-01-2015 14:40:00 10.5 C 8.44 g/m*3 6.99 C 33.8 km/h
1891 09-01-2015 14:45:00 10.6 C 8.49 g/m*3 8.05 C 20.9 km/h
1892 09-01-2015 14:50:00 10.6 C 8.49 g/m*3 7.54 C 27.4 km/h
1893 09-01-2015 14:55:00 10.8 C 8.5 g/m*3 8.17 C 22.5 km/h
1894 09-01-2015 15:00:00 10.8 C 8.5 g/m*3 8.04 C 24.1 km/h
1895 09-01-2015 15:05:00 10.9 C 8.55 g/m*3 8.43 C 20.9 km/h
1896 09-01-2015 15:10:00 11.1 C 8.66 g/m*3 11.1 C 27.4 km/h
1897 09-01-2015 15:15:00 11.2 C 8.62 g/m*3 11.2 C 27.4 km/h
1898 09-01-2015 15:20:00 11.2 C 8.62 g/m*3 11.2 C 24.1 km/h
1899 09-01-2015 15:25:00 11.3 C 8.67 g/m*3 11.3 C 25.7 km/h
1900 09-01-2015 15:30:00 11.3 C 8.67 g/m*3 11.3 C 16.1 km/h
Sensor: Nr:Datum:Temp:Abs-Feuchte:Windchill:Wind:
Aussen-T/F 1901 09-01-2015 15:35:00 11.3 C 8.67 g/m*3 11.3 C 37 km/h
1902 09-01-2015 15:40:00 11.3 C 8.57 g/m*3 11.3 C 19.3 km/h
1903 09-01-2015 15:45:00 11.4 C 8.62 g/m*3 11.4 C 25.7 km/h
1904 09-01-2015 15:50:00 11.4 C 8.62 g/m*3 11.4 C 20.9 km/h
1905 09-01-2015 15:55:00 11.5 C 8.68 g/m*3 11.5 C 27.4 km/h
1906 09-01-2015 16:00:00 11.5 C 8.68 g/m*3 11.5 C 27.4 km/h
1907 09-01-2015 16:05:00 11.6 C 8.63 g/m*3 11.6 C 32.2 km/h
1908 09-01-2015 16:10:00 11.6 C 8.63 g/m*3 11.6 C 27.4 km/h
1909 09-01-2015 16:15:00 11.6 C 8.63 g/m*3 11.6 C 22.5 km/h
1910 09-01-2015 16:20:00 11.6 C 8.63 g/m*3 11.6 C 24.1 km/h
1911 09-01-2015 16:25:00 11.6 C 8.63 g/m*3 11.6 C 29 km/h
1912 09-01-2015 16:30:00 11.7 C 8.68 g/m*3 11.7 C 22.5 km/h
1913 09-01-2015 16:35:00 11.7 C 8.68 g/m*3 11.7 C 16.1 km/h
1914 09-01-2015 16:40:00 11.7 C 8.58 g/m*3 11.7 C 14.5 km/h
1915 09-01-2015 16:45:00 11.7 C 8.58 g/m*3 11.7 C 20.9 km/h
1916 09-01-2015 16:50:00 11.7 C 8.58 g/m*3 11.7 C 20.9 km/h
1917 09-01-2015 16:55:00 11.7 C 8.58 g/m*3 11.7 C 22.5 km/h
1918 09-01-2015 17:00:00 11.7 C 8.58 g/m*3 11.7 C 27.4 km/h
1919 09-01-2015 17:05:00 11.8 C 8.53 g/m*3 11.8 C 19.3 km/h
1920 09-01-2015 17:10:00 11.8 C 8.63 g/m*3 11.8 C 12.9 km/h
1921 09-01-2015 17:15:00 11.8 C 8.63 g/m*3 11.8 C 20.9 km/h
1922 09-01-2015 17:20:00 11.7 C 8.58 g/m*3 11.7 C 12.9 km/h
1923 09-01-2015 17:25:00 11.7 C 8.58 g/m*3 11.7 C 16.1 km/h
1924 09-01-2015 17:30:00 11.7 C 8.58 g/m*3 11.7 C 16.1 km/h
1925 09-01-2015 17:35:00 11.7 C 8.58 g/m*3 11.7 C 20.9 km/h
Sensor: Nr:Datum:Temp:Abs-Feuchte:Windchill:Wind:
Aussen-T/F 1926 09-01-2015 17:40:00 11.7 C 8.58 g/m*3 11.7 C 16.1 km/h
1927 09-01-2015 17:45:00 11.7 C 8.58 g/m*3 11.7 C 17.7 km/h
1928 09-01-2015 17:50:00 11.7 C 8.47 g/m*3 11.7 C 17.7 km/h
1929 09-01-2015 17:55:00 11.7 C 8.47 g/m*3 11.7 C 17.7 km/h
1930 09-01-2015 18:00:00 11.7 C 8.47 g/m*3 11.7 C 11.3 km/h
1931 09-01-2015 18:05:00 11.7 C 8.37 g/m*3 11.7 C 14.5 km/h
1932 09-01-2015 18:10:00 11.8 C 8.31 g/m*3 11.8 C 17.7 km/h
1933 09-01-2015 18:15:00 11.8 C 8.31 g/m*3 11.8 C 20.9 km/h
1934 09-01-2015 18:20:00 11.8 C 8.31 g/m*3 11.8 C 9.7 km/h
1935 09-01-2015 18:25:00 11.8 C 8.21 g/m*3 11.8 C 14.5 km/h
1936 09-01-2015 18:30:00 11.8 C 8.1 g/m*3 11.8 C 16.1 km/h
1937 09-01-2015 18:35:00 11.7 C 7.84 g/m*3 11.7 C 14.5 km/h
1938 09-01-2015 18:40:00 11.4 C 7.8 g/m*3 11.4 C 17.7 km/h
1939 09-01-2015 18:45:00 11.3 C 7.96 g/m*3 11.3 C 19.3 km/h
1940 09-01-2015 18:50:00 11.1 C 7.86 g/m*3 11.1 C 9.7 km/h
1941 09-01-2015 18:55:00 11.1 C 8.26 g/m*3 11.1 C 6.4 km/h
1942 09-01-2015 19:00:00 10.7 C 8.05 g/m*3 10.7 C 4.8 km/h
1943 09-01-2015 19:05:00 10.7 C 8.05 g/m*3 10.7 C 4.8 km/h
1944 09-01-2015 19:10:00 10.7 C 8.05 g/m*3 10.18 C 6.4 km/h
1945 09-01-2015 21:15:00 10 C 9.02 g/m*3 8.19 C 12.9 km/h
1946 09-01-2015 21:20:00 10.2 C 9.14 g/m*3 7.86 C 17.7 km/h
1947 09-01-2015 21:25:00 10.3 C 9.1 g/m*3 7.82 C 19.3 km/h
1948 09-01-2015 21:30:00 10.5 C 9.21 g/m*3 8.8 C 12.9 km/h
1949 09-01-2015 21:35:00 10.6 C 9.27 g/m*3 8.53 C 16.1 km/h
1950 09-01-2015 21:40:00 10.7 C 9.33 g/m*3 8.84 C 14.5 km/h
Sensor: Nr:Datum:Temp:Abs-Feuchte:Windchill:Wind:
Aussen-T/F 1951 09-01-2015 21:45:00 10.9 C 9.35 g/m*3 9.08 C 14.5 km/h
1952 09-01-2015 21:50:00 10.9 C 9.35 g/m*3 9.08 C 14.5 km/h
1953 09-01-2015 21:55:00 11 C 9.41 g/m*3 8.7 C 19.3 km/h
1954 09-01-2015 22:00:00 11.1 C 9.47 g/m*3 11.1 C 12.9 km/h
1955 09-01-2015 22:05:00 11.2 C 9.53 g/m*3 11.2 C 22.5 km/h
1956 09-01-2015 22:10:00 11.3 C 9.59 g/m*3 11.3 C 16.1 km/h
1957 09-01-2015 22:15:00 11.5 C 9.61 g/m*3 11.5 C 20.9 km/h
1958 09-01-2015 22:20:00 11.7 C 9.73 g/m*3 11.7 C 17.7 km/h
1959 09-01-2015 22:25:00 11.7 C 9.73 g/m*3 11.7 C 16.1 km/h
1960 09-01-2015 22:30:00 11.7 C 9.73 g/m*3 11.7 C 19.3 km/h
1961 09-01-2015 22:35:00 11.8 C 9.79 g/m*3 11.8 C 16.1 km/h
1962 09-01-2015 22:40:00 11.8 C 9.79 g/m*3 11.8 C 19.3 km/h
1963 09-01-2015 22:45:00 11.8 C 9.79 g/m*3 11.8 C 14.5 km/h
1964 09-01-2015 22:50:00 11.9 C 9.85 g/m*3 11.9 C 25.7 km/h
1965 09-01-2015 22:55:00 11.9 C 9.85 g/m*3 11.9 C 20.9 km/h
1966 09-01-2015 23:00:00 12 C 9.91 g/m*3 12 C 24.1 km/h
1967 09-01-2015 23:05:00 12.1 C 9.97 g/m*3 12.1 C 25.7 km/h
1968 09-01-2015 23:10:00 12.2 C 9.93 g/m*3 12.2 C 17.7 km/h
1969 09-01-2015 23:15:00 12.3 C 9.99 g/m*3 12.3 C 25.7 km/h
1970 09-01-2015 23:20:00 12.4 C 9.94 g/m*3 12.4 C 29 km/h
1971 09-01-2015 23:25:00 12.6 C 10.07 g/m*3 12.6 C 16.1 km/h
1972 09-01-2015 23:30:00 12.6 C 10.07 g/m*3 12.6 C 17.7 km/h
1973 09-01-2015 23:35:00 12.8 C 10.08 g/m*3 12.8 C 33.8 km/h
1974 09-01-2015 23:40:00 12.9 C 10.14 g/m*3 12.9 C 25.7 km/h
1975 09-01-2015 23:45:00 12.9 C 10.14 g/m*3 12.9 C 27.4 km/h
Sensor: Nr:Datum:Temp:Abs-Feuchte:Windchill:Wind:
Aussen-T/F 1976 09-01-2015 23:50:00 13 C 10.21 g/m*3 13 C 29 km/h
1977 09-01-2015 23:55:00 13.1 C 10.27 g/m*3 13.1 C 38.6 km/h
1978 10-01-2015 00:00:00 13 C 10.21 g/m*3 13 C 22.5 km/h
1979 10-01-2015 00:05:00 13 C 10.21 g/m*3 13 C 22.5 km/h
1980 10-01-2015 00:10:00 12.9 C 10.26 g/m*3 12.9 C 20.9 km/h
1981 10-01-2015 00:15:00 12.9 C 10.26 g/m*3 12.9 C 25.7 km/h
1982 10-01-2015 00:20:00 12.9 C 10.26 g/m*3 12.9 C 25.7 km/h
1983 10-01-2015 00:25:00 12.9 C 10.26 g/m*3 12.9 C 20.9 km/h
1984 10-01-2015 00:30:00 12.9 C 10.26 g/m*3 12.9 C 19.3 km/h
1985 10-01-2015 00:35:00 12.9 C 10.26 g/m*3 12.9 C 25.7 km/h
1986 10-01-2015 00:40:00 12.9 C 10.26 g/m*3 12.9 C 20.9 km/h
1987 10-01-2015 00:45:00 12.9 C 10.26 g/m*3 12.9 C 11.3 km/h
1988 10-01-2015 00:50:00 12.9 C 10.26 g/m*3 12.9 C 12.9 km/h
1989 10-01-2015 00:55:00 12.9 C 10.26 g/m*3 12.9 C 14.5 km/h
1990 10-01-2015 01:00:00 13.2 C 10.33 g/m*3 13.2 C 16.1 km/h
1991 10-01-2015 01:05:00 13.2 C 10.33 g/m*3 13.2 C 14.5 km/h
1992 10-01-2015 01:10:00 13.3 C 10.4 g/m*3 13.3 C 17.7 km/h
1993 10-01-2015 01:15:00 13.3 C 10.4 g/m*3 13.3 C 17.7 km/h
1994 10-01-2015 01:20:00 13.3 C 10.4 g/m*3 13.3 C 20.9 km/h
1995 10-01-2015 01:25:00 13.4 C 10.46 g/m*3 13.4 C 19.3 km/h
1996 10-01-2015 01:30:00 13.4 C 10.46 g/m*3 13.4 C 14.5 km/h
1997 10-01-2015 02:40:00 14 C 12.06 g/m*3 14 C 17.7 km/h
1998 10-01-2015 02:45:00 14 C 12.06 g/m*3 14 C 8.1 km/h
1999 10-01-2015 04:15:00 15.2 C 10.9 g/m*3 15.2 C 16.1 km/h
2000 10-01-2015 04:20:00 15.2 C 10.9 g/m*3 15.2 C 17.7 km/h
Sensor: Nr:Datum:Temp:Abs-Feuchte:Windchill:Wind:
Aussen-T/F 2001 10-01-2015 04:25:00 15.2 C 10.9 g/m*3 15.2 C 19.3 km/h
2002 10-01-2015 04:30:00 15.3 C 10.97 g/m*3 15.3 C 16.1 km/h
2003 10-01-2015 04:35:00 15.3 C 10.97 g/m*3 15.3 C 20.9 km/h
2004 10-01-2015 04:40:00 15.3 C 10.97 g/m*3 15.3 C 22.5 km/h
2005 10-01-2015 04:45:00 15.3 C 10.97 g/m*3 15.3 C 17.7 km/h
2006 10-01-2015 04:50:00 15.3 C 10.71 g/m*3 15.3 C 22.5 km/h
2007 10-01-2015 04:55:00 15.4 C 10.77 g/m*3 15.4 C 14.5 km/h
2008 10-01-2015 05:00:00 15.4 C 10.77 g/m*3 15.4 C 29 km/h
2009 10-01-2015 05:05:00 15.4 C 10.77 g/m*3 15.4 C 22.5 km/h
2010 10-01-2015 05:10:00 15.4 C 10.77 g/m*3 15.4 C 14.5 km/h
2011 10-01-2015 05:15:00 15.3 C 10.84 g/m*3 15.3 C 20.9 km/h
2012 10-01-2015 05:20:00 15.3 C 10.84 g/m*3 15.3 C 22.5 km/h
2013 10-01-2015 05:25:00 15.3 C 10.84 g/m*3 15.3 C 17.7 km/h
2014 10-01-2015 05:30:00 15.3 C 10.84 g/m*3 15.3 C 22.5 km/h
2015 10-01-2015 05:35:00 15.3 C 10.97 g/m*3 15.3 C 22.5 km/h
2016 10-01-2015 05:40:00 15.2 C 10.9 g/m*3 15.2 C 24.1 km/h
2017 10-01-2015 05:45:00 15.1 C 10.97 g/m*3 15.1 C 32.2 km/h
2018 10-01-2015 05:50:00 15 C 11.03 g/m*3 15 C 20.9 km/h
2019 10-01-2015 05:55:00 14.9 C 10.96 g/m*3 14.9 C 14.5 km/h
2020 10-01-2015 06:00:00 14.8 C 11.02 g/m*3 14.8 C 27.4 km/h
2021 10-01-2015 06:05:00 14.8 C 11.02 g/m*3 14.8 C 14.5 km/h
2022 10-01-2015 06:35:00 14.7 C 12.59 g/m*3 14.7 C 22.5 km/h
2023 10-01-2015 06:40:00 14.7 C 10.95 g/m*3 14.7 C 25.7 km/h
2024 10-01-2015 06:45:00 14.8 C 11.02 g/m*3 14.8 C 24.1 km/h
2025 10-01-2015 06:50:00 14.8 C 10.89 g/m*3 14.8 C 22.5 km/h
Sensor: Nr:Datum:Temp:Abs-Feuchte:Windchill:Wind:
Aussen-T/F 2026 10-01-2015 06:55:00 14.9 C 10.83 g/m*3 14.9 C 30.6 km/h
2027 10-01-2015 07:00:00 15 C 10.64 g/m*3 15 C 30.6 km/h
2028 10-01-2015 07:05:00 15.1 C 10.45 g/m*3 15.1 C 32.2 km/h
2029 10-01-2015 07:10:00 15.1 C 10.32 g/m*3 15.1 C 32.2 km/h
2030 10-01-2015 07:15:00 15.1 C 10.32 g/m*3 15.1 C 17.7 km/h
2031 10-01-2015 07:20:00 15.1 C 10.32 g/m*3 15.1 C 19.3 km/h
2032 10-01-2015 07:25:00 14.7 C 10.45 g/m*3 14.7 C 12.9 km/h
2033 10-01-2015 07:30:00 14.7 C 10.45 g/m*3 14.7 C 20.9 km/h
2034 10-01-2015 07:35:00 14.7 C 10.58 g/m*3 14.7 C 16.1 km/h
2035 10-01-2015 07:40:00 14.6 C 10.51 g/m*3 14.6 C 22.5 km/h
2036 10-01-2015 07:45:00 14.6 C 10.51 g/m*3 14.6 C 20.9 km/h
2037 10-01-2015 07:50:00 14.6 C 10.39 g/m*3 14.6 C 16.1 km/h
2038 10-01-2015 07:55:00 14.6 C 10.39 g/m*3 14.6 C 22.5 km/h
2039 10-01-2015 08:00:00 14.6 C 10.39 g/m*3 14.6 C 19.3 km/h
2040 10-01-2015 08:05:00 14.6 C 10.39 g/m*3 14.6 C 20.9 km/h
2041 10-01-2015 08:10:00 14.5 C 10.2 g/m*3 14.5 C 22.5 km/h
2042 10-01-2015 08:15:00 14.4 C 10.26 g/m*3 14.4 C 19.3 km/h
2043 10-01-2015 08:20:00 14.5 C 10.2 g/m*3 14.5 C 30.6 km/h
2044 10-01-2015 08:25:00 14.4 C 10.14 g/m*3 14.4 C 19.3 km/h
2045 10-01-2015 08:30:00 14.4 C 10.14 g/m*3 14.4 C 22.5 km/h
2046 10-01-2015 08:35:00 14.5 C 10.2 g/m*3 14.5 C 33.8 km/h
2047 10-01-2015 08:40:00 14.5 C 10.07 g/m*3 14.5 C 27.4 km/h
2048 10-01-2015 08:45:00 14.5 C 10.07 g/m*3 14.5 C 22.5 km/h
2049 10-01-2015 08:50:00 14.4 C 10.01 g/m*3 14.4 C 22.5 km/h
2050 10-01-2015 08:55:00 14.5 C 10.07 g/m*3 14.5 C 24.1 km/h
Sensor: Nr:Datum:Temp:Abs-Feuchte:Windchill:Wind:
Aussen-T/F 2051 10-01-2015 09:00:00 14.5 C 10.07 g/m*3 14.5 C 16.1 km/h
2052 10-01-2015 09:05:00 14.6 C 10.14 g/m*3 14.6 C 29 km/h
2053 10-01-2015 09:10:00 14.7 C 10.07 g/m*3 14.7 C 24.1 km/h
2054 10-01-2015 09:15:00 14.7 C 10.07 g/m*3 14.7 C 27.4 km/h
2055 10-01-2015 09:20:00 14.7 C 9.95 g/m*3 14.7 C 33.8 km/h
2056 10-01-2015 09:25:00 14.7 C 9.95 g/m*3 14.7 C 33.8 km/h
2057 10-01-2015 09:30:00 14.7 C 9.95 g/m*3 14.7 C 24.1 km/h
2058 10-01-2015 09:35:00 14.7 C 9.95 g/m*3 14.7 C 32.2 km/h
2059 10-01-2015 09:40:00 14.7 C 9.95 g/m*3 14.7 C 24.1 km/h
2060 10-01-2015 09:45:00 14.7 C 9.95 g/m*3 14.7 C 19.3 km/h
2061 10-01-2015 09:50:00 14.7 C 9.95 g/m*3 14.7 C 32.2 km/h
2062 10-01-2015 09:55:00 14.7 C 9.95 g/m*3 14.7 C 25.7 km/h
2063 10-01-2015 10:00:00 14.7 C 9.82 g/m*3 14.7 C 19.3 km/h
2064 10-01-2015 10:05:00 14.7 C 9.82 g/m*3 14.7 C 27.4 km/h
2065 10-01-2015 10:10:00 14.7 C 9.82 g/m*3 14.7 C 20.9 km/h
2066 10-01-2015 10:15:00 14.6 C 9.76 g/m*3 14.6 C 20.9 km/h
2067 10-01-2015 10:20:00 14.6 C 9.76 g/m*3 14.6 C 17.7 km/h
2068 10-01-2015 10:25:00 14.6 C 9.76 g/m*3 14.6 C 20.9 km/h
2069 10-01-2015 10:30:00 14.6 C 9.76 g/m*3 14.6 C 22.5 km/h
2070 10-01-2015 10:35:00 14.6 C 9.76 g/m*3 14.6 C 22.5 km/h
2071 10-01-2015 10:40:00 14.6 C 9.76 g/m*3 14.6 C 24.1 km/h
2072 10-01-2015 10:45:00 14.4 C 9.64 g/m*3 14.4 C 22.5 km/h
2073 10-01-2015 10:50:00 14.4 C 9.52 g/m*3 14.4 C 20.9 km/h
2074 10-01-2015 10:55:00 14.5 C 9.58 g/m*3 14.5 C 25.7 km/h
2075 10-01-2015 11:00:00 14.4 C 9.52 g/m*3 14.4 C 24.1 km/h
Sensor: Nr:Datum:Temp:Abs-Feuchte:Windchill:Wind:
Aussen-T/F 2076 10-01-2015 11:05:00 14.4 C 9.52 g/m*3 14.4 C 19.3 km/h
2077 10-01-2015 11:10:00 14.4 C 9.52 g/m*3 14.4 C 22.5 km/h
2078 10-01-2015 11:15:00 14.3 C 9.46 g/m*3 14.3 C 17.7 km/h
2079 10-01-2015 11:20:00 14.3 C 9.46 g/m*3 14.3 C 20.9 km/h
2080 10-01-2015 11:25:00 14.3 C 9.46 g/m*3 14.3 C 17.7 km/h
2081 10-01-2015 11:30:00 14.2 C 9.52 g/m*3 14.2 C 17.7 km/h
2082 10-01-2015 11:35:00 14.2 C 9.52 g/m*3 14.2 C 11.3 km/h
2083 10-01-2015 11:40:00 14.2 C 9.52 g/m*3 14.2 C 17.7 km/h
2084 10-01-2015 11:45:00 14.2 C 9.52 g/m*3 14.2 C 24.1 km/h
2085 10-01-2015 11:50:00 14.2 C 9.52 g/m*3 14.2 C 17.7 km/h
2086 10-01-2015 11:55:00 14.2 C 9.52 g/m*3 14.2 C 14.5 km/h
2087 10-01-2015 12:00:00 14.2 C 9.52 g/m*3 14.2 C 12.9 km/h
2088 10-01-2015 12:05:00 14.2 C 9.52 g/m*3 14.2 C 19.3 km/h
2089 10-01-2015 12:10:00 14.2 C 9.52 g/m*3 14.2 C 19.3 km/h
2090 10-01-2015 12:15:00 14.2 C 9.52 g/m*3 14.2 C 22.5 km/h
2091 10-01-2015 12:20:00 14.3 C 9.46 g/m*3 14.3 C 29 km/h
2092 10-01-2015 12:25:00 14.3 C 9.46 g/m*3 14.3 C 19.3 km/h
2093 10-01-2015 12:30:00 14.4 C 9.52 g/m*3 14.4 C 22.5 km/h
2094 10-01-2015 12:35:00 14.4 C 9.39 g/m*3 14.4 C 29 km/h
2095 10-01-2015 12:40:00 14.4 C 9.39 g/m*3 14.4 C 20.9 km/h
2096 10-01-2015 12:45:00 14.4 C 9.39 g/m*3 14.4 C 22.5 km/h
2097 10-01-2015 12:50:00 14.4 C 9.39 g/m*3 14.4 C 19.3 km/h
2098 10-01-2015 12:55:00 14.2 C 9.4 g/m*3 14.2 C 14.5 km/h
2099 10-01-2015 13:00:00 14.2 C 9.52 g/m*3 14.2 C 16.1 km/h
2100 10-01-2015 13:05:00 14.1 C 9.47 g/m*3 14.1 C 19.3 km/h
Sensor: Nr:Datum:Temp:Abs-Feuchte:Windchill:Wind:
Aussen-T/F 2101 10-01-2015 13:10:00 14 C 9.41 g/m*3 14 C 20.9 km/h
2102 10-01-2015 13:15:00 14 C 9.41 g/m*3 14 C 20.9 km/h
2103 10-01-2015 13:20:00 13.9 C 9.35 g/m*3 13.9 C 20.9 km/h
2104 10-01-2015 13:25:00 13.9 C 9.35 g/m*3 13.9 C 14.5 km/h
2105 10-01-2015 13:30:00 13.9 C 9.35 g/m*3 13.9 C 17.7 km/h
2106 10-01-2015 13:35:00 13.9 C 9.35 g/m*3 13.9 C 16.1 km/h
2107 10-01-2015 13:40:00 13.9 C 9.35 g/m*3 13.9 C 16.1 km/h
2108 10-01-2015 13:45:00 13.9 C 9.35 g/m*3 13.9 C 11.3 km/h
2109 10-01-2015 13:50:00 13.9 C 9.23 g/m*3 13.9 C 22.5 km/h
2110 10-01-2015 13:55:00 14 C 9.29 g/m*3 14 C 20.9 km/h
2111 10-01-2015 14:00:00 14.1 C 9.34 g/m*3 14.1 C 25.7 km/h
2112 10-01-2015 14:05:00 14.1 C 9.34 g/m*3 14.1 C 30.6 km/h
2113 10-01-2015 14:10:00 14 C 9.29 g/m*3 14 C 22.5 km/h
2114 10-01-2015 14:15:00 14 C 9.29 g/m*3 14 C 17.7 km/h
2115 10-01-2015 14:20:00 14 C 9.29 g/m*3 14 C 17.7 km/h
2116 10-01-2015 14:25:00 13.9 C 9.23 g/m*3 13.9 C 12.9 km/h
2117 10-01-2015 14:30:00 13.9 C 9.23 g/m*3 13.9 C 17.7 km/h
2118 10-01-2015 14:35:00 13.9 C 9.35 g/m*3 13.9 C 12.9 km/h
2119 10-01-2015 14:40:00 13.8 C 9.41 g/m*3 13.8 C 14.5 km/h
2120 10-01-2015 14:45:00 13.7 C 9.35 g/m*3 13.7 C 20.9 km/h
2121 10-01-2015 14:50:00 13.7 C 9.35 g/m*3 13.7 C 16.1 km/h
2122 10-01-2015 14:55:00 13.7 C 9.47 g/m*3 13.7 C 11.3 km/h
2123 10-01-2015 15:00:00 13.6 C 9.42 g/m*3 13.6 C 11.3 km/h
2124 10-01-2015 15:05:00 13.6 C 9.42 g/m*3 13.6 C 16.1 km/h
2125 10-01-2015 15:10:00 13.6 C 9.42 g/m*3 13.6 C 19.3 km/h
Sensor: Nr:Datum:Temp:Abs-Feuchte:Windchill:Wind:
Aussen-T/F 2126 10-01-2015 15:15:00 13.6 C 9.42 g/m*3 13.6 C 16.1 km/h
2127 10-01-2015 15:55:00 13.2 C 9.53 g/m*3 13.2 C 14.5 km/h
2128 10-01-2015 16:00:00 13.2 C 9.53 g/m*3 13.2 C 17.7 km/h
2129 10-01-2015 16:05:00 13.1 C 9.47 g/m*3 13.1 C 14.5 km/h
2130 10-01-2015 16:10:00 13.1 C 9.59 g/m*3 13.1 C 16.1 km/h
2131 10-01-2015 16:15:00 13 C 9.53 g/m*3 13 C 17.7 km/h
2132 10-01-2015 16:20:00 12.9 C 9.58 g/m*3 12.9 C 19.3 km/h
2133 10-01-2015 16:25:00 12.9 C 9.58 g/m*3 12.9 C 17.7 km/h
2134 10-01-2015 16:30:00 12.9 C 9.58 g/m*3 12.9 C 16.1 km/h
2135 10-01-2015 16:35:00 12.8 C 9.52 g/m*3 12.8 C 17.7 km/h
2136 10-01-2015 16:40:00 12.7 C 9.46 g/m*3 12.7 C 11.3 km/h
2137 10-01-2015 16:45:00 12.7 C 9.68 g/m*3 12.7 C 17.7 km/h
2138 10-01-2015 16:50:00 12.6 C 9.62 g/m*3 12.6 C 22.5 km/h
2139 10-01-2015 16:55:00 12.6 C 9.62 g/m*3 12.6 C 14.5 km/h
2140 10-01-2015 17:00:00 12.4 C 9.62 g/m*3 12.4 C 20.9 km/h
2141 10-01-2015 17:05:00 12.3 C 9.66 g/m*3 12.3 C 14.5 km/h
2142 10-01-2015 17:10:00 12.3 C 9.66 g/m*3 12.3 C 12.9 km/h
2143 10-01-2015 17:15:00 12.1 C 9.54 g/m*3 12.1 C 14.5 km/h
2144 10-01-2015 17:20:00 12 C 9.7 g/m*3 12 C 16.1 km/h
2145 10-01-2015 17:25:00 11.9 C 9.74 g/m*3 11.9 C 12.9 km/h
2146 10-01-2015 17:30:00 11.8 C 9.58 g/m*3 11.8 C 20.9 km/h
2147 10-01-2015 17:35:00 11.9 C 9.64 g/m*3 11.9 C 12.9 km/h
2148 10-01-2015 17:40:00 12 C 9.59 g/m*3 12 C 14.5 km/h
2149 10-01-2015 17:45:00 12.1 C 9.65 g/m*3 12.1 C 16.1 km/h
2150 10-01-2015 17:50:00 12.1 C 9.65 g/m*3 12.1 C 9.7 km/h
Sensor: Nr:Datum:Temp:Abs-Feuchte:Windchill:Wind:
Aussen-T/F 2151 10-01-2015 17:55:00 12.2 C 9.5 g/m*3 12.2 C 20.9 km/h
2152 10-01-2015 18:00:00 12.6 C 9.29 g/m*3 12.6 C 20.9 km/h
2153 10-01-2015 18:05:00 11.8 C 8.42 g/m*3 11.8 C 33.8 km/h
2154 10-01-2015 18:10:00 10.9 C 8.16 g/m*3 8.58 C 19.3 km/h
2155 10-01-2015 18:15:00 10.4 C 8.19 g/m*3 7.8 C 20.9 km/h
2156 10-01-2015 18:20:00 9.9 C 8.03 g/m*3 6.4 C 30.6 km/h
2157 10-01-2015 18:25:00 9.6 C 8.06 g/m*3 7.11 C 17.7 km/h
2158 10-01-2015 18:30:00 9.6 C 7.97 g/m*3 6.5 C 24.1 km/h
2159 10-01-2015 18:35:00 9.6 C 7.97 g/m*3 7.11 C 17.7 km/h
2160 10-01-2015 18:40:00 9.1 C 7.45 g/m*3 6 C 22.5 km/h
2161 10-01-2015 18:45:00 8.9 C 7.27 g/m*3 5.33 C 27.4 km/h
2162 10-01-2015 18:50:00 8.8 C 7.31 g/m*3 5.08 C 29 km/h
2163 10-01-2015 18:55:00 8.8 C 7.31 g/m*3 6.3 C 16.1 km/h
2164 10-01-2015 19:00:00 8.7 C 7.26 g/m*3 5.98 C 17.7 km/h
2165 10-01-2015 19:05:00 8.7 C 7.26 g/m*3 6.17 C 16.1 km/h
2166 10-01-2015 19:10:00 8.7 C 7.26 g/m*3 5.81 C 19.3 km/h
2167 10-01-2015 19:15:00 8.7 C 7.09 g/m*3 5.98 C 17.7 km/h
2168 10-01-2015 19:20:00 8.7 C 7.01 g/m*3 5.49 C 22.5 km/h
2169 10-01-2015 19:25:00 8.7 C 7.01 g/m*3 6.17 C 16.1 km/h
2170 10-01-2015 20:05:00 8.8 C 8.7 g/m*3 5.62 C 22.5 km/h
2171 10-01-2015 20:10:00 8.8 C 8.7 g/m*3 6.11 C 17.7 km/h
2172 10-01-2015 20:15:00 8.8 C 8.7 g/m*3 6.97 C 11.3 km/h
2173 11-01-2015 01:45:00 5.1 C 6.84 g/m*3 3.71 C 6.4 km/h
2174 11-01-2015 01:50:00 5.1 C 5.27 g/m*3 3.71 C 6.4 km/h
2175 11-01-2015 01:55:00 5 C 5.23 g/m*3 2.72 C 9.7 km/h
Sensor: Nr:Datum:Temp:Abs-Feuchte:Windchill:Wind:
Aussen-T/F 2176 11-01-2015 02:00:00 5 C 5.23 g/m*3 3.11 C 8.1 km/h
2177 11-01-2015 02:05:00 5 C 5.23 g/m*3 3.11 C 8.1 km/h
2178 11-01-2015 02:25:00 4.8 C 5.23 g/m*3 4.8 C 4.8 km/h
2179 11-01-2015 02:30:00 4.7 C 5.13 g/m*3 4.7 C 3.2 km/h
2180 11-01-2015 02:35:00 4.5 C 5.13 g/m*3 4.5 C 4.8 km/h
2181 11-01-2015 02:40:00 4.4 C 5.09 g/m*3 4.4 C 4.8 km/h
2182 11-01-2015 02:45:00 4.4 C 5.09 g/m*3 4.4 C 3.2 km/h
2183 11-01-2015 02:50:00 4.4 C 5.09 g/m*3 4.4 C 4.8 km/h
2184 11-01-2015 02:55:00 4.4 C 5.09 g/m*3 4.4 C 4.8 km/h
2185 11-01-2015 03:00:00 4.3 C 5.06 g/m*3 4.3 C 4.8 km/h
2186 11-01-2015 03:05:00 4.2 C 5.03 g/m*3 4.2 C 4.8 km/h
2187 11-01-2015 03:10:00 4.2 C 5.15 g/m*3 4.2 C 4.8 km/h
2188 11-01-2015 03:15:00 3.8 C 5.14 g/m*3 3.8 C 4.8 km/h
2189 11-01-2015 03:20:00 3.9 C 5.18 g/m*3 3.9 C 3.2 km/h
2190 11-01-2015 03:25:00 3.9 C 5.18 g/m*3 3.9 C 4.8 km/h
2191 11-01-2015 05:45:00 3.4 C 6.11 g/m*3 1.23 C 8.1 km/h
2192 11-01-2015 05:50:00 3.4 C 6.11 g/m*3 1.75 C 6.4 km/h
2193 11-01-2015 08:30:00 3.8 C 6.27 g/m*3 0.35 C 14.5 km/h
2194 11-01-2015 08:35:00 3.8 C 4.83 g/m*3 -1.57 C 30.6 km/h
2195 11-01-2015 08:40:00 3.8 C 4.83 g/m*3 -1.57 C 30.6 km/h
2196 11-01-2015 08:45:00 3.8 C 4.83 g/m*3 0.94 C 11.3 km/h
2197 11-01-2015 08:50:00 4.1 C 4.86 g/m*3 0.72 C 14.5 km/h
2198 11-01-2015 08:55:00 4.2 C 4.9 g/m*3 1.43 C 11.3 km/h
2199 11-01-2015 09:00:00 4.2 C 4.9 g/m*3 1.43 C 11.3 km/h
2200 11-01-2015 09:05:00 4.2 C 4.9 g/m*3 1.77 C 9.7 km/h
Sensor: Nr:Datum:Temp:Abs-Feuchte:Windchill:Wind:
Aussen-T/F 2201 11-01-2015 11:15:00 4.9 C 5.47 g/m*3 1.97 C 12.9 km/h
2202 11-01-2015 11:20:00 5 C 5.44 g/m*3 1.15 C 19.3 km/h
2203 11-01-2015 11:25:00 5.1 C 5.4 g/m*3 1.95 C 14.5 km/h
2204 11-01-2015 11:30:00 5.1 C 5.4 g/m*3 1.71 C 16.1 km/h
2205 11-01-2015 11:35:00 5.2 C 5.44 g/m*3 1.83 C 16.1 km/h
2206 11-01-2015 11:40:00 5.2 C 5.44 g/m*3 2.34 C 12.9 km/h
2207 11-01-2015 11:45:00 5.2 C 5.44 g/m*3 1.83 C 16.1 km/h
2208 11-01-2015 11:50:00 5.2 C 5.37 g/m*3 2.07 C 14.5 km/h
2209 11-01-2015 11:55:00 5.2 C 5.37 g/m*3 1.83 C 16.1 km/h
2210 11-01-2015 12:00:00 5.2 C 5.37 g/m*3 2.07 C 14.5 km/h
2211 11-01-2015 12:05:00 5.2 C 5.37 g/m*3 1.4 C 19.3 km/h
2212 11-01-2015 12:10:00 5.2 C 5.37 g/m*3 2.07 C 14.5 km/h
2213 11-01-2015 12:15:00 5.3 C 5.41 g/m*3 1.96 C 16.1 km/h
2214 11-01-2015 12:20:00 5.5 C 5.41 g/m*3 1.59 C 20.9 km/h
2215 11-01-2015 12:25:00 5.6 C 5.23 g/m*3 1.54 C 22.5 km/h
2216 11-01-2015 12:30:00 5.6 C 5.16 g/m*3 2.57 C 14.5 km/h
2217 11-01-2015 12:35:00 5.6 C 5.16 g/m*3 1.91 C 19.3 km/h
2218 11-01-2015 12:40:00 5.6 C 5.16 g/m*3 1.91 C 19.3 km/h
2219 11-01-2015 12:45:00 5.7 C 5.19 g/m*3 2.24 C 17.7 km/h
2220 11-01-2015 12:50:00 5.7 C 5.19 g/m*3 1.35 C 25.7 km/h
2221 11-01-2015 12:55:00 5.8 C 5.16 g/m*3 1.32 C 27.4 km/h
2222 11-01-2015 13:00:00 5.9 C 5.12 g/m*3 2.29 C 19.3 km/h
2223 11-01-2015 13:05:00 6.1 C 5.19 g/m*3 2.18 C 22.5 km/h
2224 11-01-2015 13:10:00 6 C 5.15 g/m*3 1.44 C 29 km/h
2225 11-01-2015 13:15:00 6 C 5.08 g/m*3 2.41 C 19.3 km/h
Sensor: Nr:Datum:Temp:Abs-Feuchte:Windchill:Wind:
Aussen-T/F 2226 11-01-2015 13:20:00 6 C 5.15 g/m*3 2.41 C 19.3 km/h
2227 11-01-2015 13:25:00 6 C 5.08 g/m*3 1.31 C 30.6 km/h
2228 11-01-2015 13:30:00 6.1 C 5.11 g/m*3 2.02 C 24.1 km/h
2229 11-01-2015 13:35:00 6.1 C 5.04 g/m*3 1.86 C 25.7 km/h
2230 11-01-2015 13:40:00 6.1 C 5.04 g/m*3 1.71 C 27.4 km/h
2231 11-01-2015 13:45:00 6.1 C 5.11 g/m*3 2.18 C 22.5 km/h
2232 11-01-2015 13:50:00 6 C 5.08 g/m*3 2.61 C 17.7 km/h
2233 11-01-2015 13:55:00 6 C 5.15 g/m*3 2.41 C 19.3 km/h
2234 11-01-2015 14:00:00 6.1 C 5.19 g/m*3 2.35 C 20.9 km/h
2235 11-01-2015 14:05:00 6.1 C 5.04 g/m*3 2.35 C 20.9 km/h
2236 11-01-2015 14:10:00 6.2 C 5.07 g/m*3 2.48 C 20.9 km/h
2237 11-01-2015 14:15:00 6.2 C 5.07 g/m*3 2.48 C 20.9 km/h
2238 11-01-2015 14:20:00 6.2 C 5.07 g/m*3 1.7 C 29 km/h
2239 11-01-2015 14:25:00 6.2 C 5.15 g/m*3 2.66 C 19.3 km/h
2240 11-01-2015 14:30:00 6.1 C 5.11 g/m*3 2.95 C 16.1 km/h
2241 11-01-2015 14:35:00 6.1 C 5.11 g/m*3 2.73 C 17.7 km/h
2242 11-01-2015 14:40:00 6.1 C 5.11 g/m*3 2.35 C 20.9 km/h
2243 11-01-2015 15:00:00 6.1 C 5.11 g/m*3 2.35 C 20.9 km/h
2244 11-01-2015 15:05:00 6.2 C 5.07 g/m*3 2.66 C 19.3 km/h
2245 11-01-2015 15:10:00 6.2 C 5.15 g/m*3 2.86 C 17.7 km/h
2246 11-01-2015 15:15:00 6.1 C 5.11 g/m*3 1.44 C 30.6 km/h
2247 11-01-2015 15:20:00 6.1 C 5.11 g/m*3 2.54 C 19.3 km/h
2248 11-01-2015 15:25:00 6.1 C 5.04 g/m*3 2.02 C 24.1 km/h
2249 11-01-2015 15:30:00 6.1 C 5.04 g/m*3 1.31 C 32.2 km/h
2250 11-01-2015 15:35:00 6.1 C 5.04 g/m*3 1.31 C 32.2 km/h
Sensor: Nr:Datum:Temp:Abs-Feuchte:Windchill:Wind:
Aussen-T/F 2251 11-01-2015 15:40:00 6 C 5.08 g/m*3 2.23 C 20.9 km/h
2252 11-01-2015 15:45:00 5.9 C 5.12 g/m*3 2.48 C 17.7 km/h
2253 11-01-2015 15:50:00 5.8 C 5.16 g/m*3 2.58 C 16.1 km/h
2254 11-01-2015 15:55:00 5.8 C 5.16 g/m*3 2.36 C 17.7 km/h
2255 11-01-2015 16:00:00 5.8 C 5.16 g/m*3 2.36 C 17.7 km/h
2256 11-01-2015 16:05:00 5.7 C 5.12 g/m*3 2.45 C 16.1 km/h
2257 11-01-2015 16:10:00 5.7 C 5.12 g/m*3 2.45 C 16.1 km/h
2258 11-01-2015 16:15:00 5.7 C 5.05 g/m*3 2.24 C 17.7 km/h
2259 11-01-2015 16:20:00 5.7 C 5.12 g/m*3 2.45 C 16.1 km/h
2260 11-01-2015 16:25:00 5.7 C 5.12 g/m*3 2.45 C 16.1 km/h
2261 11-01-2015 16:30:00 5.7 C 5.12 g/m*3 2.69 C 14.5 km/h
2262 11-01-2015 16:35:00 5.6 C 5.09 g/m*3 3.44 C 9.7 km/h
2263 11-01-2015 16:40:00 5.6 C 5.09 g/m*3 3.11 C 11.3 km/h
2264 11-01-2015 16:45:00 5.6 C 5.09 g/m*3 1.91 C 19.3 km/h
2265 11-01-2015 17:05:00 5.5 C 7.02 g/m*3 2.7 C 12.9 km/h
2266 11-01-2015 17:10:00 5.5 C 7.02 g/m*3 1.78 C 19.3 km/h
2267 11-01-2015 17:15:00 5.5 C 7.02 g/m*3 2.7 C 12.9 km/h
2268 11-01-2015 17:20:00 5.5 C 7.02 g/m*3 2.7 C 12.9 km/h
2269 11-01-2015 17:25:00 5.4 C 6.98 g/m*3 2.32 C 14.5 km/h
2270 11-01-2015 17:30:00 5.5 C 7.02 g/m*3 2.7 C 12.9 km/h
2271 11-01-2015 17:35:00 5.5 C 7.02 g/m*3 2.44 C 14.5 km/h
2272 11-01-2015 18:15:00 5.6 C 7.07 g/m*3 2.33 C 16.1 km/h
2273 11-01-2015 18:20:00 5.6 C 7.07 g/m*3 3.11 C 11.3 km/h
2274 11-01-2015 18:25:00 5.6 C 5.02 g/m*3 3.44 C 9.7 km/h
2275 11-01-2015 18:30:00 5.6 C 5.02 g/m*3 3.11 C 11.3 km/h
Sensor: Nr:Datum:Temp:Abs-Feuchte:Windchill:Wind:
Aussen-T/F 2276 11-01-2015 18:35:00 5.5 C 5.06 g/m*3 4.17 C 6.4 km/h
2277 11-01-2015 18:40:00 5.4 C 5.02 g/m*3 2.58 C 12.9 km/h
2278 11-01-2015 18:45:00 5.5 C 5.06 g/m*3 3.32 C 9.7 km/h
2279 11-01-2015 18:50:00 5.4 C 5.09 g/m*3 3.58 C 8.1 km/h
2280 11-01-2015 18:55:00 5.4 C 5.09 g/m*3 2.87 C 11.3 km/h
2281 11-01-2015 19:00:00 5.5 C 5.13 g/m*3 1.78 C 19.3 km/h
2282 11-01-2015 19:05:00 5.6 C 5.16 g/m*3 3.11 C 11.3 km/h
2283 11-01-2015 19:10:00 5.5 C 5.13 g/m*3 2.99 C 11.3 km/h
2284 11-01-2015 19:15:00 5.5 C 5.13 g/m*3 1.99 C 17.7 km/h
2285 11-01-2015 19:20:00 5.6 C 5.16 g/m*3 3.44 C 9.7 km/h
2286 11-01-2015 19:25:00 5.6 C 5.16 g/m*3 2.57 C 14.5 km/h
2287 11-01-2015 19:30:00 5.6 C 5.16 g/m*3 2.57 C 14.5 km/h
2288 11-01-2015 19:35:00 5.6 C 5.16 g/m*3 3.81 C 8.1 km/h
2289 11-01-2015 19:40:00 5.7 C 5.19 g/m*3 2.69 C 14.5 km/h
2290 11-01-2015 19:45:00 5.7 C 5.19 g/m*3 2.45 C 16.1 km/h
2291 11-01-2015 19:50:00 5.8 C 5.23 g/m*3 1.8 C 22.5 km/h
2292 11-01-2015 19:55:00 5.8 C 5.23 g/m*3 3.07 C 12.9 km/h
2293 11-01-2015 20:00:00 5.8 C 5.23 g/m*3 2.81 C 14.5 km/h
2294 11-01-2015 20:05:00 5.8 C 5.23 g/m*3 3.07 C 12.9 km/h
2295 11-01-2015 20:10:00 5.8 C 5.23 g/m*3 2.81 C 14.5 km/h
2296 11-01-2015 20:15:00 5.8 C 5.23 g/m*3 3.07 C 12.9 km/h
2297 11-01-2015 20:20:00 5.8 C 5.23 g/m*3 3.68 C 9.7 km/h
2298 11-01-2015 20:25:00 5.7 C 5.19 g/m*3 3.23 C 11.3 km/h
2299 11-01-2015 20:30:00 5.7 C 5.19 g/m*3 2.24 C 17.7 km/h
2300 11-01-2015 20:35:00 5.7 C 5.27 g/m*3 3.56 C 9.7 km/h
Sensor: Nr:Datum:Temp:Abs-Feuchte:Windchill:Wind:
Aussen-T/F 2301 11-01-2015 20:40:00 5.7 C 5.27 g/m*3 3.56 C 9.7 km/h
2302 11-01-2015 20:45:00 5.7 C 5.27 g/m*3 3.23 C 11.3 km/h
2303 11-01-2015 20:50:00 5.7 C 5.27 g/m*3 2.69 C 14.5 km/h
2304 11-01-2015 20:55:00 5.8 C 5.3 g/m*3 3.07 C 12.9 km/h
2305 11-01-2015 21:00:00 5.8 C 5.3 g/m*3 3.36 C 11.3 km/h
2306 11-01-2015 21:05:00 5.9 C 5.34 g/m*3 4.17 C 8.1 km/h
2307 11-01-2015 21:10:00 5.9 C 5.34 g/m*3 2.7 C 16.1 km/h
2308 11-01-2015 21:15:00 5.9 C 5.34 g/m*3 3.48 C 11.3 km/h
2309 11-01-2015 21:20:00 5.9 C 5.41 g/m*3 3.19 C 12.9 km/h
2310 11-01-2015 21:25:00 5.9 C 5.48 g/m*3 2.1 C 20.9 km/h
2311 11-01-2015 21:30:00 5.8 C 5.44 g/m*3 3.36 C 11.3 km/h
2312 11-01-2015 21:35:00 5.8 C 5.44 g/m*3 3.07 C 12.9 km/h
2313 11-01-2015 21:40:00 5.8 C 5.44 g/m*3 3.36 C 11.3 km/h
2314 11-01-2015 21:45:00 5.8 C 5.44 g/m*3 2.58 C 16.1 km/h
2315 11-01-2015 21:50:00 5.8 C 5.44 g/m*3 3.07 C 12.9 km/h
2316 11-01-2015 21:55:00 5.8 C 5.44 g/m*3 3.36 C 11.3 km/h
2317 11-01-2015 22:00:00 5.8 C 5.52 g/m*3 3.36 C 11.3 km/h
2318 11-01-2015 22:05:00 5.8 C 5.52 g/m*3 3.68 C 9.7 km/h
2319 11-01-2015 22:10:00 5.8 C 5.52 g/m*3 3.07 C 12.9 km/h
2320 11-01-2015 22:15:00 5.8 C 5.52 g/m*3 3.36 C 11.3 km/h
2321 12-01-2015 00:10:00 5.8 C 5.95 g/m*3 2.16 C 19.3 km/h
2322 12-01-2015 00:15:00 5.8 C 5.95 g/m*3 3.07 C 12.9 km/h
2323 12-01-2015 00:20:00 5.6 C 5.87 g/m*3 2.57 C 14.5 km/h
2324 12-01-2015 00:25:00 5.6 C 5.87 g/m*3 1.54 C 22.5 km/h
2325 12-01-2015 00:30:00 5.6 C 5.94 g/m*3 1.54 C 22.5 km/h
Sensor: Nr:Datum:Temp:Abs-Feuchte:Windchill:Wind:
Aussen-T/F 2326 12-01-2015 00:35:00 5.6 C 5.94 g/m*3 2.83 C 12.9 km/h
2327 12-01-2015 00:40:00 5.6 C 6.01 g/m*3 1.54 C 22.5 km/h
2328 12-01-2015 00:45:00 5.6 C 6.08 g/m*3 1.72 C 20.9 km/h
2329 12-01-2015 00:50:00 5.6 C 6.08 g/m*3 1.38 C 24.1 km/h
2330 12-01-2015 00:55:00 5.6 C 6.08 g/m*3 1.38 C 24.1 km/h
2331 12-01-2015 01:00:00 5.5 C 6.11 g/m*3 2.7 C 12.9 km/h
2332 12-01-2015 01:05:00 5.5 C 6.11 g/m*3 2.7 C 12.9 km/h
2333 12-01-2015 01:10:00 5.4 C 6.07 g/m*3 2.32 C 14.5 km/h
2334 12-01-2015 01:15:00 5.3 C 6.03 g/m*3 1.74 C 17.7 km/h
2335 12-01-2015 01:20:00 5.3 C 6.17 g/m*3 2.46 C 12.9 km/h
2336 12-01-2015 01:25:00 5.3 C 6.17 g/m*3 1.53 C 19.3 km/h
2337 12-01-2015 01:30:00 5.2 C 6.2 g/m*3 1.83 C 16.1 km/h
2338 12-01-2015 01:35:00 5.2 C 6.2 g/m*3 1.83 C 16.1 km/h
2339 12-01-2015 01:40:00 5.1 C 6.16 g/m*3 1.28 C 19.3 km/h
2340 12-01-2015 01:45:00 5.2 C 6.2 g/m*3 1.61 C 17.7 km/h
2341 12-01-2015 01:50:00 5.2 C 6.2 g/m*3 1.83 C 16.1 km/h
2342 12-01-2015 01:55:00 5.2 C 6.2 g/m*3 1.61 C 17.7 km/h
2343 12-01-2015 02:00:00 5.3 C 6.24 g/m*3 1.96 C 16.1 km/h
2344 12-01-2015 02:05:00 5.3 C 6.24 g/m*3 1.74 C 17.7 km/h
2345 12-01-2015 02:10:00 5.3 C 6.17 g/m*3 2.46 C 12.9 km/h
2346 12-01-2015 02:15:00 5.4 C 6.21 g/m*3 1.86 C 17.7 km/h
2347 12-01-2015 02:20:00 5.4 C 6.21 g/m*3 2.32 C 14.5 km/h
2348 12-01-2015 02:25:00 5.4 C 6.21 g/m*3 2.08 C 16.1 km/h
2349 12-01-2015 02:30:00 5.4 C 6.21 g/m*3 2.87 C 11.3 km/h
2350 12-01-2015 02:35:00 5.7 C 6.26 g/m*3 2.95 C 12.9 km/h
Sensor: Nr:Datum:Temp:Abs-Feuchte:Windchill:Wind:
Aussen-T/F 2351 12-01-2015 02:40:00 5.7 C 6.26 g/m*3 2.69 C 14.5 km/h
2352 12-01-2015 02:45:00 5.8 C 6.3 g/m*3 2.81 C 14.5 km/h
2353 12-01-2015 02:50:00 5.8 C 6.3 g/m*3 3.07 C 12.9 km/h
2354 12-01-2015 02:55:00 5.8 C 6.3 g/m*3 2.81 C 14.5 km/h
2355 12-01-2015 03:00:00 5.8 C 6.3 g/m*3 3.36 C 11.3 km/h
2356 12-01-2015 03:05:00 5.8 C 6.3 g/m*3 3.36 C 11.3 km/h
2357 12-01-2015 03:10:00 5.9 C 6.35 g/m*3 3.8 C 9.7 km/h
2358 12-01-2015 03:15:00 5.9 C 6.35 g/m*3 2.48 C 17.7 km/h
2359 12-01-2015 03:20:00 6 C 6.31 g/m*3 3.6 C 11.3 km/h
2360 12-01-2015 03:25:00 6 C 6.31 g/m*3 3.92 C 9.7 km/h
2361 12-01-2015 03:30:00 6.1 C 6.36 g/m*3 2.54 C 19.3 km/h
2362 12-01-2015 03:35:00 6.1 C 6.36 g/m*3 3.43 C 12.9 km/h
2363 12-01-2015 03:40:00 6.1 C 6.36 g/m*3 3.72 C 11.3 km/h
2364 12-01-2015 03:45:00 6.1 C 6.43 g/m*3 3.72 C 11.3 km/h
2365 12-01-2015 03:50:00 6.1 C 6.43 g/m*3 3.72 C 11.3 km/h
2366 12-01-2015 03:55:00 6.1 C 6.43 g/m*3 2.73 C 17.7 km/h
2367 12-01-2015 04:00:00 6.1 C 6.43 g/m*3 3.18 C 14.5 km/h
2368 12-01-2015 04:05:00 6.1 C 6.43 g/m*3 2.73 C 17.7 km/h
2369 12-01-2015 04:10:00 6.1 C 6.43 g/m*3 3.72 C 11.3 km/h
2370 12-01-2015 04:15:00 6.1 C 6.5 g/m*3 3.18 C 14.5 km/h
2371 12-01-2015 04:20:00 6 C 6.46 g/m*3 3.31 C 12.9 km/h
2372 12-01-2015 04:25:00 6 C 6.46 g/m*3 3.92 C 9.7 km/h
2373 12-01-2015 04:30:00 6 C 6.46 g/m*3 3.31 C 12.9 km/h
2374 12-01-2015 04:35:00 6 C 6.46 g/m*3 3.92 C 9.7 km/h
2375 12-01-2015 04:40:00 6.1 C 6.5 g/m*3 2.73 C 17.7 km/h
Sensor: Nr:Datum:Temp:Abs-Feuchte:Windchill:Wind:
Aussen-T/F 2376 12-01-2015 04:45:00 6.1 C 6.5 g/m*3 2.95 C 16.1 km/h
2377 12-01-2015 04:50:00 6.1 C 6.5 g/m*3 3.43 C 12.9 km/h
2378 12-01-2015 04:55:00 6.2 C 6.55 g/m*3 4.52 C 8.1 km/h
2379 12-01-2015 05:00:00 6.2 C 6.47 g/m*3 4.52 C 8.1 km/h
2380 12-01-2015 05:05:00 6.2 C 6.55 g/m*3 6.2 C 4.8 km/h
2381 12-01-2015 05:10:00 6.2 C 6.55 g/m*3 4.98 C 6.4 km/h
2382 12-01-2015 05:15:00 6.2 C 6.55 g/m*3 3.56 C 12.9 km/h
2383 12-01-2015 05:20:00 6.2 C 6.55 g/m*3 4.52 C 8.1 km/h
2384 12-01-2015 05:25:00 6.2 C 6.55 g/m*3 3.84 C 11.3 km/h
2385 12-01-2015 05:30:00 6.2 C 6.55 g/m*3 4.15 C 9.7 km/h
2386 12-01-2015 05:35:00 6.2 C 6.55 g/m*3 3.56 C 12.9 km/h
2387 12-01-2015 05:40:00 6.2 C 6.47 g/m*3 3.56 C 12.9 km/h
2388 12-01-2015 05:45:00 6.3 C 6.44 g/m*3 3.43 C 14.5 km/h
2389 12-01-2015 05:50:00 6.3 C 6.44 g/m*3 3.43 C 14.5 km/h
2390 12-01-2015 05:55:00 6.3 C 6.44 g/m*3 3.43 C 14.5 km/h
2391 12-01-2015 06:00:00 6.3 C 6.44 g/m*3 3.68 C 12.9 km/h
2392 12-01-2015 06:05:00 6.4 C 6.41 g/m*3 2.91 C 19.3 km/h
2393 12-01-2015 06:10:00 6.4 C 6.41 g/m*3 3.8 C 12.9 km/h
2394 12-01-2015 06:15:00 6.4 C 6.41 g/m*3 4.08 C 11.3 km/h
2395 12-01-2015 06:20:00 6.5 C 6.45 g/m*3 3.23 C 17.7 km/h
2396 12-01-2015 06:25:00 6.6 C 6.42 g/m*3 2.82 C 22.5 km/h
2397 12-01-2015 06:30:00 6.6 C 6.42 g/m*3 3.17 C 19.3 km/h
2398 12-01-2015 06:35:00 6.6 C 6.42 g/m*3 3.57 C 16.1 km/h
2399 12-01-2015 06:40:00 6.6 C 6.42 g/m*3 3.57 C 16.1 km/h
2400 12-01-2015 06:45:00 6.5 C 6.45 g/m*3 4.2 C 11.3 km/h
Sensor: Nr:Datum:Temp:Abs-Feuchte:Windchill:Wind:
Aussen-T/F 2401 12-01-2015 06:50:00 6.5 C 6.45 g/m*3 3.92 C 12.9 km/h
2402 12-01-2015 06:55:00 6.5 C 6.37 g/m*3 3.92 C 12.9 km/h
2403 12-01-2015 07:00:00 6.5 C 6.45 g/m*3 4.2 C 11.3 km/h
2404 12-01-2015 07:05:00 6.4 C 6.33 g/m*3 3.11 C 17.7 km/h
2405 12-01-2015 07:10:00 6.4 C 6.33 g/m*3 4.08 C 11.3 km/h
2406 12-01-2015 07:15:00 6.5 C 6.45 g/m*3 3.92 C 12.9 km/h
2407 12-01-2015 07:20:00 6.5 C 6.37 g/m*3 3.44 C 16.1 km/h
2408 12-01-2015 07:25:00 6.5 C 6.37 g/m*3 3.92 C 12.9 km/h
2409 12-01-2015 07:30:00 6.5 C 6.37 g/m*3 3.04 C 19.3 km/h
2410 12-01-2015 07:35:00 6.6 C 6.34 g/m*3 3.79 C 14.5 km/h
2411 12-01-2015 07:40:00 6.6 C 6.34 g/m*3 2.99 C 20.9 km/h
2412 12-01-2015 07:45:00 6.6 C 6.34 g/m*3 3.57 C 16.1 km/h
2413 12-01-2015 07:50:00 6.7 C 6.38 g/m*3 2.64 C 25.7 km/h
2414 12-01-2015 07:55:00 6.7 C 6.38 g/m*3 3.92 C 14.5 km/h
2415 12-01-2015 08:00:00 6.7 C 6.38 g/m*3 4.17 C 12.9 km/h
2416 12-01-2015 08:05:00 6.6 C 6.27 g/m*3 3.57 C 16.1 km/h
2417 12-01-2015 08:10:00 6.6 C 6.27 g/m*3 3.79 C 14.5 km/h
2418 12-01-2015 08:15:00 6.7 C 6.31 g/m*3 2.79 C 24.1 km/h
2419 12-01-2015 08:20:00 6.7 C 6.31 g/m*3 3.92 C 14.5 km/h
2420 12-01-2015 08:25:00 6.7 C 6.31 g/m*3 4.17 C 12.9 km/h
2421 12-01-2015 08:30:00 6.7 C 6.31 g/m*3 4.17 C 12.9 km/h
2422 12-01-2015 08:35:00 6.7 C 6.31 g/m*3 3.69 C 16.1 km/h
2423 12-01-2015 08:40:00 6.7 C 6.31 g/m*3 3.29 C 19.3 km/h
2424 12-01-2015 08:45:00 6.7 C 6.31 g/m*3 4.17 C 12.9 km/h
2425 12-01-2015 08:50:00 6.7 C 6.31 g/m*3 4.17 C 12.9 km/h
Sensor: Nr:Datum:Temp:Abs-Feuchte:Windchill:Wind:
Aussen-T/F 2426 12-01-2015 08:55:00 6.7 C 6.31 g/m*3 4.44 C 11.3 km/h
2427 12-01-2015 09:00:00 6.7 C 6.23 g/m*3 3.11 C 20.9 km/h
2428 12-01-2015 09:05:00 6.7 C 6.23 g/m*3 4.17 C 12.9 km/h
2429 12-01-2015 09:10:00 6.8 C 6.27 g/m*3 3.61 C 17.7 km/h
2430 12-01-2015 09:15:00 6.8 C 6.27 g/m*3 3.61 C 17.7 km/h
2431 12-01-2015 09:20:00 6.8 C 6.27 g/m*3 3.61 C 17.7 km/h
2432 12-01-2015 09:25:00 6.8 C 6.19 g/m*3 3.61 C 17.7 km/h
2433 12-01-2015 09:30:00 6.8 C 6.19 g/m*3 4.04 C 14.5 km/h
2434 12-01-2015 09:35:00 6.9 C 6.24 g/m*3 3.94 C 16.1 km/h
2435 12-01-2015 09:40:00 6.8 C 6.19 g/m*3 4.87 C 9.7 km/h
2436 12-01-2015 09:45:00 6.8 C 6.19 g/m*3 4.04 C 14.5 km/h
2437 12-01-2015 09:50:00 6.8 C 6.19 g/m*3 4.56 C 11.3 km/h
2438 12-01-2015 09:55:00 6.9 C 6.24 g/m*3 4.41 C 12.9 km/h
2439 12-01-2015 10:00:00 6.9 C 6.24 g/m*3 4.16 C 14.5 km/h
2440 12-01-2015 10:05:00 6.9 C 6.24 g/m*3 4.99 C 9.7 km/h
2441 12-01-2015 10:10:00 6.9 C 6.24 g/m*3 3.2 C 22.5 km/h
2442 12-01-2015 10:15:00 6.9 C 6.24 g/m*3 4.16 C 14.5 km/h
2443 12-01-2015 10:20:00 7 C 6.28 g/m*3 4.29 C 14.5 km/h
2444 12-01-2015 10:25:00 7.1 C 6.24 g/m*3 3.62 C 20.9 km/h
2445 12-01-2015 10:30:00 7.1 C 6.24 g/m*3 4.19 C 16.1 km/h
2446 12-01-2015 10:35:00 7.1 C 6.24 g/m*3 4.19 C 16.1 km/h
2447 12-01-2015 10:40:00 7.1 C 6.24 g/m*3 4.19 C 16.1 km/h
2448 12-01-2015 10:45:00 7.1 C 6.32 g/m*3 4.41 C 14.5 km/h
2449 12-01-2015 10:50:00 7.1 C 6.32 g/m*3 5.58 C 8.1 km/h
2450 12-01-2015 10:55:00 7 C 6.28 g/m*3 3.86 C 17.7 km/h
Sensor: Nr:Datum:Temp:Abs-Feuchte:Windchill:Wind:
Aussen-T/F 2451 12-01-2015 11:00:00 7 C 6.35 g/m*3 3.49 C 20.9 km/h
2452 12-01-2015 11:05:00 6.9 C 6.31 g/m*3 4.41 C 12.9 km/h
2453 12-01-2015 11:10:00 6.9 C 6.39 g/m*3 3.54 C 19.3 km/h
2454 12-01-2015 11:15:00 6.8 C 6.35 g/m*3 3.82 C 16.1 km/h
2455 12-01-2015 11:20:00 6.8 C 6.42 g/m*3 4.56 C 11.3 km/h
2456 12-01-2015 11:25:00 6.7 C 6.38 g/m*3 3.92 C 14.5 km/h
2457 12-01-2015 11:30:00 6.7 C 6.46 g/m*3 4.75 C 9.7 km/h
2458 12-01-2015 11:35:00 6.6 C 6.42 g/m*3 4.04 C 12.9 km/h
2459 12-01-2015 11:40:00 6.6 C 6.42 g/m*3 3.57 C 16.1 km/h
2460 12-01-2015 11:45:00 6.6 C 6.42 g/m*3 4.04 C 12.9 km/h
2461 12-01-2015 11:50:00 6.6 C 6.42 g/m*3 3.57 C 16.1 km/h
2462 12-01-2015 11:55:00 6.7 C 6.46 g/m*3 3.92 C 14.5 km/h
2463 12-01-2015 12:00:00 6.7 C 6.46 g/m*3 5.11 C 8.1 km/h
2464 12-01-2015 12:05:00 6.7 C 6.38 g/m*3 3.92 C 14.5 km/h
2465 12-01-2015 12:10:00 6.8 C 6.42 g/m*3 5.22 C 8.1 km/h
2466 12-01-2015 12:15:00 6.8 C 6.42 g/m*3 3.61 C 17.7 km/h
2467 12-01-2015 12:20:00 6.8 C 6.42 g/m*3 3.82 C 16.1 km/h
2468 12-01-2015 12:25:00 6.8 C 6.42 g/m*3 4.29 C 12.9 km/h
2469 12-01-2015 12:30:00 6.9 C 6.47 g/m*3 4.68 C 11.3 km/h
2470 12-01-2015 12:35:00 6.9 C 6.47 g/m*3 4.68 C 11.3 km/h
2471 12-01-2015 13:10:00 7.3 C 7.9 g/m*3 5.47 C 9.7 km/h
2472 12-01-2015 13:15:00 7.3 C 6.48 g/m*3 4.9 C 12.9 km/h
2473 12-01-2015 13:20:00 7.3 C 6.4 g/m*3 5.81 C 8.1 km/h
2474 12-01-2015 13:25:00 7.3 C 6.4 g/m*3 5.47 C 9.7 km/h
2475 12-01-2015 13:30:00 7.3 C 6.4 g/m*3 4.66 C 14.5 km/h
Sensor: Nr:Datum:Temp:Abs-Feuchte:Windchill:Wind:
Aussen-T/F 2476 12-01-2015 13:35:00 7.4 C 6.44 g/m*3 4.78 C 14.5 km/h
2477 12-01-2015 13:40:00 7.4 C 6.44 g/m*3 5.28 C 11.3 km/h
2478 12-01-2015 13:45:00 7.4 C 6.44 g/m*3 4.56 C 16.1 km/h
2479 12-01-2015 13:50:00 7.4 C 6.44 g/m*3 4.56 C 16.1 km/h
2480 12-01-2015 13:55:00 7.5 C 6.48 g/m*3 5.14 C 12.9 km/h
2481 12-01-2015 14:00:00 7.5 C 6.48 g/m*3 5.14 C 12.9 km/h
2482 12-01-2015 14:05:00 7.6 C 6.53 g/m*3 4.61 C 17.7 km/h
2483 12-01-2015 14:10:00 7.6 C 6.53 g/m*3 4.81 C 16.1 km/h
2484 12-01-2015 14:15:00 7.6 C 6.53 g/m*3 5.26 C 12.9 km/h
2485 12-01-2015 14:20:00 7.6 C 6.53 g/m*3 4.81 C 16.1 km/h
2486 12-01-2015 14:25:00 7.6 C 6.53 g/m*3 4.81 C 16.1 km/h
2487 12-01-2015 14:30:00 7.6 C 6.53 g/m*3 4.81 C 16.1 km/h
2488 12-01-2015 14:35:00 7.6 C 6.53 g/m*3 5.02 C 14.5 km/h
2489 12-01-2015 14:40:00 7.6 C 6.53 g/m*3 4.81 C 16.1 km/h
2490 12-01-2015 14:45:00 7.6 C 6.53 g/m*3 5.82 C 9.7 km/h
2491 12-01-2015 14:50:00 7.6 C 6.53 g/m*3 5.53 C 11.3 km/h
2492 12-01-2015 14:55:00 7.6 C 6.53 g/m*3 4.25 C 20.9 km/h
2493 12-01-2015 15:20:00 7.5 C 6.56 g/m*3 4.9 C 14.5 km/h
2494 12-01-2015 15:25:00 7.4 C 6.52 g/m*3 5.02 C 12.9 km/h
2495 12-01-2015 15:30:00 7.4 C 6.6 g/m*3 5.28 C 11.3 km/h
2496 12-01-2015 15:35:00 7.4 C 6.6 g/m*3 5.02 C 12.9 km/h
2497 12-01-2015 15:40:00 7.4 C 6.6 g/m*3 4.78 C 14.5 km/h
2498 12-01-2015 15:45:00 7.3 C 6.64 g/m*3 3.71 C 22.5 km/h
2499 12-01-2015 15:50:00 7.3 C 6.64 g/m*3 4.9 C 12.9 km/h
2500 12-01-2015 15:55:00 7.2 C 6.59 g/m*3 5.35 C 9.7 km/h
Sensor: Nr:Datum:Temp:Abs-Feuchte:Windchill:Wind:
Aussen-T/F 2501 12-01-2015 16:00:00 7.2 C 6.59 g/m*3 4.11 C 17.7 km/h
2502 12-01-2015 16:05:00 7.2 C 6.59 g/m*3 3.75 C 20.9 km/h
2503 12-01-2015 16:10:00 7.2 C 6.59 g/m*3 4.77 C 12.9 km/h
2504 12-01-2015 16:15:00 7.1 C 6.55 g/m*3 3.8 C 19.3 km/h
2505 12-01-2015 16:20:00 7.1 C 6.55 g/m*3 4.65 C 12.9 km/h
2506 12-01-2015 16:25:00 7.1 C 6.55 g/m*3 4.41 C 14.5 km/h
2507 12-01-2015 16:45:00 7.1 C 7.8 g/m*3 2.62 C 32.2 km/h
2508 12-01-2015 16:50:00 7.1 C 6.63 g/m*3 2.62 C 32.2 km/h
2509 12-01-2015 16:55:00 7.1 C 6.63 g/m*3 3.15 C 25.7 km/h
2510 12-01-2015 17:00:00 7.1 C 6.63 g/m*3 3.98 C 17.7 km/h
2511 12-01-2015 17:05:00 7.1 C 6.63 g/m*3 3.98 C 17.7 km/h
2512 12-01-2015 17:10:00 7.1 C 6.63 g/m*3 4.19 C 16.1 km/h
2513 12-01-2015 17:15:00 7.1 C 6.63 g/m*3 3.3 C 24.1 km/h
2514 12-01-2015 17:20:00 7.1 C 6.63 g/m*3 3.8 C 19.3 km/h
2515 12-01-2015 17:25:00 7.1 C 6.63 g/m*3 3.8 C 19.3 km/h
2516 12-01-2015 17:30:00 7.1 C 6.55 g/m*3 4.19 C 16.1 km/h
2517 12-01-2015 17:35:00 7.1 C 6.55 g/m*3 4.65 C 12.9 km/h
2518 12-01-2015 17:40:00 7.1 C 6.55 g/m*3 4.19 C 16.1 km/h
2519 12-01-2015 17:45:00 7.1 C 6.55 g/m*3 4.41 C 14.5 km/h
2520 12-01-2015 17:50:00 7.1 C 6.47 g/m*3 3.62 C 20.9 km/h
2521 12-01-2015 17:55:00 7.2 C 6.52 g/m*3 4.53 C 14.5 km/h
2522 12-01-2015 18:00:00 7.2 C 6.52 g/m*3 5.04 C 11.3 km/h
2523 12-01-2015 18:05:00 7.2 C 6.44 g/m*3 5.04 C 11.3 km/h
2524 12-01-2015 18:10:00 7.2 C 6.44 g/m*3 4.77 C 12.9 km/h
2525 12-01-2015 18:15:00 7.3 C 6.48 g/m*3 3.71 C 22.5 km/h
Sensor: Nr:Datum:Temp:Abs-Feuchte:Windchill:Wind:
Aussen-T/F 2526 12-01-2015 18:20:00 7.3 C 6.4 g/m*3 4.44 C 16.1 km/h
2527 12-01-2015 18:25:00 7.4 C 6.44 g/m*3 4.78 C 14.5 km/h
2528 12-01-2015 18:30:00 7.5 C 6.4 g/m*3 4.13 C 20.9 km/h
2529 12-01-2015 18:35:00 7.6 C 6.44 g/m*3 5.02 C 14.5 km/h
2530 12-01-2015 18:40:00 7.6 C 6.44 g/m*3 4.61 C 17.7 km/h
2531 12-01-2015 18:45:00 7.6 C 6.44 g/m*3 4.61 C 17.7 km/h
2532 12-01-2015 18:50:00 7.7 C 6.49 g/m*3 4.93 C 16.1 km/h
2533 12-01-2015 18:55:00 7.7 C 6.49 g/m*3 3.92 C 25.7 km/h
2534 12-01-2015 19:00:00 7.7 C 6.49 g/m*3 5.94 C 9.7 km/h
2535 12-01-2015 19:05:00 7.7 C 6.49 g/m*3 5.38 C 12.9 km/h
2536 12-01-2015 19:10:00 7.7 C 6.49 g/m*3 5.15 C 14.5 km/h
2537 12-01-2015 19:15:00 7.7 C 6.49 g/m*3 5.65 C 11.3 km/h
2538 12-01-2015 19:20:00 7.7 C 6.57 g/m*3 5.15 C 14.5 km/h
2539 12-01-2015 19:25:00 7.7 C 6.57 g/m*3 4.73 C 17.7 km/h
2540 12-01-2015 19:30:00 7.8 C 6.61 g/m*3 5.51 C 12.9 km/h
2541 12-01-2015 19:35:00 7.8 C 6.61 g/m*3 5.06 C 16.1 km/h
2542 12-01-2015 19:40:00 7.8 C 6.61 g/m*3 5.27 C 14.5 km/h
2543 12-01-2015 19:45:00 7.8 C 6.61 g/m*3 5.51 C 12.9 km/h
2544 12-01-2015 19:50:00 7.8 C 6.61 g/m*3 6.06 C 9.7 km/h
2545 12-01-2015 19:55:00 7.8 C 6.61 g/m*3 5.51 C 12.9 km/h
2546 12-01-2015 20:00:00 7.9 C 6.65 g/m*3 5.39 C 14.5 km/h
2547 12-01-2015 20:05:00 7.9 C 6.65 g/m*3 5.39 C 14.5 km/h
2548 12-01-2015 20:10:00 7.9 C 6.65 g/m*3 5.89 C 11.3 km/h
2549 12-01-2015 20:15:00 8 C 6.7 g/m*3 6.01 C 11.3 km/h
2550 12-01-2015 20:20:00 8.1 C 6.66 g/m*3 5.64 C 14.5 km/h
Sensor: Nr:Datum:Temp:Abs-Feuchte:Windchill:Wind:
Aussen-T/F 2551 12-01-2015 20:25:00 8.1 C 6.66 g/m*3 6.42 C 9.7 km/h
2552 12-01-2015 20:30:00 8.2 C 6.7 g/m*3 5.01 C 20.9 km/h
2553 12-01-2015 20:35:00 8.3 C 6.74 g/m*3 5.89 C 14.5 km/h
2554 12-01-2015 20:40:00 8.3 C 6.74 g/m*3 6.12 C 12.9 km/h
2555 12-01-2015 20:45:00 8.3 C 6.74 g/m*3 5.14 C 20.9 km/h
2556 12-01-2015 20:50:00 8.3 C 6.74 g/m*3 5.89 C 14.5 km/h
2557 12-01-2015 21:15:00 8.4 C 6.62 g/m*3 5.27 C 20.9 km/h
2558 12-01-2015 21:20:00 8.4 C 6.62 g/m*3 5.27 C 20.9 km/h
2559 12-01-2015 21:25:00 8.4 C 6.53 g/m*3 5.43 C 19.3 km/h
2560 12-01-2015 21:30:00 8.5 C 6.57 g/m*3 5.56 C 19.3 km/h
2561 12-01-2015 21:35:00 8.5 C 6.57 g/m*3 5.73 C 17.7 km/h
2562 12-01-2015 21:40:00 8.4 C 6.53 g/m*3 5.11 C 22.5 km/h
2563 12-01-2015 21:45:00 8.5 C 6.49 g/m*3 5.39 C 20.9 km/h
2564 12-01-2015 21:50:00 8.5 C 6.49 g/m*3 4.95 C 25.7 km/h
2565 12-01-2015 21:55:00 8.4 C 6.45 g/m*3 5.43 C 19.3 km/h
2566 12-01-2015 22:00:00 8.4 C 6.45 g/m*3 5.43 C 19.3 km/h
2567 12-01-2015 22:05:00 8.4 C 6.45 g/m*3 5.27 C 20.9 km/h
2568 12-01-2015 22:10:00 8.3 C 6.41 g/m*3 5.68 C 16.1 km/h
2569 12-01-2015 22:15:00 8.3 C 6.41 g/m*3 6.37 C 11.3 km/h
2570 12-01-2015 22:20:00 8.3 C 6.41 g/m*3 5.48 C 17.7 km/h
2571 12-01-2015 22:25:00 8.3 C 6.41 g/m*3 5.48 C 17.7 km/h
2572 12-01-2015 22:30:00 8.3 C 6.41 g/m*3 5.48 C 17.7 km/h
2573 12-01-2015 22:35:00 8.3 C 6.41 g/m*3 4.7 C 25.7 km/h
2574 12-01-2015 22:40:00 8.3 C 6.41 g/m*3 5.31 C 19.3 km/h
2575 12-01-2015 22:45:00 8.3 C 6.41 g/m*3 5.68 C 16.1 km/h
Sensor: Nr:Datum:Temp:Abs-Feuchte:Windchill:Wind:
Aussen-T/F 2576 12-01-2015 23:10:00 8.6 C 6.44 g/m*3 5.22 C 24.1 km/h
2577 12-01-2015 23:15:00 8.6 C 6.44 g/m*3 5.22 C 24.1 km/h
2578 12-01-2015 23:20:00 8.6 C 6.44 g/m*3 5.68 C 19.3 km/h
2579 12-01-2015 23:25:00 8.6 C 6.44 g/m*3 5.86 C 17.7 km/h
2580 12-01-2015 23:30:00 8.6 C 6.44 g/m*3 6.05 C 16.1 km/h
2581 12-01-2015 23:35:00 8.6 C 6.44 g/m*3 5.68 C 19.3 km/h
2582 12-01-2015 23:40:00 8.7 C 6.49 g/m*3 6.6 C 12.9 km/h
2583 12-01-2015 23:45:00 8.7 C 6.49 g/m*3 5.98 C 17.7 km/h
2584 12-01-2015 23:50:00 8.7 C 6.49 g/m*3 5.81 C 19.3 km/h
2585 12-01-2015 23:55:00 8.7 C 6.49 g/m*3 5.81 C 19.3 km/h
2586 13-01-2015 00:00:00 8.7 C 6.57 g/m*3 5.81 C 19.3 km/h
2587 13-01-2015 00:05:00 8.7 C 6.57 g/m*3 5.65 C 20.9 km/h
2588 13-01-2015 00:10:00 8.7 C 6.57 g/m*3 5.65 C 20.9 km/h
2589 13-01-2015 00:15:00 8.8 C 6.61 g/m*3 6.11 C 17.7 km/h
2590 13-01-2015 00:20:00 8.8 C 6.61 g/m*3 5.2 C 27.4 km/h
2591 13-01-2015 00:25:00 8.8 C 6.61 g/m*3 5.2 C 27.4 km/h
2592 13-01-2015 00:30:00 8.8 C 6.61 g/m*3 5.93 C 19.3 km/h
2593 13-01-2015 00:35:00 8.8 C 6.61 g/m*3 5.62 C 22.5 km/h
2594 13-01-2015 00:40:00 8.8 C 6.7 g/m*3 5.34 C 25.7 km/h
2595 13-01-2015 00:45:00 8.9 C 6.66 g/m*3 6.23 C 17.7 km/h
2596 13-01-2015 00:50:00 8.9 C 6.75 g/m*3 5.75 C 22.5 km/h
2597 13-01-2015 00:55:00 8.9 C 6.66 g/m*3 5.6 C 24.1 km/h
2598 13-01-2015 01:00:00 8.9 C 6.66 g/m*3 5.9 C 20.9 km/h
2599 13-01-2015 01:05:00 8.9 C 6.66 g/m*3 6.42 C 16.1 km/h
2600 13-01-2015 01:10:00 8.9 C 6.66 g/m*3 5.9 C 20.9 km/h
Sensor: Nr:Datum:Temp:Abs-Feuchte:Windchill:Wind:
Aussen-T/F 2601 13-01-2015 01:15:00 9 C 6.7 g/m*3 5.46 C 27.4 km/h
2602 13-01-2015 01:20:00 8.9 C 6.66 g/m*3 5.9 C 20.9 km/h
2603 13-01-2015 01:25:00 8.9 C 6.66 g/m*3 6.42 C 16.1 km/h
2604 13-01-2015 01:30:00 8.9 C 6.66 g/m*3 5.6 C 24.1 km/h
2605 13-01-2015 01:35:00 8.9 C 6.75 g/m*3 6.23 C 17.7 km/h
2606 13-01-2015 01:40:00 8.9 C 6.75 g/m*3 5.9 C 20.9 km/h
2607 13-01-2015 01:45:00 8.9 C 6.75 g/m*3 6.42 C 16.1 km/h
2608 13-01-2015 01:50:00 8.9 C 6.75 g/m*3 5.6 C 24.1 km/h
2609 13-01-2015 01:55:00 9 C 6.79 g/m*3 6.19 C 19.3 km/h
2610 13-01-2015 02:00:00 9.1 C 6.74 g/m*3 6.15 C 20.9 km/h
2611 13-01-2015 02:05:00 9.1 C 6.74 g/m*3 6 C 22.5 km/h
2612 13-01-2015 02:10:00 9.1 C 6.74 g/m*3 6.67 C 16.1 km/h
2613 13-01-2015 02:15:00 8.9 C 6.75 g/m*3 5.9 C 20.9 km/h
2614 13-01-2015 02:20:00 8.9 C 6.75 g/m*3 5.75 C 22.5 km/h
2615 13-01-2015 02:25:00 8.9 C 6.75 g/m*3 6.42 C 16.1 km/h
2616 13-01-2015 02:30:00 8.9 C 6.75 g/m*3 6.23 C 17.7 km/h
2617 13-01-2015 02:35:00 8.9 C 6.75 g/m*3 5.75 C 22.5 km/h
2618 13-01-2015 02:40:00 8.9 C 6.75 g/m*3 6.06 C 19.3 km/h
2619 13-01-2015 02:45:00 8.9 C 6.75 g/m*3 6.06 C 19.3 km/h
2620 13-01-2015 02:50:00 8.9 C 6.75 g/m*3 6.23 C 17.7 km/h
2621 13-01-2015 02:55:00 8.9 C 6.75 g/m*3 5.9 C 20.9 km/h
2622 13-01-2015 03:00:00 8.8 C 6.79 g/m*3 6.5 C 14.5 km/h
2623 13-01-2015 03:05:00 8.8 C 6.79 g/m*3 6.11 C 17.7 km/h
2624 13-01-2015 03:10:00 8.9 C 6.75 g/m*3 5.9 C 20.9 km/h
2625 13-01-2015 03:15:00 8.8 C 6.79 g/m*3 6.3 C 16.1 km/h
Sensor: Nr:Datum:Temp:Abs-Feuchte:Windchill:Wind:
Aussen-T/F 2626 13-01-2015 03:20:00 8.9 C 6.83 g/m*3 6.62 C 14.5 km/h
2627 13-01-2015 03:25:00 8.9 C 6.75 g/m*3 6.85 C 12.9 km/h
2628 13-01-2015 03:30:00 8.9 C 6.83 g/m*3 6.06 C 19.3 km/h
2629 13-01-2015 03:35:00 8.9 C 6.83 g/m*3 6.42 C 16.1 km/h
2630 13-01-2015 03:40:00 8.9 C 6.83 g/m*3 7.37 C 9.7 km/h
2631 13-01-2015 03:45:00 8.9 C 6.83 g/m*3 7.37 C 9.7 km/h
2632 13-01-2015 03:50:00 8.9 C 6.83 g/m*3 7.09 C 11.3 km/h
2633 13-01-2015 03:55:00 8.9 C 6.83 g/m*3 7.69 C 8.1 km/h
2634 13-01-2015 04:00:00 8.9 C 6.75 g/m*3 7.69 C 8.1 km/h
2635 13-01-2015 04:05:00 9.1 C 6.83 g/m*3 7.33 C 11.3 km/h
2636 13-01-2015 04:10:00 9.1 C 6.74 g/m*3 7.09 C 12.9 km/h
2637 13-01-2015 04:15:00 9.1 C 6.74 g/m*3 7.61 C 9.7 km/h
2638 13-01-2015 04:20:00 9.1 C 6.74 g/m*3 7.33 C 11.3 km/h
2639 13-01-2015 04:25:00 9.1 C 6.74 g/m*3 7.33 C 11.3 km/h
2640 13-01-2015 04:30:00 9.2 C 6.7 g/m*3 7.21 C 12.9 km/h
2641 13-01-2015 04:35:00 9.3 C 6.65 g/m*3 7.12 C 14.5 km/h
2642 13-01-2015 04:40:00 9.3 C 6.65 g/m*3 7.58 C 11.3 km/h
2643 13-01-2015 04:45:00 9.3 C 6.65 g/m*3 6.56 C 19.3 km/h
2644 13-01-2015 04:50:00 9.4 C 6.6 g/m*3 7.24 C 14.5 km/h
2645 13-01-2015 04:55:00 9.4 C 6.6 g/m*3 7.46 C 12.9 km/h
2646 13-01-2015 05:00:00 9.4 C 6.6 g/m*3 6.86 C 17.7 km/h
2647 13-01-2015 05:05:00 9.4 C 6.51 g/m*3 7.24 C 14.5 km/h
2648 13-01-2015 05:10:00 9.4 C 6.51 g/m*3 7.24 C 14.5 km/h
2649 13-01-2015 05:15:00 9.4 C 6.51 g/m*3 7.7 C 11.3 km/h
2650 13-01-2015 05:20:00 9.2 C 6.52 g/m*3 7.46 C 11.3 km/h
Sensor: Nr:Datum:Temp:Abs-Feuchte:Windchill:Wind:
Aussen-T/F 2651 13-01-2015 05:25:00 9.1 C 6.57 g/m*3 8.33 C 6.4 km/h
2652 13-01-2015 05:30:00 9 C 6.52 g/m*3 7.21 C 11.3 km/h
2653 13-01-2015 05:35:00 9.1 C 6.48 g/m*3 8.33 C 6.4 km/h
2654 13-01-2015 05:40:00 9.1 C 6.57 g/m*3 7.93 C 8.1 km/h
2655 13-01-2015 05:45:00 9.1 C 6.57 g/m*3 8.33 C 6.4 km/h
2656 13-01-2015 05:50:00 9.1 C 6.65 g/m*3 9.1 C 4.8 km/h
2657 13-01-2015 05:55:00 9 C 6.52 g/m*3 8.21 C 6.4 km/h
2658 13-01-2015 06:00:00 9.1 C 6.48 g/m*3 9.1 C 3.2 km/h
2659 13-01-2015 06:05:00 9.2 C 6.43 g/m*3 7.46 C 11.3 km/h
2660 13-01-2015 06:10:00 9.4 C 6.42 g/m*3 8.68 C 6.4 km/h
2661 13-01-2015 06:15:00 9.3 C 6.47 g/m*3 8.56 C 6.4 km/h
2662 13-01-2015 06:20:00 9.3 C 6.38 g/m*3 8.56 C 6.4 km/h
2663 13-01-2015 06:25:00 9.4 C 6.42 g/m*3 7.7 C 11.3 km/h
2664 13-01-2015 06:30:00 9.4 C 6.51 g/m*3 9.4 C 4.8 km/h
2665 13-01-2015 06:35:00 9.4 C 6.42 g/m*3 8.68 C 6.4 km/h
2666 13-01-2015 06:40:00 9.4 C 6.33 g/m*3 9.4 C 4.8 km/h
2667 13-01-2015 06:45:00 9.3 C 6.29 g/m*3 9.3 C 4.8 km/h
2668 13-01-2015 06:50:00 9.2 C 6.34 g/m*3 9.2 C 3.2 km/h
2669 13-01-2015 06:55:00 9.2 C 6.34 g/m*3 9.2 C 4.8 km/h
2670 13-01-2015 07:00:00 8.9 C 6.39 g/m*3 8.9 C 1.6 km/h
2671 13-01-2015 07:05:00 8.7 C 6.31 g/m*3 8.7 C 4.8 km/h
2672 13-01-2015 07:10:00 8.6 C 6.27 g/m*3 7.75 C 6.4 km/h
2673 13-01-2015 07:15:00 8.6 C 6.19 g/m*3 8.6 C 4.8 km/h
2674 13-01-2015 07:20:00 8.6 C 6.19 g/m*3 8.6 C 3.2 km/h
2675 13-01-2015 07:25:00 8.4 C 6.45 g/m*3 7.52 C 6.4 km/h
Sensor: Nr:Datum:Temp:Abs-Feuchte:Windchill:Wind:
Aussen-T/F 2676 13-01-2015 07:30:00 8.2 C 6.62 g/m*3 8.2 C 3.2 km/h
2677 13-01-2015 07:35:00 8.3 C 6.41 g/m*3 6.66 C 9.7 km/h
2678 13-01-2015 07:40:00 8.7 C 6.4 g/m*3 7.87 C 6.4 km/h
2679 13-01-2015 07:45:00 8.8 C 6.61 g/m*3 8.8 C 3.2 km/h
2680 13-01-2015 07:50:00 8.8 C 6.61 g/m*3 8.8 C 3.2 km/h
2681 13-01-2015 08:05:00 9 C 8.82 g/m*3 7.81 C 8.1 km/h
2682 13-01-2015 08:10:00 9 C 8.82 g/m*3 7.81 C 8.1 km/h
2683 13-01-2015 12:10:00 11.2 C 10.14 g/m*3 11.2 C 20.9 km/h
2684 13-01-2015 12:15:00 11.2 C 6.59 g/m*3 11.2 C 22.5 km/h
2685 13-01-2015 12:20:00 11.3 C 6.63 g/m*3 11.3 C 9.7 km/h
2686 13-01-2015 12:25:00 11.3 C 6.63 g/m*3 11.3 C 14.5 km/h
2687 13-01-2015 12:30:00 11.4 C 6.57 g/m*3 11.4 C 16.1 km/h
2688 13-01-2015 12:35:00 11.3 C 6.63 g/m*3 11.3 C 11.3 km/h
2689 13-01-2015 12:40:00 11.3 C 6.53 g/m*3 11.3 C 17.7 km/h
2690 13-01-2015 12:45:00 11.6 C 6.65 g/m*3 11.6 C 16.1 km/h
2691 13-01-2015 12:50:00 11.7 C 6.59 g/m*3 11.7 C 20.9 km/h
2692 13-01-2015 12:55:00 11.8 C 6.63 g/m*3 11.8 C 19.3 km/h
2693 13-01-2015 13:00:00 11.9 C 6.57 g/m*3 11.9 C 17.7 km/h
2694 13-01-2015 13:05:00 11.9 C 6.67 g/m*3 11.9 C 14.5 km/h
2695 13-01-2015 13:10:00 12.2 C 6.69 g/m*3 12.2 C 20.9 km/h
2696 13-01-2015 13:15:00 12.4 C 6.56 g/m*3 12.4 C 22.5 km/h
2697 13-01-2015 13:20:00 12.6 C 6.53 g/m*3 12.6 C 24.1 km/h
2698 13-01-2015 13:25:00 12.8 C 6.61 g/m*3 12.8 C 16.1 km/h
2699 13-01-2015 13:30:00 12.9 C 6.65 g/m*3 12.9 C 17.7 km/h
2700 13-01-2015 13:35:00 13.1 C 6.62 g/m*3 13.1 C 14.5 km/h
Sensor: Nr:Datum:Temp:Abs-Feuchte:Windchill:Wind:
Aussen-T/F 2701 13-01-2015 13:40:00 13.2 C 6.66 g/m*3 13.2 C 14.5 km/h
2702 13-01-2015 13:45:00 13.2 C 6.66 g/m*3 13.2 C 20.9 km/h
2703 13-01-2015 13:50:00 13.2 C 6.54 g/m*3 13.2 C 19.3 km/h
2704 13-01-2015 13:55:00 13.3 C 6.59 g/m*3 13.3 C 25.7 km/h
2705 13-01-2015 14:00:00 13.3 C 6.47 g/m*3 13.3 C 17.7 km/h
2706 13-01-2015 14:05:00 13.3 C 6.59 g/m*3 13.3 C 27.4 km/h
2707 13-01-2015 14:10:00 13.4 C 6.51 g/m*3 13.4 C 25.7 km/h
2708 13-01-2015 14:15:00 13.3 C 6.47 g/m*3 13.3 C 25.7 km/h
2709 13-01-2015 14:20:00 13.4 C 6.51 g/m*3 13.4 C 20.9 km/h
2710 13-01-2015 14:25:00 13.6 C 6.71 g/m*3 13.6 C 20.9 km/h
2711 13-01-2015 14:30:00 13.6 C 6.59 g/m*3 13.6 C 22.5 km/h
2712 13-01-2015 14:35:00 13.6 C 6.59 g/m*3 13.6 C 24.1 km/h
2713 13-01-2015 14:40:00 13.6 C 6.59 g/m*3 13.6 C 17.7 km/h
2714 13-01-2015 14:45:00 13.6 C 6.59 g/m*3 13.6 C 14.5 km/h
2715 13-01-2015 14:50:00 13.5 C 6.55 g/m*3 13.5 C 24.1 km/h
2716 13-01-2015 14:55:00 13.5 C 6.55 g/m*3 13.5 C 20.9 km/h
2717 13-01-2015 15:00:00 13.4 C 6.63 g/m*3 13.4 C 24.1 km/h
2718 13-01-2015 15:05:00 13.4 C 6.63 g/m*3 13.4 C 19.3 km/h
2719 13-01-2015 15:10:00 13.5 C 6.78 g/m*3 13.5 C 16.1 km/h
2720 13-01-2015 15:15:00 13.5 C 6.78 g/m*3 13.5 C 14.5 km/h
2721 13-01-2015 15:20:00 13.4 C 6.74 g/m*3 13.4 C 25.7 km/h
2722 13-01-2015 15:25:00 13.4 C 6.74 g/m*3 13.4 C 14.5 km/h
2723 13-01-2015 15:30:00 13.4 C 6.74 g/m*3 13.4 C 11.3 km/h
2724 13-01-2015 15:35:00 13.1 C 6.62 g/m*3 13.1 C 16.1 km/h
2725 13-01-2015 15:40:00 13.1 C 6.62 g/m*3 13.1 C 12.9 km/h
Sensor: Nr:Datum:Temp:Abs-Feuchte:Windchill:Wind:
Aussen-T/F 2726 13-01-2015 16:10:00 11.9 C 7.84 g/m*3 11.9 C 19.3 km/h
2727 13-01-2015 16:15:00 11.9 C 7.84 g/m*3 11.9 C 17.7 km/h
2728 13-01-2015 16:20:00 11.9 C 7.94 g/m*3 11.9 C 20.9 km/h
2729 13-01-2015 16:25:00 11.8 C 8 g/m*3 11.8 C 11.3 km/h
2730 13-01-2015 16:30:00 11.7 C 7.95 g/m*3 11.7 C 22.5 km/h
2731 13-01-2015 16:35:00 11.7 C 8.05 g/m*3 11.7 C 16.1 km/h
2732 13-01-2015 16:40:00 11.7 C 8.05 g/m*3 11.7 C 32.2 km/h
2733 13-01-2015 16:45:00 11.7 C 8.05 g/m*3 11.7 C 19.3 km/h
2734 13-01-2015 16:50:00 11.6 C 8.11 g/m*3 11.6 C 19.3 km/h
2735 13-01-2015 16:55:00 11.5 C 8.06 g/m*3 11.5 C 22.5 km/h
2736 13-01-2015 17:00:00 11.4 C 8.11 g/m*3 11.4 C 11.3 km/h
2737 13-01-2015 17:05:00 11.4 C 8.21 g/m*3 11.4 C 17.7 km/h
2738 13-01-2015 17:10:00 11.3 C 8.16 g/m*3 11.3 C 14.5 km/h
2739 13-01-2015 17:15:00 11.3 C 8.26 g/m*3 11.3 C 19.3 km/h
2740 13-01-2015 17:20:00 11.2 C 8.21 g/m*3 11.2 C 14.5 km/h
2741 13-01-2015 17:25:00 11.2 C 8.21 g/m*3 11.2 C 32.2 km/h
2742 13-01-2015 17:30:00 11.1 C 8.16 g/m*3 11.1 C 17.7 km/h
2743 13-01-2015 17:35:00 11.1 C 8.16 g/m*3 11.1 C 17.7 km/h
2744 13-01-2015 17:40:00 11.1 C 8.16 g/m*3 11.1 C 22.5 km/h
2745 13-01-2015 17:45:00 11.1 C 8.26 g/m*3 11.1 C 11.3 km/h
2746 13-01-2015 17:50:00 11 C 8.21 g/m*3 9.02 C 16.1 km/h
2747 13-01-2015 17:55:00 10.9 C 8.26 g/m*3 8.73 C 17.7 km/h
2748 13-01-2015 18:00:00 10.8 C 8.2 g/m*3 8.61 C 17.7 km/h
2749 13-01-2015 18:05:00 10.8 C 8.2 g/m*3 8.61 C 17.7 km/h
2750 13-01-2015 18:10:00 10.8 C 8.2 g/m*3 8.78 C 16.1 km/h
Sensor: Nr:Datum:Temp:Abs-Feuchte:Windchill:Wind:
Aussen-T/F 2751 13-01-2015 18:15:00 10.8 C 8.2 g/m*3 8.3 C 20.9 km/h
2752 13-01-2015 18:20:00 10.8 C 8.11 g/m*3 8.3 C 20.9 km/h
2753 13-01-2015 18:25:00 10.8 C 8.2 g/m*3 8.45 C 19.3 km/h
2754 13-01-2015 18:30:00 10.8 C 8.11 g/m*3 8.3 C 20.9 km/h
2755 13-01-2015 18:35:00 10.8 C 8.11 g/m*3 8.04 C 24.1 km/h
2756 13-01-2015 18:40:00 10.8 C 8.11 g/m*3 7.68 C 29 km/h
2757 13-01-2015 18:45:00 10.7 C 8.15 g/m*3 8.18 C 20.9 km/h
2758 13-01-2015 18:50:00 10.6 C 8.1 g/m*3 7.66 C 25.7 km/h
2759 13-01-2015 18:55:00 10.4 C 8.19 g/m*3 7.16 C 29 km/h
2760 13-01-2015 19:00:00 10.3 C 8.14 g/m*3 7.98 C 17.7 km/h
2761 13-01-2015 19:05:00 10.2 C 8.09 g/m*3 7.4 C 22.5 km/h
2762 13-01-2015 19:10:00 10.2 C 8.09 g/m*3 7.02 C 27.4 km/h
2763 13-01-2015 19:15:00 10.2 C 8.09 g/m*3 7.4 C 22.5 km/h
2764 13-01-2015 19:20:00 10.1 C 8.04 g/m*3 7.42 C 20.9 km/h
2765 13-01-2015 19:25:00 10.1 C 8.04 g/m*3 7.42 C 20.9 km/h
2766 13-01-2015 19:30:00 10.2 C 7.99 g/m*3 7.02 C 27.4 km/h
2767 13-01-2015 19:35:00 10.1 C 8.04 g/m*3 7.91 C 16.1 km/h
2768 13-01-2015 19:40:00 10.1 C 8.04 g/m*3 7.91 C 16.1 km/h
2769 13-01-2015 19:45:00 10.1 C 8.04 g/m*3 8.1 C 14.5 km/h
2770 13-01-2015 19:50:00 10.1 C 8.04 g/m*3 7.91 C 16.1 km/h
2771 13-01-2015 19:55:00 9.9 C 8.03 g/m*3 7.16 C 20.9 km/h
2772 13-01-2015 20:00:00 9.9 C 8.03 g/m*3 7.32 C 19.3 km/h
2773 13-01-2015 20:05:00 9.9 C 8.03 g/m*3 7.48 C 17.7 km/h
2774 13-01-2015 20:10:00 9.8 C 7.98 g/m*3 7.73 C 14.5 km/h
2775 13-01-2015 20:15:00 9.6 C 8.06 g/m*3 6.94 C 19.3 km/h
Sensor: Nr:Datum:Temp:Abs-Feuchte:Windchill:Wind:
Aussen-T/F 2776 13-01-2015 20:20:00 9.6 C 8.06 g/m*3 7.94 C 11.3 km/h
2777 13-01-2015 20:25:00 9.5 C 8.01 g/m*3 8.4 C 8.1 km/h
2778 13-01-2015 20:30:00 9.5 C 8.01 g/m*3 7.82 C 11.3 km/h
2779 13-01-2015 21:40:00 8.9 C 7.36 g/m*3 8.1 C 6.4 km/h
2780 13-01-2015 21:45:00 8.9 C 7.36 g/m*3 7.09 C 11.3 km/h
2781 13-01-2015 21:50:00 8.7 C 7.26 g/m*3 8.7 C 4.8 km/h
2782 13-01-2015 21:55:00 8.6 C 7.3 g/m*3 7.01 C 9.7 km/h
2783 13-01-2015 22:00:00 8.7 C 7.35 g/m*3 8.7 C 4.8 km/h
2784 13-01-2015 22:05:00 8.7 C 7.35 g/m*3 7.13 C 9.7 km/h
2785 13-01-2015 22:10:00 8.8 C 7.4 g/m*3 7.25 C 9.7 km/h
2786 13-01-2015 22:15:00 8.8 C 7.31 g/m*3 7.58 C 8.1 km/h
2787 13-01-2015 22:20:00 8.8 C 7.31 g/m*3 7.25 C 9.7 km/h
2788 13-01-2015 22:25:00 8.8 C 7.31 g/m*3 6.97 C 11.3 km/h
2789 13-01-2015 22:30:00 8.9 C 7.36 g/m*3 7.09 C 11.3 km/h
2790 13-01-2015 22:35:00 8.8 C 7.31 g/m*3 6.97 C 11.3 km/h
2791 13-01-2015 22:40:00 8.8 C 7.31 g/m*3 7.58 C 8.1 km/h
2792 13-01-2015 22:45:00 8.8 C 7.31 g/m*3 8.8 C 4.8 km/h
2793 13-01-2015 22:50:00 8.7 C 7.35 g/m*3 7.87 C 6.4 km/h
2794 13-01-2015 22:55:00 8.5 C 7.34 g/m*3 8.5 C 4.8 km/h
2795 13-01-2015 23:00:00 8.4 C 7.3 g/m*3 8.4 C 4.8 km/h
2796 13-01-2015 23:05:00 8.3 C 7.25 g/m*3 8.3 C 3.2 km/h
2797 13-01-2015 23:10:00 8.3 C 7.25 g/m*3 8.3 C 4.8 km/h
2798 13-01-2015 23:15:00 8.3 C 7.25 g/m*3 6.37 C 11.3 km/h
2799 13-01-2015 23:20:00 8.3 C 7.25 g/m*3 6.66 C 9.7 km/h
2800 13-01-2015 23:25:00 8.3 C 7.25 g/m*3 7.41 C 6.4 km/h
Sensor: Nr:Datum:Temp:Abs-Feuchte:Windchill:Wind:
Aussen-T/F 2801 13-01-2015 23:30:00 8.4 C 7.3 g/m*3 8.4 C 4.8 km/h
2802 13-01-2015 23:35:00 8.4 C 7.3 g/m*3 7.52 C 6.4 km/h
2803 13-01-2015 23:40:00 8.5 C 7.34 g/m*3 8.5 C 4.8 km/h
2804 13-01-2015 23:45:00 8.4 C 7.3 g/m*3 8.4 C 4.8 km/h
2805 13-01-2015 23:50:00 8.4 C 7.3 g/m*3 6.78 C 9.7 km/h
2806 13-01-2015 23:55:00 8.4 C 7.3 g/m*3 8.4 C 4.8 km/h
2807 14-01-2015 00:00:00 8.4 C 7.3 g/m*3 7.52 C 6.4 km/h
2808 14-01-2015 00:05:00 8.3 C 7.25 g/m*3 8.3 C 3.2 km/h
2809 14-01-2015 00:10:00 8.3 C 7.33 g/m*3 8.3 C 4.8 km/h
2810 14-01-2015 00:15:00 8.3 C 7.33 g/m*3 7.41 C 6.4 km/h
2811 14-01-2015 00:20:00 8.4 C 7.3 g/m*3 8.4 C 4.8 km/h
2812 14-01-2015 00:25:00 8.5 C 7.34 g/m*3 7.64 C 6.4 km/h
2813 14-01-2015 00:30:00 8.5 C 7.34 g/m*3 7.22 C 8.1 km/h
2814 14-01-2015 00:35:00 8.6 C 7.39 g/m*3 6.73 C 11.3 km/h
2815 14-01-2015 00:40:00 8.6 C 7.39 g/m*3 6.73 C 11.3 km/h
2816 14-01-2015 00:45:00 8.6 C 7.39 g/m*3 7.75 C 6.4 km/h
2817 14-01-2015 00:50:00 8.6 C 7.39 g/m*3 8.6 C 4.8 km/h
2818 14-01-2015 00:55:00 8.4 C 7.3 g/m*3 7.52 C 6.4 km/h
2819 14-01-2015 01:00:00 8.4 C 7.3 g/m*3 8.4 C 4.8 km/h
2820 14-01-2015 01:05:00 8.4 C 7.3 g/m*3 8.4 C 3.2 km/h
2821 14-01-2015 01:10:00 8.3 C 7.33 g/m*3 8.3 C 4.8 km/h
2822 14-01-2015 01:15:00 8.2 C 7.29 g/m*3 8.2 C 3.2 km/h
2823 14-01-2015 01:20:00 8.2 C 7.37 g/m*3 8.2 C 4.8 km/h
2824 14-01-2015 01:25:00 8.1 C 7.32 g/m*3 8.1 C 1.6 km/h
2825 14-01-2015 01:30:00 8 C 7.36 g/m*3 8 C 1.6 km/h
Sensor: Nr:Datum:Temp:Abs-Feuchte:Windchill:Wind:
Aussen-T/F 2826 14-01-2015 01:35:00 7.9 C 7.31 g/m*3 7.9 C 1.6 km/h
2827 14-01-2015 01:40:00 8 C 7.36 g/m*3 7.06 C 6.4 km/h
2828 14-01-2015 01:45:00 8.1 C 7.32 g/m*3 7.17 C 6.4 km/h
2829 14-01-2015 01:50:00 8.3 C 7.33 g/m*3 6.66 C 9.7 km/h
2830 14-01-2015 01:55:00 8.3 C 7.25 g/m*3 6.99 C 8.1 km/h
2831 14-01-2015 02:00:00 8.3 C 7.25 g/m*3 6.66 C 9.7 km/h
2832 14-01-2015 02:05:00 8.2 C 7.2 g/m*3 7.29 C 6.4 km/h
2833 14-01-2015 02:10:00 8.2 C 7.2 g/m*3 6.87 C 8.1 km/h
2834 14-01-2015 02:15:00 8.2 C 7.2 g/m*3 7.29 C 6.4 km/h
2835 14-01-2015 02:20:00 8.1 C 7.16 g/m*3 7.17 C 6.4 km/h
2836 14-01-2015 02:25:00 8.2 C 7.2 g/m*3 8.2 C 3.2 km/h
2837 14-01-2015 02:30:00 8.2 C 7.2 g/m*3 8.2 C 3.2 km/h
2838 14-01-2015 02:35:00 8 C 7.11 g/m*3 7.06 C 6.4 km/h
2839 14-01-2015 02:40:00 8.1 C 7.16 g/m*3 5.87 C 12.9 km/h
2840 14-01-2015 02:45:00 8.3 C 7.08 g/m*3 5.68 C 16.1 km/h
2841 14-01-2015 02:50:00 8.5 C 7 g/m*3 5.09 C 24.1 km/h
2842 14-01-2015 02:55:00 8.6 C 6.96 g/m*3 5.37 C 22.5 km/h
2843 14-01-2015 03:00:00 8.6 C 6.87 g/m*3 6.73 C 11.3 km/h
2844 14-01-2015 03:05:00 8.6 C 6.79 g/m*3 5.37 C 22.5 km/h
2845 14-01-2015 03:10:00 8.7 C 6.83 g/m*3 6.17 C 16.1 km/h
2846 14-01-2015 03:15:00 8.7 C 6.83 g/m*3 7.13 C 9.7 km/h
2847 14-01-2015 03:20:00 8.7 C 6.83 g/m*3 5.98 C 17.7 km/h
2848 14-01-2015 03:25:00 8.7 C 6.75 g/m*3 5.49 C 22.5 km/h
2849 14-01-2015 03:30:00 8.7 C 6.75 g/m*3 6.17 C 16.1 km/h
2850 14-01-2015 03:35:00 8.7 C 6.83 g/m*3 6.17 C 16.1 km/h
Sensor: Nr:Datum:Temp:Abs-Feuchte:Windchill:Wind:
Aussen-T/F 2851 14-01-2015 03:40:00 8.8 C 6.79 g/m*3 5.48 C 24.1 km/h
2852 14-01-2015 03:45:00 8.7 C 6.75 g/m*3 6.6 C 12.9 km/h
2853 14-01-2015 03:50:00 8.7 C 6.66 g/m*3 5.35 C 24.1 km/h
2854 14-01-2015 03:55:00 8.8 C 6.61 g/m*3 4.75 C 33.8 km/h
2855 14-01-2015 04:00:00 8.8 C 6.53 g/m*3 4.97 C 30.6 km/h
2856 14-01-2015 04:05:00 8.8 C 6.53 g/m*3 5.77 C 20.9 km/h
2857 14-01-2015 04:10:00 8.8 C 6.53 g/m*3 5.62 C 22.5 km/h
2858 14-01-2015 04:15:00 8.8 C 6.53 g/m*3 5.62 C 22.5 km/h
2859 14-01-2015 04:20:00 8.8 C 6.44 g/m*3 5.62 C 22.5 km/h
2860 14-01-2015 04:25:00 8.7 C 6.49 g/m*3 5.81 C 19.3 km/h
2861 14-01-2015 04:30:00 8.7 C 6.49 g/m*3 5.81 C 19.3 km/h
2862 14-01-2015 04:35:00 8.8 C 6.61 g/m*3 4.45 C 38.6 km/h
2863 14-01-2015 04:40:00 8.6 C 6.79 g/m*3 5.52 C 20.9 km/h
2864 14-01-2015 04:45:00 8.4 C 6.7 g/m*3 6.24 C 12.9 km/h
2865 14-01-2015 04:50:00 8.4 C 6.87 g/m*3 6.24 C 12.9 km/h
2866 14-01-2015 04:55:00 7.8 C 6.94 g/m*3 4.51 C 20.9 km/h
2867 14-01-2015 05:00:00 7.4 C 6.92 g/m*3 3.68 C 24.1 km/h
2868 14-01-2015 05:05:00 7 C 6.66 g/m*3 3.17 C 24.1 km/h
2869 14-01-2015 05:10:00 6.7 C 6.46 g/m*3 3.29 C 19.3 km/h
2870 14-01-2015 05:15:00 6.6 C 6.34 g/m*3 2.36 C 27.4 km/h
2871 14-01-2015 05:20:00 6.3 C 6.22 g/m*3 3.68 C 12.9 km/h
2872 14-01-2015 05:25:00 6.2 C 6.25 g/m*3 3.84 C 11.3 km/h
2873 14-01-2015 05:30:00 6.1 C 6.28 g/m*3 4.04 C 9.7 km/h
2874 14-01-2015 05:35:00 6.1 C 6.28 g/m*3 4.04 C 9.7 km/h
2875 14-01-2015 05:40:00 5.9 C 6.06 g/m*3 2.1 C 20.9 km/h
Sensor: Nr:Datum:Temp:Abs-Feuchte:Windchill:Wind:
Aussen-T/F 2876 14-01-2015 05:45:00 5.9 C 6.06 g/m*3 3.8 C 9.7 km/h
2877 14-01-2015 05:50:00 5.9 C 6.06 g/m*3 3.48 C 11.3 km/h
2878 14-01-2015 05:55:00 5.8 C 6.09 g/m*3 4.05 C 8.1 km/h
2879 14-01-2015 06:00:00 5.6 C 6.08 g/m*3 4.29 C 6.4 km/h
2880 14-01-2015 06:05:00 5.4 C 6 g/m*3 3.58 C 8.1 km/h
2881 14-01-2015 06:10:00 5.4 C 6 g/m*3 4.06 C 6.4 km/h
2882 14-01-2015 06:15:00 5.3 C 6.03 g/m*3 3.46 C 8.1 km/h
2883 14-01-2015 06:20:00 5.3 C 5.96 g/m*3 3.46 C 8.1 km/h
2884 14-01-2015 06:25:00 5.3 C 5.96 g/m*3 2.46 C 12.9 km/h
2885 14-01-2015 06:30:00 5.3 C 5.89 g/m*3 2.75 C 11.3 km/h
2886 14-01-2015 06:35:00 5.3 C 5.89 g/m*3 5.3 C 3.2 km/h
2887 14-01-2015 06:40:00 5.3 C 5.89 g/m*3 5.3 C 4.8 km/h
2888 14-01-2015 06:45:00 5.2 C 5.85 g/m*3 2.96 C 9.7 km/h
2889 14-01-2015 06:50:00 5.2 C 5.85 g/m*3 2.96 C 9.7 km/h
2890 14-01-2015 06:55:00 5.3 C 5.82 g/m*3 2.46 C 12.9 km/h
2891 14-01-2015 07:00:00 5.3 C 5.75 g/m*3 3.94 C 6.4 km/h
2892 14-01-2015 07:05:00 5.3 C 5.75 g/m*3 3.08 C 9.7 km/h
2893 14-01-2015 07:10:00 5.4 C 5.79 g/m*3 2.58 C 12.9 km/h
2894 14-01-2015 07:15:00 5.4 C 5.79 g/m*3 2.58 C 12.9 km/h
2895 14-01-2015 07:20:00 5.6 C 5.73 g/m*3 2.83 C 12.9 km/h
2896 14-01-2015 07:25:00 5.6 C 5.73 g/m*3 3.81 C 8.1 km/h
2897 14-01-2015 07:30:00 5.6 C 5.73 g/m*3 4.29 C 6.4 km/h
2898 14-01-2015 07:35:00 5.2 C 5.71 g/m*3 3.82 C 6.4 km/h
2899 14-01-2015 07:40:00 5.2 C 5.71 g/m*3 5.2 C 4.8 km/h
2900 14-01-2015 07:45:00 5.2 C 5.78 g/m*3 2.96 C 9.7 km/h
Sensor: Nr:Datum:Temp:Abs-Feuchte:Windchill:Wind:
Aussen-T/F 2901 14-01-2015 07:50:00 5.1 C 5.68 g/m*3 3.71 C 6.4 km/h
2902 14-01-2015 07:55:00 5.1 C 5.75 g/m*3 3.71 C 6.4 km/h
2903 14-01-2015 08:00:00 5 C 5.71 g/m*3 2.72 C 9.7 km/h
2904 14-01-2015 08:05:00 4.9 C 5.67 g/m*3 2.99 C 8.1 km/h
2905 14-01-2015 08:10:00 5.1 C 5.68 g/m*3 2.51 C 11.3 km/h
2906 14-01-2015 08:15:00 5.2 C 5.65 g/m*3 2.63 C 11.3 km/h
2907 14-01-2015 08:20:00 5.2 C 5.65 g/m*3 2.96 C 9.7 km/h
2908 14-01-2015 08:25:00 5.1 C 5.61 g/m*3 5.1 C 4.8 km/h
2909 14-01-2015 08:30:00 5.1 C 5.61 g/m*3 1.71 C 16.1 km/h
2910 14-01-2015 08:35:00 5.1 C 5.68 g/m*3 5.1 C 4.8 km/h
2911 14-01-2015 08:40:00 5 C 5.57 g/m*3 3.11 C 8.1 km/h
2912 14-01-2015 08:45:00 5.1 C 5.61 g/m*3 3.23 C 8.1 km/h
2913 14-01-2015 08:50:00 5.1 C 5.61 g/m*3 2.84 C 9.7 km/h
2914 14-01-2015 08:55:00 5.1 C 5.61 g/m*3 3.71 C 6.4 km/h
2915 14-01-2015 09:00:00 5 C 5.57 g/m*3 3.59 C 6.4 km/h
2916 14-01-2015 09:05:00 5 C 5.64 g/m*3 3.59 C 6.4 km/h
2917 14-01-2015 09:10:00 5 C 5.64 g/m*3 5 C 4.8 km/h
2918 14-01-2015 09:15:00 5.1 C 5.68 g/m*3 2.84 C 9.7 km/h
2919 14-01-2015 09:20:00 5.2 C 5.71 g/m*3 5.2 C 4.8 km/h
2920 14-01-2015 09:25:00 5.3 C 5.75 g/m*3 3.08 C 9.7 km/h
2921 14-01-2015 09:30:00 5.4 C 5.72 g/m*3 2.32 C 14.5 km/h
2922 14-01-2015 09:35:00 5.4 C 5.72 g/m*3 2.08 C 16.1 km/h
2923 14-01-2015 09:40:00 5.5 C 5.76 g/m*3 3.32 C 9.7 km/h
2924 14-01-2015 09:45:00 5.5 C 5.69 g/m*3 2.7 C 12.9 km/h
2925 14-01-2015 09:50:00 5.5 C 5.69 g/m*3 1.99 C 17.7 km/h
Sensor: Nr:Datum:Temp:Abs-Feuchte:Windchill:Wind:
Aussen-T/F 2926 14-01-2015 09:55:00 5.5 C 5.69 g/m*3 1.78 C 19.3 km/h
2927 14-01-2015 10:00:00 5.8 C 5.73 g/m*3 2.16 C 19.3 km/h
2928 14-01-2015 10:05:00 5.9 C 5.77 g/m*3 2.93 C 14.5 km/h
2929 14-01-2015 10:10:00 5.9 C 5.77 g/m*3 3.19 C 12.9 km/h
2930 14-01-2015 10:15:00 6 C 5.81 g/m*3 2.82 C 16.1 km/h
2931 14-01-2015 10:20:00 6.1 C 5.84 g/m*3 3.18 C 14.5 km/h
2932 14-01-2015 10:25:00 6.1 C 5.92 g/m*3 3.72 C 11.3 km/h
2933 14-01-2015 10:30:00 6.2 C 5.88 g/m*3 2.66 C 19.3 km/h
2934 14-01-2015 10:35:00 6.3 C 5.92 g/m*3 2.98 C 17.7 km/h
2935 14-01-2015 10:40:00 6.3 C 5.85 g/m*3 4.27 C 9.7 km/h
2936 14-01-2015 10:45:00 6.5 C 5.85 g/m*3 2.69 C 22.5 km/h
2937 14-01-2015 10:50:00 6.6 C 5.89 g/m*3 3.57 C 16.1 km/h
2938 14-01-2015 10:55:00 6.6 C 5.96 g/m*3 4.04 C 12.9 km/h
2939 14-01-2015 11:00:00 6.6 C 5.96 g/m*3 4.04 C 12.9 km/h
2940 14-01-2015 11:05:00 6.7 C 5.93 g/m*3 2.22 C 30.6 km/h
2941 14-01-2015 11:10:00 6.8 C 5.97 g/m*3 3.24 C 20.9 km/h
2942 14-01-2015 11:15:00 6.9 C 6 g/m*3 3.94 C 16.1 km/h
2943 14-01-2015 11:20:00 6.9 C 5.93 g/m*3 3.37 C 20.9 km/h
2944 14-01-2015 11:25:00 6.9 C 5.85 g/m*3 3.04 C 24.1 km/h
2945 14-01-2015 11:30:00 6.8 C 5.97 g/m*3 2.76 C 25.7 km/h
2946 14-01-2015 11:35:00 6.6 C 6.19 g/m*3 2.82 C 22.5 km/h
2947 14-01-2015 11:40:00 6.4 C 6.11 g/m*3 3.55 C 14.5 km/h
2948 14-01-2015 11:45:00 6.4 C 6.18 g/m*3 3.8 C 12.9 km/h
2949 14-01-2015 11:50:00 6.5 C 6.15 g/m*3 3.92 C 12.9 km/h
2950 14-01-2015 11:55:00 6.6 C 6.19 g/m*3 3.79 C 14.5 km/h
Sensor: Nr:Datum:Temp:Abs-Feuchte:Windchill:Wind:
Aussen-T/F 2951 14-01-2015 12:00:00 6.8 C 6.12 g/m*3 3.61 C 17.7 km/h
2952 14-01-2015 12:05:00 6.8 C 6.12 g/m*3 2.91 C 24.1 km/h
2953 14-01-2015 12:10:00 7 C 6.12 g/m*3 2.87 C 27.4 km/h
2954 14-01-2015 12:15:00 7 C 6.12 g/m*3 3.02 C 25.7 km/h
2955 14-01-2015 12:20:00 6.9 C 6 g/m*3 3.54 C 19.3 km/h
2956 14-01-2015 12:25:00 6.8 C 5.97 g/m*3 2.76 C 25.7 km/h
2957 14-01-2015 12:30:00 6.4 C 6.04 g/m*3 2.25 C 25.7 km/h
2958 14-01-2015 12:35:00 6 C 6.02 g/m*3 2.05 C 22.5 km/h
2959 14-01-2015 12:40:00 5.6 C 6.08 g/m*3 3.11 C 11.3 km/h
2960 14-01-2015 12:45:00 5.3 C 6.03 g/m*3 1.74 C 17.7 km/h
2961 14-01-2015 12:50:00 5.2 C 5.99 g/m*3 2.34 C 12.9 km/h
2962 14-01-2015 12:55:00 5.1 C 6.16 g/m*3 1.95 C 14.5 km/h
2963 14-01-2015 13:00:00 5.1 C 6.16 g/m*3 1.95 C 14.5 km/h
2964 14-01-2015 13:05:00 5 C 6.12 g/m*3 1.15 C 19.3 km/h
2965 14-01-2015 13:10:00 4.9 C 6.14 g/m*3 2.27 C 11.3 km/h
2966 14-01-2015 13:15:00 4.8 C 6.1 g/m*3 1.58 C 14.5 km/h
2967 14-01-2015 13:20:00 4.8 C 6.1 g/m*3 1.34 C 16.1 km/h
2968 14-01-2015 13:25:00 4.9 C 6.14 g/m*3 2.27 C 11.3 km/h
2969 14-01-2015 13:30:00 5.1 C 6.16 g/m*3 2.51 C 11.3 km/h
2970 14-01-2015 13:35:00 5.2 C 6.2 g/m*3 2.96 C 9.7 km/h
2971 14-01-2015 13:40:00 5.3 C 6.24 g/m*3 2.46 C 12.9 km/h
2972 14-01-2015 13:45:00 5.3 C 6.17 g/m*3 1.96 C 16.1 km/h
2973 14-01-2015 13:50:00 5.3 C 6.17 g/m*3 2.75 C 11.3 km/h
2974 14-01-2015 13:55:00 5.4 C 6.21 g/m*3 3.2 C 9.7 km/h
2975 14-01-2015 14:00:00 5.5 C 6.25 g/m*3 1.78 C 19.3 km/h
Sensor: Nr:Datum:Temp:Abs-Feuchte:Windchill:Wind:
Aussen-T/F 2976 14-01-2015 14:05:00 5.6 C 6.22 g/m*3 2.33 C 16.1 km/h
2977 14-01-2015 14:10:00 5.7 C 6.19 g/m*3 2.24 C 17.7 km/h
2978 14-01-2015 14:15:00 5.7 C 6.19 g/m*3 2.95 C 12.9 km/h
2979 14-01-2015 14:20:00 5.8 C 6.23 g/m*3 2.36 C 17.7 km/h
2980 14-01-2015 14:25:00 5.8 C 6.23 g/m*3 2.58 C 16.1 km/h
2981 14-01-2015 14:30:00 5.9 C 6.27 g/m*3 3.48 C 11.3 km/h
2982 14-01-2015 14:35:00 6 C 6.31 g/m*3 3.06 C 14.5 km/h
2983 14-01-2015 14:40:00 6 C 6.31 g/m*3 1.73 C 25.7 km/h
2984 14-01-2015 14:45:00 5.9 C 6.27 g/m*3 2.48 C 17.7 km/h
2985 14-01-2015 14:50:00 5.9 C 6.27 g/m*3 2.93 C 14.5 km/h
2986 14-01-2015 14:55:00 5.7 C 6.19 g/m*3 1.67 C 22.5 km/h
2987 14-01-2015 15:00:00 4.7 C 5.8 g/m*3 1.21 C 16.1 km/h
2988 14-01-2015 15:05:00 4.2 C 5.67 g/m*3 0.59 C 16.1 km/h
2989 14-01-2015 15:10:00 4.2 C 5.67 g/m*3 0.36 C 17.7 km/h
2990 14-01-2015 15:15:00 4.2 C 5.67 g/m*3 0.84 C 14.5 km/h
2991 14-01-2015 15:20:00 4.2 C 5.73 g/m*3 0.84 C 14.5 km/h
2992 14-01-2015 15:25:00 4.3 C 5.77 g/m*3 0.72 C 16.1 km/h
2993 14-01-2015 15:30:00 4.3 C 5.71 g/m*3 0.72 C 16.1 km/h
2994 14-01-2015 15:35:00 4.4 C 5.75 g/m*3 1.67 C 11.3 km/h
2995 14-01-2015 15:40:00 4.6 C 5.76 g/m*3 -0.07 C 25.7 km/h
2996 14-01-2015 15:45:00 4.7 C 5.8 g/m*3 1.21 C 16.1 km/h
2997 14-01-2015 15:50:00 4.7 C 5.8 g/m*3 1.73 C 12.9 km/h
2998 14-01-2015 15:55:00 4.7 C 5.8 g/m*3 1.21 C 16.1 km/h
2999 14-01-2015 16:00:00 4.7 C 5.8 g/m*3 2.03 C 11.3 km/h
3000 14-01-2015 16:05:00 4.8 C 5.9 g/m*3 0.71 C 20.9 km/h
Sensor: Nr:Datum:Temp:Abs-Feuchte:Windchill:Wind:
Aussen-T/F 3001 14-01-2015 16:10:00 4.8 C 5.9 g/m*3 1.34 C 16.1 km/h
3002 14-01-2015 16:15:00 4.8 C 5.83 g/m*3 2.15 C 11.3 km/h
3003 14-01-2015 16:20:00 4.8 C 5.83 g/m*3 2.15 C 11.3 km/h
3004 14-01-2015 16:25:00 4.8 C 5.77 g/m*3 2.49 C 9.7 km/h
3005 14-01-2015 16:30:00 4.8 C 5.77 g/m*3 1.85 C 12.9 km/h
3006 14-01-2015 16:35:00 4.8 C 5.63 g/m*3 1.11 C 17.7 km/h
3007 14-01-2015 16:40:00 4.8 C 5.7 g/m*3 2.15 C 11.3 km/h
3008 14-01-2015 16:45:00 4.8 C 5.7 g/m*3 1.85 C 12.9 km/h
3009 14-01-2015 16:50:00 4.7 C 5.66 g/m*3 2.76 C 8.1 km/h
3010 14-01-2015 16:55:00 4.6 C 5.62 g/m*3 2.64 C 8.1 km/h
3011 14-01-2015 17:00:00 4.4 C 5.55 g/m*3 2.9 C 6.4 km/h
3012 14-01-2015 17:05:00 4.2 C 5.61 g/m*3 4.2 C 4.8 km/h
3013 14-01-2015 17:10:00 4.1 C 5.57 g/m*3 4.1 C 3.2 km/h
3014 14-01-2015 17:15:00 4.1 C 5.57 g/m*3 4.1 C 3.2 km/h
3015 14-01-2015 17:35:00 3.9 C 6.32 g/m*3 3.9 C 3.2 km/h
3016 14-01-2015 17:40:00 3.8 C 5.52 g/m*3 3.8 C 4.8 km/h
3017 14-01-2015 17:45:00 3.7 C 5.48 g/m*3 3.7 C 4.8 km/h
3018 14-01-2015 17:50:00 3.7 C 5.48 g/m*3 3.7 C 3.2 km/h
3019 14-01-2015 17:55:00 3.6 C 5.57 g/m*3 3.6 C 3.2 km/h
3020 14-01-2015 18:00:00 3.5 C 5.53 g/m*3 0.94 C 9.7 km/h
3021 14-01-2015 18:05:00 3.6 C 5.45 g/m*3 -0.15 C 16.1 km/h
3022 14-01-2015 18:10:00 3.7 C 5.48 g/m*3 3.7 C 4.8 km/h
3023 14-01-2015 18:15:00 3.7 C 5.48 g/m*3 3.7 C 3.2 km/h
3024 14-01-2015 18:50:00 3.2 C 5.42 g/m*3 1.51 C 6.4 km/h
3025 14-01-2015 18:55:00 3.2 C 5.42 g/m*3 3.2 C 3.2 km/h
Sensor: Nr:Datum:Temp:Abs-Feuchte:Windchill:Wind:
Aussen-T/F 3026 14-01-2015 19:00:00 3.5 C 5.41 g/m*3 1.34 C 8.1 km/h
3027 14-01-2015 19:05:00 3.5 C 5.41 g/m*3 3.5 C 3.2 km/h
3028 14-01-2015 19:10:00 3.5 C 5.41 g/m*3 -0.73 C 19.3 km/h
3029 14-01-2015 19:15:00 3.5 C 5.41 g/m*3 0.94 C 9.7 km/h
3030 14-01-2015 19:20:00 3.8 C 5.52 g/m*3 1.29 C 9.7 km/h
3031 14-01-2015 19:25:00 3.9 C 5.37 g/m*3 1.82 C 8.1 km/h
3032 14-01-2015 19:30:00 3.8 C 5.33 g/m*3 1.29 C 9.7 km/h
3033 14-01-2015 19:35:00 3.8 C 5.33 g/m*3 3.8 C 4.8 km/h
3034 14-01-2015 19:40:00 3.7 C 5.36 g/m*3 0.82 C 11.3 km/h
3035 14-01-2015 19:45:00 3.7 C 5.36 g/m*3 2.09 C 6.4 km/h
3036 14-01-2015 22:30:00 2.3 C 5.33 g/m*3 2.3 C 1.6 km/h
3037 14-01-2015 22:35:00 2.4 C 5.37 g/m*3 2.4 C 3.2 km/h
3038 14-01-2015 22:40:00 2.4 C 5.37 g/m*3 2.4 C 0 km/h
3039 14-01-2015 23:05:00 2.2 C 5.63 g/m*3 2.2 C 1.6 km/h
3040 14-01-2015 23:10:00 2.2 C 5.63 g/m*3 2.2 C 1.6 km/h
3041 14-01-2015 23:15:00 2.2 C 5.63 g/m*3 2.2 C 1.6 km/h
3042 14-01-2015 23:20:00 2.2 C 5.63 g/m*3 2.2 C 4.8 km/h
3043 15-01-2015 08:10:00 7.8 C 7.02 g/m*3 5.77 C 11.3 km/h
3044 15-01-2015 08:15:00 7.8 C 7.02 g/m*3 4.86 C 17.7 km/h
3045 15-01-2015 08:20:00 7.8 C 7.02 g/m*3 4.86 C 17.7 km/h
3046 15-01-2015 08:25:00 7.9 C 7.06 g/m*3 5.89 C 11.3 km/h
3047 15-01-2015 08:30:00 7.8 C 7.02 g/m*3 6.06 C 9.7 km/h
3048 15-01-2015 08:35:00 7.9 C 7.06 g/m*3 6.18 C 9.7 km/h
3049 15-01-2015 08:40:00 7.9 C 7.06 g/m*3 6.52 C 8.1 km/h
3050 15-01-2015 08:45:00 7.9 C 7.06 g/m*3 5.89 C 11.3 km/h
Sensor: Nr:Datum:Temp:Abs-Feuchte:Windchill:Wind:
Aussen-T/F 3051 15-01-2015 08:50:00 8 C 7.11 g/m*3 5.75 C 12.9 km/h
3052 15-01-2015 08:55:00 8.1 C 7.07 g/m*3 5.87 C 12.9 km/h
3053 15-01-2015 09:00:00 8.2 C 7.12 g/m*3 5.76 C 14.5 km/h
3054 15-01-2015 09:05:00 8.3 C 7.16 g/m*3 5.31 C 19.3 km/h
3055 15-01-2015 09:10:00 8.3 C 7.08 g/m*3 6.37 C 11.3 km/h
3056 15-01-2015 09:15:00 8.3 C 7.08 g/m*3 5.68 C 16.1 km/h
3057 15-01-2015 09:20:00 8.4 C 7.04 g/m*3 5.27 C 20.9 km/h
3058 15-01-2015 09:25:00 8.5 C 7.09 g/m*3 6.36 C 12.9 km/h
3059 15-01-2015 09:30:00 8.6 C 7.13 g/m*3 6.73 C 11.3 km/h
3060 15-01-2015 09:35:00 8.6 C 7.13 g/m*3 6.05 C 16.1 km/h
3061 15-01-2015 09:40:00 8.7 C 7.18 g/m*3 7.46 C 8.1 km/h
3062 15-01-2015 09:45:00 8.8 C 7.05 g/m*3 7.25 C 9.7 km/h
3063 15-01-2015 09:50:00 8.8 C 7.05 g/m*3 7.98 C 6.4 km/h
3064 15-01-2015 09:55:00 8.8 C 7.05 g/m*3 7.25 C 9.7 km/h
3065 15-01-2015 10:00:00 8.9 C 7.01 g/m*3 6.85 C 12.9 km/h
3066 15-01-2015 10:05:00 8.9 C 7.01 g/m*3 8.1 C 6.4 km/h
3067 15-01-2015 10:10:00 8.9 C 7.01 g/m*3 8.1 C 6.4 km/h
3068 15-01-2015 10:15:00 8.9 C 7.01 g/m*3 8.9 C 4.8 km/h
3069 15-01-2015 10:20:00 8.9 C 7.01 g/m*3 8.9 C 4.8 km/h
3070 15-01-2015 17:05:00 11.5 C 10.33 g/m*3 11.5 C 11.3 km/h
3071 15-01-2015 17:10:00 11.4 C 6.77 g/m*3 11.4 C 17.7 km/h
3072 15-01-2015 17:15:00 11.5 C 6.92 g/m*3 11.5 C 12.9 km/h
3073 15-01-2015 17:20:00 11.5 C 6.92 g/m*3 11.5 C 20.9 km/h
3074 15-01-2015 17:25:00 11.5 C 6.92 g/m*3 11.5 C 16.1 km/h
3075 15-01-2015 17:30:00 11.4 C 6.77 g/m*3 11.4 C 35.4 km/h
Sensor: Nr:Datum:Temp:Abs-Feuchte:Windchill:Wind:
Aussen-T/F 3076 15-01-2015 17:35:00 11.4 C 6.77 g/m*3 11.4 C 35.4 km/h
3077 15-01-2015 17:40:00 11.4 C 6.77 g/m*3 11.4 C 17.7 km/h
3078 15-01-2015 17:45:00 11.4 C 6.77 g/m*3 11.4 C 12.9 km/h
3079 15-01-2015 17:50:00 11.4 C 6.77 g/m*3 11.4 C 33.8 km/h
3080 15-01-2015 17:55:00 11.4 C 6.77 g/m*3 11.4 C 19.3 km/h
3081 15-01-2015 18:10:00 11.4 C 6.77 g/m*3 11.4 C 12.9 km/h
3082 15-01-2015 18:15:00 11.3 C 6.73 g/m*3 11.3 C 12.9 km/h
3083 15-01-2015 18:20:00 11.3 C 6.83 g/m*3 11.3 C 9.7 km/h
3084 15-01-2015 18:25:00 11.2 C 6.69 g/m*3 11.2 C 9.7 km/h
3085 15-01-2015 18:30:00 11.3 C 6.73 g/m*3 11.3 C 8.1 km/h
3086 15-01-2015 18:35:00 11.3 C 6.73 g/m*3 11.3 C 17.7 km/h
3087 15-01-2015 18:40:00 11.3 C 6.73 g/m*3 11.3 C 22.5 km/h
3088 15-01-2015 18:45:00 11.4 C 6.77 g/m*3 11.4 C 24.1 km/h
3089 15-01-2015 18:50:00 11.4 C 6.88 g/m*3 11.4 C 32.2 km/h
3090 15-01-2015 18:55:00 11.3 C 6.83 g/m*3 11.3 C 22.5 km/h
3091 15-01-2015 19:00:00 11.3 C 6.83 g/m*3 11.3 C 17.7 km/h
3092 15-01-2015 19:05:00 11.2 C 6.89 g/m*3 11.2 C 14.5 km/h
3093 15-01-2015 19:10:00 11.2 C 6.89 g/m*3 11.2 C 19.3 km/h
3094 15-01-2015 19:15:00 11.2 C 6.89 g/m*3 11.2 C 22.5 km/h
3095 15-01-2015 19:20:00 11.2 C 6.89 g/m*3 11.2 C 19.3 km/h
3096 15-01-2015 19:25:00 11.2 C 6.99 g/m*3 11.2 C 19.3 km/h
3097 15-01-2015 19:30:00 11.2 C 6.99 g/m*3 11.2 C 24.1 km/h
3098 15-01-2015 19:35:00 11.1 C 7.05 g/m*3 11.1 C 41.8 km/h
3099 15-01-2015 19:40:00 11.1 C 7.15 g/m*3 11.1 C 19.3 km/h
3100 15-01-2015 19:45:00 10.9 C 7.06 g/m*3 8.05 C 25.7 km/h
Sensor: Nr:Datum:Temp:Abs-Feuchte:Windchill:Wind:
Aussen-T/F 3101 15-01-2015 19:50:00 10.9 C 7.06 g/m*3 8.3 C 22.5 km/h
3102 15-01-2015 19:55:00 10.9 C 7.06 g/m*3 7.71 C 30.6 km/h
3103 15-01-2015 20:00:00 10.9 C 7.16 g/m*3 8.58 C 19.3 km/h
3104 15-01-2015 20:05:00 10.9 C 7.16 g/m*3 8.43 C 20.9 km/h
3105 15-01-2015 20:10:00 10.9 C 7.16 g/m*3 8.9 C 16.1 km/h
3106 15-01-2015 20:15:00 10.9 C 7.16 g/m*3 8.9 C 16.1 km/h
3107 15-01-2015 20:20:00 10.9 C 7.16 g/m*3 7.81 C 29 km/h
3108 15-01-2015 20:25:00 11 C 7.21 g/m*3 6.85 C 49.9 km/h
3109 15-01-2015 20:30:00 10.9 C 7.26 g/m*3 8.43 C 20.9 km/h
3110 15-01-2015 20:35:00 10.9 C 7.26 g/m*3 8.17 C 24.1 km/h
3111 15-01-2015 20:40:00 10.9 C 7.26 g/m*3 8.17 C 24.1 km/h
3112 15-01-2015 20:45:00 10.8 C 7.22 g/m*3 8.04 C 24.1 km/h
3113 15-01-2015 20:50:00 10.8 C 7.31 g/m*3 7.92 C 25.7 km/h
3114 15-01-2015 20:55:00 10.7 C 7.27 g/m*3 8.18 C 20.9 km/h
3115 15-01-2015 21:00:00 10.7 C 7.37 g/m*3 7.91 C 24.1 km/h
3116 15-01-2015 21:05:00 10.6 C 7.32 g/m*3 7.91 C 22.5 km/h
3117 15-01-2015 21:10:00 10.6 C 7.32 g/m*3 8.36 C 17.7 km/h
3118 15-01-2015 21:15:00 10.5 C 7.27 g/m*3 8.4 C 16.1 km/h
3119 15-01-2015 21:20:00 10.4 C 7.32 g/m*3 9.16 C 9.7 km/h
3120 15-01-2015 21:25:00 10.3 C 7.28 g/m*3 8.78 C 11.3 km/h
3121 15-01-2015 21:30:00 10.2 C 7.33 g/m*3 8.66 C 11.3 km/h
3122 15-01-2015 21:35:00 10.2 C 7.23 g/m*3 9.22 C 8.1 km/h
3123 15-01-2015 21:40:00 10.3 C 7.28 g/m*3 7.4 C 24.1 km/h
3124 15-01-2015 21:45:00 10.4 C 7.32 g/m*3 7.4 C 25.7 km/h
3125 15-01-2015 21:50:00 10.4 C 7.32 g/m*3 8.11 C 17.7 km/h
Sensor: Nr:Datum:Temp:Abs-Feuchte:Windchill:Wind:
Aussen-T/F 3126 15-01-2015 21:55:00 10.4 C 7.42 g/m*3 7.53 C 24.1 km/h
3127 15-01-2015 22:00:00 10.4 C 7.42 g/m*3 7.4 C 25.7 km/h
3128 15-01-2015 22:05:00 10.3 C 7.37 g/m*3 7.67 C 20.9 km/h
3129 15-01-2015 22:10:00 10.3 C 7.47 g/m*3 7.67 C 20.9 km/h
3130 15-01-2015 22:15:00 10.3 C 7.47 g/m*3 7.82 C 19.3 km/h
3131 15-01-2015 22:20:00 10.3 C 7.47 g/m*3 7.98 C 17.7 km/h
3132 15-01-2015 22:25:00 10.3 C 7.47 g/m*3 8.55 C 12.9 km/h
3133 15-01-2015 22:30:00 10.3 C 7.47 g/m*3 7.82 C 19.3 km/h
3134 15-01-2015 22:35:00 10.3 C 7.57 g/m*3 7.98 C 17.7 km/h
3135 15-01-2015 22:40:00 10.3 C 7.57 g/m*3 8.34 C 14.5 km/h
3136 15-01-2015 22:45:00 10.3 C 7.57 g/m*3 8.55 C 12.9 km/h
3137 15-01-2015 22:50:00 10.3 C 7.57 g/m*3 8.34 C 14.5 km/h
3138 15-01-2015 22:55:00 10.3 C 7.57 g/m*3 7.67 C 20.9 km/h
3139 15-01-2015 23:00:00 10.3 C 7.57 g/m*3 7.67 C 20.9 km/h
3140 15-01-2015 23:05:00 10.3 C 7.66 g/m*3 7.98 C 17.7 km/h
3141 15-01-2015 23:10:00 10.2 C 7.61 g/m*3 7.86 C 17.7 km/h
3142 15-01-2015 23:15:00 10.2 C 7.61 g/m*3 7.54 C 20.9 km/h
3143 15-01-2015 23:20:00 10.1 C 7.66 g/m*3 7.42 C 20.9 km/h
3144 15-01-2015 23:25:00 10 C 7.8 g/m*3 7.98 C 14.5 km/h
3145 15-01-2015 23:30:00 9.8 C 7.79 g/m*3 7.94 C 12.9 km/h
3146 15-01-2015 23:35:00 9.6 C 7.69 g/m*3 7.29 C 16.1 km/h
3147 15-01-2015 23:40:00 9.5 C 7.74 g/m*3 7.36 C 14.5 km/h
3148 15-01-2015 23:45:00 9.4 C 7.69 g/m*3 7.24 C 14.5 km/h
3149 15-01-2015 23:50:00 9.4 C 7.69 g/m*3 7.46 C 12.9 km/h
3150 15-01-2015 23:55:00 9.4 C 7.78 g/m*3 7.46 C 12.9 km/h
Sensor: Nr:Datum:Temp:Abs-Feuchte:Windchill:Wind:
Aussen-T/F 3151 16-01-2015 00:00:00 9.3 C 7.73 g/m*3 7.58 C 11.3 km/h
3152 16-01-2015 00:05:00 9.3 C 7.64 g/m*3 7.33 C 12.9 km/h
3153 16-01-2015 00:10:00 9.3 C 7.64 g/m*3 8.16 C 8.1 km/h
3154 16-01-2015 00:15:00 9.3 C 7.64 g/m*3 7.33 C 12.9 km/h
3155 16-01-2015 00:20:00 9.3 C 7.64 g/m*3 8.16 C 8.1 km/h
3156 16-01-2015 00:25:00 9.3 C 7.73 g/m*3 7.85 C 9.7 km/h
3157 16-01-2015 00:30:00 9.3 C 7.73 g/m*3 7.85 C 9.7 km/h
3158 16-01-2015 00:35:00 9.3 C 7.64 g/m*3 7.33 C 12.9 km/h
3159 16-01-2015 00:40:00 9.3 C 7.64 g/m*3 6.92 C 16.1 km/h
3160 16-01-2015 00:45:00 9.3 C 7.55 g/m*3 7.85 C 9.7 km/h
3161 16-01-2015 00:50:00 9.3 C 7.46 g/m*3 7.85 C 9.7 km/h
3162 16-01-2015 00:55:00 9.3 C 7.37 g/m*3 7.58 C 11.3 km/h
3163 16-01-2015 01:00:00 9.3 C 7.37 g/m*3 7.12 C 14.5 km/h
3164 16-01-2015 01:05:00 9.3 C 7.37 g/m*3 7.85 C 9.7 km/h
3165 16-01-2015 01:10:00 9.2 C 7.41 g/m*3 9.2 C 3.2 km/h
3166 16-01-2015 01:15:00 9.1 C 7.45 g/m*3 7.93 C 8.1 km/h
3167 16-01-2015 01:20:00 9.1 C 7.36 g/m*3 7.33 C 11.3 km/h
3168 16-01-2015 01:25:00 9.1 C 7.36 g/m*3 7.61 C 9.7 km/h
3169 16-01-2015 01:30:00 9.1 C 7.36 g/m*3 7.93 C 8.1 km/h
3170 16-01-2015 01:35:00 9.1 C 7.36 g/m*3 7.33 C 11.3 km/h
3171 16-01-2015 01:40:00 9 C 7.41 g/m*3 7.81 C 8.1 km/h
3172 16-01-2015 01:45:00 8.9 C 7.45 g/m*3 8.9 C 3.2 km/h
3173 16-01-2015 01:50:00 8.8 C 7.4 g/m*3 7.98 C 6.4 km/h
3174 16-01-2015 01:55:00 8.7 C 7.52 g/m*3 7.46 C 8.1 km/h
3175 16-01-2015 02:00:00 8.6 C 7.56 g/m*3 7.34 C 8.1 km/h
Sensor: Nr:Datum:Temp:Abs-Feuchte:Windchill:Wind:
Aussen-T/F 3176 16-01-2015 02:05:00 8.4 C 7.55 g/m*3 8.4 C 4.8 km/h
3177 16-01-2015 02:10:00 8.3 C 7.42 g/m*3 6.37 C 11.3 km/h
3178 16-01-2015 02:15:00 8.3 C 7.42 g/m*3 6.99 C 8.1 km/h
3179 16-01-2015 02:20:00 8.3 C 7.42 g/m*3 8.3 C 3.2 km/h
3180 16-01-2015 02:25:00 8.2 C 7.37 g/m*3 7.29 C 6.4 km/h
3181 16-01-2015 02:30:00 8.2 C 7.37 g/m*3 8.2 C 4.8 km/h
3182 16-01-2015 02:35:00 8.2 C 7.37 g/m*3 8.2 C 1.6 km/h
3183 16-01-2015 02:40:00 8.1 C 7.32 g/m*3 7.17 C 6.4 km/h
3184 16-01-2015 02:45:00 8.1 C 7.32 g/m*3 8.1 C 3.2 km/h
3185 16-01-2015 02:50:00 7.9 C 7.06 g/m*3 6.94 C 6.4 km/h
3186 16-01-2015 02:55:00 8.1 C 7.16 g/m*3 7.17 C 6.4 km/h
3187 16-01-2015 03:00:00 8.1 C 7.16 g/m*3 6.13 C 11.3 km/h
3188 16-01-2015 03:05:00 8.1 C 7.16 g/m*3 8.1 C 4.8 km/h
3189 16-01-2015 03:10:00 8.1 C 7.16 g/m*3 7.17 C 6.4 km/h
3190 16-01-2015 03:15:00 8.1 C 7.16 g/m*3 7.17 C 6.4 km/h
3191 16-01-2015 03:20:00 8.1 C 7.16 g/m*3 5.87 C 12.9 km/h
3192 16-01-2015 03:25:00 8.1 C 7.24 g/m*3 7.17 C 6.4 km/h
3193 16-01-2015 03:30:00 8 C 7.19 g/m*3 8 C 3.2 km/h
3194 16-01-2015 03:35:00 7.9 C 7.15 g/m*3 7.9 C 1.6 km/h
3195 16-01-2015 03:40:00 7.8 C 7.18 g/m*3 7.8 C 1.6 km/h
3196 16-01-2015 03:45:00 7.6 C 7.09 g/m*3 6.6 C 6.4 km/h
3197 16-01-2015 03:50:00 7.6 C 7.09 g/m*3 7.6 C 3.2 km/h
3198 16-01-2015 03:55:00 7.6 C 7.17 g/m*3 7.6 C 0 km/h
3199 16-01-2015 04:00:00 7.4 C 7 g/m*3 7.4 C 3.2 km/h
3200 16-01-2015 04:05:00 7.4 C 7.08 g/m*3 6.37 C 6.4 km/h
Sensor: Nr:Datum:Temp:Abs-Feuchte:Windchill:Wind:
Aussen-T/F 3201 16-01-2015 04:10:00 7.6 C 7.01 g/m*3 7.6 C 4.8 km/h
3202 16-01-2015 04:15:00 7.6 C 7.01 g/m*3 7.6 C 3.2 km/h
3203 16-01-2015 04:20:00 7.7 C 6.97 g/m*3 6.71 C 6.4 km/h
3204 16-01-2015 04:25:00 7.7 C 7.05 g/m*3 7.7 C 0 km/h
3205 16-01-2015 04:30:00 7.5 C 7.04 g/m*3 7.5 C 0 km/h
3206 16-01-2015 04:35:00 7.3 C 6.95 g/m*3 7.3 C 0 km/h
3207 16-01-2015 04:40:00 7.2 C 6.91 g/m*3 7.2 C 3.2 km/h
3208 16-01-2015 04:45:00 7.2 C 6.99 g/m*3 7.2 C 0 km/h
3209 16-01-2015 04:50:00 7 C 6.9 g/m*3 7 C 0 km/h
3210 16-01-2015 04:55:00 6.9 C 6.85 g/m*3 6.9 C 3.2 km/h
3211 16-01-2015 05:00:00 6.8 C 6.81 g/m*3 6.8 C 1.6 km/h
3212 16-01-2015 05:05:00 6.8 C 6.88 g/m*3 6.8 C 4.8 km/h
3213 16-01-2015 05:10:00 6.9 C 6.85 g/m*3 6.9 C 4.8 km/h
3214 16-01-2015 05:15:00 7.1 C 6.86 g/m*3 7.1 C 0 km/h
3215 16-01-2015 05:20:00 7.1 C 6.86 g/m*3 7.1 C 4.8 km/h
3216 16-01-2015 05:25:00 7.1 C 6.86 g/m*3 7.1 C 3.2 km/h
3217 16-01-2015 05:30:00 7.1 C 6.86 g/m*3 7.1 C 3.2 km/h
3218